Darstellungsparameter: Aktuell verwendete Einstellungen:
Skalierung der Graphiken ... ?
xyx+y,   Skalierungsfaktor:      Skalierung: Modus: x, Faktor: 1
Darstellungszeitraum ... ?
Vom - - bis: - -   Zeitraum: 07.04.2007 - 27.04.2007
Min/Max/Avg-Anzeige ... ?
Zeige MMA aktuell
Zeige MMA Monat
Zeige MMA alles
Zeige --A aktuell
Zeige --A Monat
Zeige --A alles
Keine MMA-Anzeige
MMA:
Average (ber die Originaldaten)
MMA-Basis: 07.04.2007 - 27.04.2007
Quicknavigation für Darstellung... ?
Tage:      1T, 2T, 3T, 5T -1T -2T -3T -5T +1T +2T +3T +5T
Wochen: 1W, 2W, 3W -1W -2W -3W +1W +2W +3W
Monate: 1M, 3M, 6M -1M -3M -6M +1M +3M +6M
Jahre:    1J, 3J, 5J, 10J -1J -3J -5J -10J +1J +3J +5J +10J
Nutze für die Darstellung ... ?
Originaldaten oder Mittelwerte auf ...
Stundenbasis Tagesbasis Wochenbasis
Monatsbasis Jahresbasis      Datenbasis: Original-Daten
Darstellen als:
Statistik (Auto) Statistik J:M      Darstellung:
Zur Graphik,    zurück zur Übersicht aller Sensoren.
 
Tabellarische Datenbersicht: ?
 
Sensor: Nr:Datum:Temp:Abs-Feuchte:Windchill:Wind:
Aussen-T/F 1 07-04-2007 00:04:01 10.7 C 5.89 g/m*3 10.7 C 0 km/h
2 07-04-2007 00:09:01 10.5 C 5.92 g/m*3 10.5 C 0 km/h
3 07-04-2007 00:14:02 10.4 C 5.98 g/m*3 10.4 C 0 km/h
4 07-04-2007 00:19:02 10.4 C 5.98 g/m*3 10.4 C 0 km/h
5 07-04-2007 00:24:02 10.3 C 5.94 g/m*3 10.3 C 0 km/h
6 07-04-2007 00:29:02 10.2 C 5.9 g/m*3 10.2 C 0 km/h
7 07-04-2007 00:34:01 10.1 C 5.96 g/m*3 10.1 C 0 km/h
8 07-04-2007 00:39:02 10.1 C 5.86 g/m*3 10.1 C 0 km/h
9 07-04-2007 00:44:02 10.1 C 5.96 g/m*3 10.1 C 0 km/h
10 07-04-2007 00:49:01 9.9 C 5.98 g/m*3 9.9 C 0 km/h
11 07-04-2007 00:54:01 9.8 C 5.94 g/m*3 9.8 C 0 km/h
12 07-04-2007 00:59:01 9.6 C 5.95 g/m*3 9.6 C 0 km/h
13 07-04-2007 01:04:02 9.6 C 5.95 g/m*3 9.6 C 0 km/h
14 07-04-2007 01:09:02 9.6 C 5.95 g/m*3 9.6 C 0 km/h
15 07-04-2007 01:14:02 9.5 C 6.01 g/m*3 9.5 C 0 km/h
16 07-04-2007 01:19:02 9.5 C 6.01 g/m*3 9.5 C 0 km/h
17 07-04-2007 01:24:02 9.3 C 5.93 g/m*3 9.3 C 0 km/h
18 07-04-2007 01:29:02 9.3 C 5.93 g/m*3 9.3 C 0 km/h
19 07-04-2007 01:34:01 9.1 C 5.94 g/m*3 9.1 C 0 km/h
20 07-04-2007 01:39:01 9 C 5.91 g/m*3 9 C 0 km/h
21 07-04-2007 01:44:01 9 C 5.91 g/m*3 9 C 0 km/h
22 07-04-2007 01:49:02 8.9 C 5.96 g/m*3 8.9 C 0 km/h
23 07-04-2007 01:54:02 8.8 C 6.01 g/m*3 8.8 C 0 km/h
24 07-04-2007 01:59:02 8.8 C 6.01 g/m*3 8.8 C 0 km/h
25 07-04-2007 02:04:02 8.6 C 5.93 g/m*3 8.6 C 0 km/h
Sensor: Nr:Datum:Temp:Abs-Feuchte:Windchill:Wind:
Aussen-T/F 26 07-04-2007 02:09:02 8.6 C 5.93 g/m*3 8.6 C 0 km/h
27 07-04-2007 02:14:02 8.6 C 5.93 g/m*3 8.6 C 0 km/h
28 07-04-2007 02:19:02 8.5 C 5.89 g/m*3 8.5 C 0 km/h
29 07-04-2007 02:24:02 8.4 C 5.94 g/m*3 8.4 C 0 km/h
30 07-04-2007 02:29:02 8.4 C 5.85 g/m*3 8.4 C 0 km/h
31 07-04-2007 02:34:02 8.3 C 5.9 g/m*3 8.3 C 0 km/h
32 07-04-2007 02:39:02 8.2 C 5.95 g/m*3 8.2 C 0 km/h
33 07-04-2007 02:44:02 8 C 5.87 g/m*3 8 C 0 km/h
34 07-04-2007 02:50:05 8 C 5.87 g/m*3 8 C 0 km/h
35 07-04-2007 02:55:05 7.9 C 6 g/m*3 7.9 C 0 km/h
36 07-04-2007 03:00:05 7.7 C 5.92 g/m*3 7.7 C 0 km/h
37 07-04-2007 03:05:05 7.7 C 6 g/m*3 7.7 C 0 km/h
38 07-04-2007 03:10:05 7.6 C 5.96 g/m*3 7.6 C 0 km/h
39 07-04-2007 03:15:05 7.5 C 5.92 g/m*3 7.5 C 0 km/h
40 07-04-2007 03:20:05 7.6 C 5.96 g/m*3 7.6 C 0 km/h
41 07-04-2007 03:25:05 7.5 C 5.92 g/m*3 7.5 C 0 km/h
42 07-04-2007 03:30:05 7.4 C 5.96 g/m*3 7.4 C 0 km/h
43 07-04-2007 03:35:03 7.3 C 5.93 g/m*3 7.3 C 0 km/h
44 07-04-2007 03:40:03 7.1 C 5.93 g/m*3 7.1 C 0 km/h
45 07-04-2007 03:45:03 7.1 C 5.93 g/m*3 7.1 C 0 km/h
46 07-04-2007 03:50:03 7 C 5.97 g/m*3 7 C 0 km/h
47 07-04-2007 03:55:03 7.3 C 6.08 g/m*3 7.3 C 0 km/h
48 07-04-2007 04:00:03 6.9 C 6 g/m*3 6.9 C 0 km/h
49 07-04-2007 04:05:02 6.8 C 5.97 g/m*3 6.8 C 0 km/h
50 07-04-2007 04:10:02 6.8 C 6.04 g/m*3 6.8 C 0 km/h
Sensor: Nr:Datum:Temp:Abs-Feuchte:Windchill:Wind:
Aussen-T/F 51 07-04-2007 04:15:03 6.8 C 6.04 g/m*3 6.8 C 0 km/h
52 07-04-2007 04:20:03 6.7 C 6 g/m*3 6.7 C 0 km/h
53 07-04-2007 04:25:03 6.6 C 5.96 g/m*3 6.6 C 0 km/h
54 07-04-2007 04:30:03 6.6 C 5.96 g/m*3 6.6 C 0 km/h
55 07-04-2007 04:35:02 6.5 C 5.92 g/m*3 6.5 C 0 km/h
56 07-04-2007 04:40:02 6.4 C 5.96 g/m*3 6.4 C 0 km/h
57 07-04-2007 04:45:02 6.4 C 5.96 g/m*3 6.4 C 0 km/h
58 07-04-2007 04:50:02 6.4 C 5.96 g/m*3 6.4 C 0 km/h
59 07-04-2007 04:55:02 6.3 C 5.92 g/m*3 6.3 C 0 km/h
60 07-04-2007 05:00:02 6.3 C 5.92 g/m*3 6.3 C 0 km/h
61 07-04-2007 05:05:02 6.3 C 5.92 g/m*3 6.3 C 0 km/h
62 07-04-2007 05:10:02 6.3 C 5.92 g/m*3 6.3 C 0 km/h
63 07-04-2007 05:15:02 6.2 C 5.88 g/m*3 6.2 C 0 km/h
64 07-04-2007 05:20:02 6.1 C 5.84 g/m*3 6.1 C 0 km/h
65 07-04-2007 05:25:02 6.1 C 5.84 g/m*3 6.1 C 0 km/h
66 07-04-2007 05:30:02 6.1 C 5.92 g/m*3 6.1 C 0 km/h
67 07-04-2007 05:35:02 6.2 C 5.96 g/m*3 6.2 C 0 km/h
68 07-04-2007 05:40:02 6.2 C 5.96 g/m*3 6.2 C 0 km/h
69 07-04-2007 05:45:03 6.2 C 5.88 g/m*3 6.2 C 0 km/h
70 07-04-2007 05:50:03 6.2 C 5.88 g/m*3 6.2 C 0 km/h
71 07-04-2007 05:55:03 6.2 C 5.88 g/m*3 6.2 C 0 km/h
72 07-04-2007 06:00:03 6.2 C 5.96 g/m*3 6.2 C 0 km/h
73 07-04-2007 06:05:03 6.2 C 5.96 g/m*3 6.2 C 0 km/h
74 07-04-2007 06:10:03 6.2 C 5.96 g/m*3 6.2 C 0 km/h
75 07-04-2007 06:15:02 6.2 C 5.96 g/m*3 6.2 C 0 km/h
Sensor: Nr:Datum:Temp:Abs-Feuchte:Windchill:Wind:
Aussen-T/F 76 07-04-2007 06:20:02 6.2 C 5.96 g/m*3 6.2 C 0 km/h
77 07-04-2007 06:25:02 6.2 C 5.96 g/m*3 6.2 C 0 km/h
78 07-04-2007 06:30:03 6.2 C 5.96 g/m*3 6.2 C 0 km/h
79 07-04-2007 06:35:02 6.2 C 6.03 g/m*3 6.2 C 0 km/h
80 07-04-2007 06:40:02 6.2 C 6.03 g/m*3 6.2 C 0 km/h
81 07-04-2007 06:45:02 6.2 C 6.03 g/m*3 6.2 C 0 km/h
82 07-04-2007 06:50:02 6.2 C 6.03 g/m*3 6.2 C 0 km/h
83 07-04-2007 06:55:02 6.3 C 6.07 g/m*3 6.3 C 0 km/h
84 07-04-2007 07:00:02 6.2 C 6.1 g/m*3 6.2 C 0 km/h
85 07-04-2007 07:05:02 6.1 C 5.99 g/m*3 6.1 C 0 km/h
86 07-04-2007 07:10:02 6.2 C 6.1 g/m*3 6.2 C 0 km/h
87 07-04-2007 07:15:01 6.2 C 6.1 g/m*3 6.2 C 0 km/h
88 07-04-2007 07:20:01 6.2 C 6.03 g/m*3 6.2 C 0 km/h
89 07-04-2007 07:25:01 6.2 C 6.1 g/m*3 6.2 C 0 km/h
90 07-04-2007 07:30:01 6.3 C 6.14 g/m*3 6.3 C 0 km/h
91 07-04-2007 07:35:01 6.4 C 6.26 g/m*3 6.4 C 0 km/h
92 07-04-2007 07:40:01 6.4 C 6.18 g/m*3 6.4 C 0 km/h
93 07-04-2007 07:45:02 6.5 C 6.22 g/m*3 6.5 C 0 km/h
94 07-04-2007 07:50:02 6.5 C 6.22 g/m*3 6.5 C 0 km/h
95 07-04-2007 07:55:02 6.9 C 6.39 g/m*3 6.9 C 0 km/h
96 07-04-2007 08:00:03 6.9 C 6.31 g/m*3 6.9 C 0 km/h
97 07-04-2007 08:05:01 6.9 C 6.31 g/m*3 6.9 C 0 km/h
98 07-04-2007 08:10:01 7 C 6.28 g/m*3 7 C 0 km/h
99 07-04-2007 08:15:02 7 C 6.2 g/m*3 7 C 0 km/h
100 07-04-2007 08:20:02 7.4 C 6.44 g/m*3 7.4 C 0 km/h
Sensor: Nr:Datum:Temp:Abs-Feuchte:Windchill:Wind:
Aussen-T/F 101 07-04-2007 08:25:02 7.6 C 6.53 g/m*3 7.6 C 0 km/h
102 07-04-2007 08:30:02 7.9 C 6.57 g/m*3 7.9 C 0 km/h
103 07-04-2007 08:35:02 8.2 C 6.53 g/m*3 8.2 C 0 km/h
104 07-04-2007 08:40:02 8.4 C 6.53 g/m*3 8.4 C 0 km/h
105 07-04-2007 08:45:02 8.6 C 6.44 g/m*3 8.6 C 0 km/h
106 07-04-2007 08:50:02 8.9 C 6.48 g/m*3 8.9 C 0 km/h
107 07-04-2007 08:55:02 8.9 C 6.48 g/m*3 8.9 C 0 km/h
108 07-04-2007 09:00:02 9.1 C 6.3 g/m*3 9.1 C 0 km/h
109 07-04-2007 09:05:02 9.3 C 6.29 g/m*3 9.3 C 0 km/h
110 07-04-2007 09:10:02 9.3 C 6.29 g/m*3 9.3 C 0 km/h
111 07-04-2007 09:15:02 9.5 C 6.28 g/m*3 9.5 C 0 km/h
112 07-04-2007 09:20:02 9.7 C 6.36 g/m*3 9.7 C 0 km/h
113 07-04-2007 09:25:02 9.6 C 6.14 g/m*3 9.6 C 0 km/h
114 07-04-2007 09:30:02 9.6 C 6.23 g/m*3 9.6 C 0 km/h
115 07-04-2007 09:35:02 9.5 C 6.1 g/m*3 9.5 C 0 km/h
116 07-04-2007 09:40:03 9.7 C 6.18 g/m*3 9.7 C 0 km/h
117 07-04-2007 09:45:02 9.7 C 6.18 g/m*3 9.7 C 0 km/h
118 07-04-2007 09:50:02 9.8 C 6.12 g/m*3 9.8 C 0 km/h
119 07-04-2007 09:55:02 9.7 C 6.08 g/m*3 9.7 C 0 km/h
120 07-04-2007 10:00:02 9.8 C 6.12 g/m*3 9.8 C 0 km/h
121 07-04-2007 10:05:02 9.9 C 6.07 g/m*3 9.9 C 0 km/h
122 07-04-2007 10:10:02 10 C 6.01 g/m*3 10 C 0 km/h
123 07-04-2007 10:15:02 10 C 5.92 g/m*3 10 C 0 km/h
124 07-04-2007 10:20:02 10 C 6.01 g/m*3 10 C 0 km/h
125 07-04-2007 10:25:02 10.5 C 6.01 g/m*3 10.5 C 0 km/h
Sensor: Nr:Datum:Temp:Abs-Feuchte:Windchill:Wind:
Aussen-T/F 126 07-04-2007 10:30:03 10.6 C 6.05 g/m*3 10.6 C 0 km/h
127 07-04-2007 10:35:01 10.4 C 5.98 g/m*3 10.4 C 0 km/h
128 07-04-2007 10:40:01 10.8 C 6.03 g/m*3 10.8 C 0 km/h
129 07-04-2007 10:45:02 11 C 6.01 g/m*3 11 C 0 km/h
130 07-04-2007 10:50:02 11.1 C 6.04 g/m*3 11.1 C 0 km/h
131 07-04-2007 10:55:02 11.5 C 6.09 g/m*3 11.5 C 0 km/h
132 07-04-2007 11:00:02 11.9 C 6.04 g/m*3 11.9 C 0 km/h
133 07-04-2007 11:05:02 12 C 6.07 g/m*3 12 C 0 km/h
134 07-04-2007 11:10:03 11.8 C 5.89 g/m*3 11.8 C 0 km/h
135 07-04-2007 11:15:02 11.5 C 5.89 g/m*3 11.5 C 0 km/h
136 07-04-2007 11:20:02 11.3 C 5.81 g/m*3 11.3 C 0 km/h
137 07-04-2007 11:25:02 11.4 C 5.85 g/m*3 11.4 C 0 km/h
138 07-04-2007 11:30:02 11.7 C 5.96 g/m*3 11.7 C 0 km/h
139 07-04-2007 11:35:01 11.9 C 5.93 g/m*3 11.9 C 0 km/h
140 07-04-2007 11:40:01 11.7 C 5.75 g/m*3 11.7 C 0 km/h
141 07-04-2007 11:45:02 11.9 C 5.72 g/m*3 11.9 C 0 km/h
142 07-04-2007 11:50:02 12.1 C 5.58 g/m*3 12.1 C 0 km/h
143 07-04-2007 11:55:03 12.1 C 5.58 g/m*3 12.1 C 0 km/h
144 07-04-2007 12:00:03 12 C 5.44 g/m*3 12 C 0 km/h
145 07-04-2007 12:05:02 12.3 C 5.54 g/m*3 12.3 C 0 km/h
146 07-04-2007 12:10:02 12.1 C 5.36 g/m*3 12.1 C 0 km/h
147 07-04-2007 12:15:01 12.4 C 5.35 g/m*3 12.4 C 0 km/h
148 07-04-2007 12:20:01 12.1 C 5.04 g/m*3 12.1 C 0 km/h
149 07-04-2007 12:25:01 12.4 C 5.24 g/m*3 12.4 C 0 km/h
150 07-04-2007 12:30:01 12.5 C 5.06 g/m*3 12.5 C 0 km/h
Sensor: Nr:Datum:Temp:Abs-Feuchte:Windchill:Wind:
Aussen-T/F 151 07-04-2007 12:35:02 12.8 C 5.04 g/m*3 12.8 C 0 km/h
152 07-04-2007 12:40:02 12.6 C 4.76 g/m*3 12.6 C 0 km/h
153 07-04-2007 12:45:01 12.7 C 4.79 g/m*3 12.7 C 0 km/h
154 07-04-2007 12:50:01 12.7 C 4.68 g/m*3 12.7 C 0 km/h
155 07-04-2007 12:55:01 12.9 C 4.51 g/m*3 12.9 C 0 km/h
156 07-04-2007 13:00:01 13.1 C 4.56 g/m*3 13.1 C 0 km/h
157 07-04-2007 13:05:02 13.2 C 4.36 g/m*3 13.2 C 0 km/h
158 07-04-2007 13:10:02 13.4 C 4.42 g/m*3 13.4 C 0 km/h
159 07-04-2007 13:15:02 13.5 C 4.44 g/m*3 13.5 C 0 km/h
160 07-04-2007 13:20:02 13.6 C 4.47 g/m*3 13.6 C 0 km/h
161 07-04-2007 13:25:02 13.1 C 4.22 g/m*3 13.1 C 0 km/h
162 07-04-2007 13:30:02 13 C 4.31 g/m*3 13 C 0 km/h
163 07-04-2007 13:35:01 13.2 C 4.36 g/m*3 13.2 C 0 km/h
164 07-04-2007 13:40:02 13.2 C 4.48 g/m*3 13.2 C 0 km/h
165 07-04-2007 13:45:02 12.6 C 4.54 g/m*3 12.6 C 0 km/h
166 07-04-2007 13:50:02 12.8 C 4.59 g/m*3 12.8 C 0 km/h
167 07-04-2007 13:55:02 13 C 4.54 g/m*3 13 C 0 km/h
168 07-04-2007 14:00:02 13.3 C 4.51 g/m*3 13.3 C 0 km/h
169 07-04-2007 14:05:02 13 C 4.42 g/m*3 13 C 0 km/h
170 07-04-2007 14:10:02 13.2 C 4.48 g/m*3 13.2 C 0 km/h
171 07-04-2007 14:15:02 12.8 C 4.37 g/m*3 12.8 C 0 km/h
172 07-04-2007 14:20:02 12.9 C 4.4 g/m*3 12.9 C 0 km/h
173 07-04-2007 14:25:02 13 C 4.31 g/m*3 13 C 0 km/h
174 07-04-2007 14:30:03 13 C 4.31 g/m*3 13 C 0 km/h
175 07-04-2007 14:35:02 12.9 C 4.51 g/m*3 12.9 C 0 km/h
Sensor: Nr:Datum:Temp:Abs-Feuchte:Windchill:Wind:
Aussen-T/F 176 07-04-2007 14:40:02 13.1 C 4.34 g/m*3 13.1 C 0 km/h
177 07-04-2007 14:45:02 12.7 C 4.23 g/m*3 12.7 C 0 km/h
178 07-04-2007 14:50:02 12.7 C 4.34 g/m*3 12.7 C 0 km/h
179 07-04-2007 14:55:02 12.9 C 4.28 g/m*3 12.9 C 0 km/h
180 07-04-2007 15:00:02 13 C 4.08 g/m*3 13 C 0 km/h
181 07-04-2007 15:05:02 13.1 C 4.22 g/m*3 13.1 C 0 km/h
182 07-04-2007 15:10:02 13.1 C 4.22 g/m*3 13.1 C 0 km/h
183 07-04-2007 15:15:02 13.1 C 4.22 g/m*3 13.1 C 0 km/h
184 07-04-2007 15:20:02 12.8 C 4.37 g/m*3 12.8 C 0 km/h
185 07-04-2007 15:25:02 12.8 C 4.37 g/m*3 12.8 C 0 km/h
186 07-04-2007 15:30:02 12.6 C 4.43 g/m*3 12.6 C 0 km/h
187 07-04-2007 15:35:01 12.4 C 4.37 g/m*3 12.4 C 0 km/h
188 07-04-2007 15:40:01 12.3 C 4.23 g/m*3 12.3 C 0 km/h
189 07-04-2007 15:45:01 12.5 C 4.29 g/m*3 12.5 C 0 km/h
190 07-04-2007 15:50:01 12.7 C 4.12 g/m*3 12.7 C 0 km/h
191 07-04-2007 15:55:01 12.7 C 4.12 g/m*3 12.7 C 0 km/h
192 07-04-2007 16:00:01 12.7 C 4.12 g/m*3 12.7 C 0 km/h
193 07-04-2007 16:05:02 12.3 C 4.02 g/m*3 12.3 C 0 km/h
194 07-04-2007 16:10:02 12.6 C 4.09 g/m*3 12.6 C 0 km/h
195 07-04-2007 16:15:02 12.6 C 4.09 g/m*3 12.6 C 0 km/h
196 07-04-2007 16:20:02 12.5 C 4.07 g/m*3 12.5 C 0 km/h
197 07-04-2007 16:25:02 12.5 C 4.07 g/m*3 12.5 C 0 km/h
198 07-04-2007 16:30:02 12.1 C 4.08 g/m*3 12.1 C 0 km/h
199 07-04-2007 16:35:02 12.2 C 4.1 g/m*3 12.2 C 0 km/h
200 07-04-2007 16:40:02 12.1 C 4.18 g/m*3 12.1 C 0 km/h
Sensor: Nr:Datum:Temp:Abs-Feuchte:Windchill:Wind:
Aussen-T/F 201 07-04-2007 16:45:01 12.1 C 4.18 g/m*3 12.1 C 0 km/h
202 07-04-2007 16:50:01 12.1 C 4.18 g/m*3 12.1 C 0 km/h
203 07-04-2007 16:55:01 12 C 4.16 g/m*3 12 C 0 km/h
204 07-04-2007 17:00:01 11.9 C 4.24 g/m*3 11.9 C 0 km/h
205 07-04-2007 17:05:01 11.8 C 4.21 g/m*3 11.8 C 0 km/h
206 07-04-2007 17:10:01 11.8 C 4.1 g/m*3 11.8 C 0 km/h
207 07-04-2007 17:15:02 11.6 C 4.16 g/m*3 11.6 C 0 km/h
208 07-04-2007 17:20:02 11.7 C 4.18 g/m*3 11.7 C 0 km/h
209 07-04-2007 17:25:02 11.8 C 4.21 g/m*3 11.8 C 0 km/h
210 07-04-2007 17:30:02 11.7 C 4.08 g/m*3 11.7 C 0 km/h
211 07-04-2007 17:35:02 11.7 C 4.08 g/m*3 11.7 C 0 km/h
212 07-04-2007 17:40:02 11.7 C 4.08 g/m*3 11.7 C 0 km/h
213 07-04-2007 17:45:03 11.8 C 4.21 g/m*3 11.8 C 0 km/h
214 07-04-2007 17:50:03 11.9 C 4.24 g/m*3 11.9 C 0 km/h
215 07-04-2007 17:55:03 11.9 C 4.24 g/m*3 11.9 C 0 km/h
216 07-04-2007 18:00:03 11.8 C 4.32 g/m*3 11.8 C 0 km/h
217 07-04-2007 18:05:03 11.8 C 4.32 g/m*3 11.8 C 0 km/h
218 07-04-2007 18:10:03 11.7 C 4.29 g/m*3 11.7 C 0 km/h
219 07-04-2007 18:15:03 11.5 C 4.23 g/m*3 11.5 C 0 km/h
220 07-04-2007 18:20:03 11.5 C 4.34 g/m*3 11.5 C 0 km/h
221 07-04-2007 18:25:03 11.5 C 4.34 g/m*3 11.5 C 0 km/h
222 07-04-2007 18:30:03 11.5 C 4.34 g/m*3 11.5 C 0 km/h
223 07-04-2007 18:35:02 11.6 C 4.37 g/m*3 11.6 C 0 km/h
224 07-04-2007 18:40:03 11.6 C 4.26 g/m*3 11.6 C 0 km/h
225 07-04-2007 18:45:01 11.7 C 4.29 g/m*3 11.7 C 0 km/h
Sensor: Nr:Datum:Temp:Abs-Feuchte:Windchill:Wind:
Aussen-T/F 226 07-04-2007 18:50:01 11.5 C 4.13 g/m*3 11.5 C 0 km/h
227 07-04-2007 18:55:01 11.4 C 4.11 g/m*3 11.4 C 0 km/h
228 07-04-2007 19:00:01 11.4 C 4.11 g/m*3 11.4 C 0 km/h
229 07-04-2007 19:05:02 11.3 C 4.08 g/m*3 11.3 C 0 km/h
230 07-04-2007 19:10:02 11.2 C 4.05 g/m*3 11.2 C 0 km/h
231 07-04-2007 19:15:02 11.1 C 4.03 g/m*3 11.1 C 0 km/h
232 07-04-2007 19:20:02 11.1 C 4.03 g/m*3 11.1 C 0 km/h
233 07-04-2007 19:25:02 11.1 C 4.13 g/m*3 11.1 C 0 km/h
234 07-04-2007 19:30:02 11.1 C 4.13 g/m*3 11.1 C 0 km/h
235 07-04-2007 19:35:02 11.1 C 4.23 g/m*3 11.1 C 0 km/h
236 07-04-2007 19:40:02 11 C 4.1 g/m*3 11 C 0 km/h
237 07-04-2007 19:45:03 10.9 C 4.28 g/m*3 10.9 C 0 km/h
238 07-04-2007 19:50:03 10.9 C 4.28 g/m*3 10.9 C 0 km/h
239 07-04-2007 19:55:03 10.8 C 4.35 g/m*3 10.8 C 0 km/h
240 07-04-2007 20:00:03 10.8 C 4.35 g/m*3 10.8 C 0 km/h
241 07-04-2007 20:05:02 10.8 C 4.45 g/m*3 10.8 C 0 km/h
242 07-04-2007 20:10:02 10.7 C 4.42 g/m*3 10.7 C 0 km/h
243 07-04-2007 20:15:02 10.6 C 4.49 g/m*3 10.6 C 0 km/h
244 07-04-2007 20:20:02 10.5 C 4.46 g/m*3 10.5 C 0 km/h
245 07-04-2007 20:25:02 10.5 C 4.46 g/m*3 10.5 C 0 km/h
246 07-04-2007 20:30:02 10.5 C 4.56 g/m*3 10.5 C 0 km/h
247 07-04-2007 20:35:02 10.5 C 4.56 g/m*3 10.5 C 0 km/h
248 07-04-2007 20:40:02 10.4 C 4.53 g/m*3 10.4 C 0 km/h
249 07-04-2007 20:45:02 10.4 C 4.53 g/m*3 10.4 C 0 km/h
250 07-04-2007 20:50:02 10.3 C 4.6 g/m*3 10.3 C 0 km/h
Sensor: Nr:Datum:Temp:Abs-Feuchte:Windchill:Wind:
Aussen-T/F 251 07-04-2007 20:55:02 10.2 C 4.57 g/m*3 10.2 C 0 km/h
252 07-04-2007 21:00:02 9.9 C 4.67 g/m*3 9.9 C 0 km/h
253 07-04-2007 21:05:01 9.5 C 4.64 g/m*3 9.5 C 0 km/h
254 07-04-2007 21:10:01 9.4 C 4.7 g/m*3 9.4 C 0 km/h
255 07-04-2007 21:15:01 9.1 C 4.7 g/m*3 9.1 C 0 km/h
256 07-04-2007 21:20:01 8.8 C 4.7 g/m*3 8.8 C 0 km/h
257 07-04-2007 21:25:01 8.6 C 4.73 g/m*3 8.6 C 0 km/h
258 07-04-2007 21:30:01 8.5 C 4.7 g/m*3 8.5 C 0 km/h
259 07-04-2007 21:35:02 8.3 C 4.64 g/m*3 8.3 C 0 km/h
260 07-04-2007 21:40:02 8 C 4.63 g/m*3 8 C 0 km/h
261 07-04-2007 21:45:01 8 C 4.71 g/m*3 8 C 0 km/h
262 07-04-2007 21:50:01 7.9 C 4.85 g/m*3 7.9 C 0 km/h
263 07-04-2007 21:55:01 7.7 C 4.78 g/m*3 7.7 C 0 km/h
264 07-04-2007 22:00:01 7.6 C 4.75 g/m*3 7.6 C 0 km/h
265 07-04-2007 22:05:01 7.5 C 4.8 g/m*3 7.5 C 0 km/h
266 07-04-2007 22:10:01 7.4 C 4.85 g/m*3 7.4 C 0 km/h
267 07-04-2007 22:15:02 7.4 C 4.85 g/m*3 7.4 C 0 km/h
268 07-04-2007 22:20:02 7.3 C 4.82 g/m*3 7.3 C 0 km/h
269 07-04-2007 22:25:02 7.1 C 4.76 g/m*3 7.1 C 0 km/h
270 07-04-2007 22:30:02 7.2 C 4.87 g/m*3 7.2 C 0 km/h
271 07-04-2007 22:35:02 7 C 4.8 g/m*3 7 C 0 km/h
272 07-04-2007 22:40:02 7 C 4.88 g/m*3 7 C 0 km/h
273 07-04-2007 22:45:02 6.9 C 4.93 g/m*3 6.9 C 0 km/h
274 07-04-2007 22:50:02 6.9 C 4.93 g/m*3 6.9 C 0 km/h
275 07-04-2007 22:55:02 6.7 C 4.86 g/m*3 6.7 C 0 km/h
Sensor: Nr:Datum:Temp:Abs-Feuchte:Windchill:Wind:
Aussen-T/F 276 07-04-2007 23:00:02 6.7 C 4.86 g/m*3 6.7 C 0 km/h
277 07-04-2007 23:05:02 6.6 C 4.91 g/m*3 6.6 C 0 km/h
278 07-04-2007 23:10:02 6.6 C 4.91 g/m*3 6.6 C 0 km/h
279 07-04-2007 23:15:03 6.4 C 4.84 g/m*3 6.4 C 0 km/h
280 07-04-2007 23:20:03 6.2 C 4.85 g/m*3 6.2 C 0 km/h
281 07-04-2007 23:25:03 6.2 C 4.85 g/m*3 6.2 C 0 km/h
282 07-04-2007 23:30:03 6.1 C 4.82 g/m*3 6.1 C 0 km/h
283 07-04-2007 23:35:02 6 C 4.86 g/m*3 6 C 0 km/h
284 07-04-2007 23:40:02 6 C 4.86 g/m*3 6 C 0 km/h
285 07-04-2007 23:45:01 6 C 4.94 g/m*3 6 C 0 km/h
286 07-04-2007 23:50:01 5.9 C 4.98 g/m*3 5.9 C 0 km/h
287 07-04-2007 23:55:01 5.9 C 5.05 g/m*3 5.9 C 0 km/h
288 08-04-2007 00:00:01 5.8 C 5.01 g/m*3 5.8 C 0 km/h
289 08-04-2007 00:05:03 5.6 C 4.95 g/m*3 5.6 C 0 km/h
290 08-04-2007 00:10:03 5.6 C 4.95 g/m*3 5.6 C 0 km/h
291 08-04-2007 00:15:02 5.5 C 4.99 g/m*3 5.5 C 0 km/h
292 08-04-2007 00:20:02 5.4 C 4.95 g/m*3 5.4 C 0 km/h
293 08-04-2007 00:25:02 5.4 C 5.02 g/m*3 5.4 C 0 km/h
294 08-04-2007 00:30:02 5.3 C 4.99 g/m*3 5.3 C 0 km/h
295 08-04-2007 00:35:03 5.2 C 4.96 g/m*3 5.2 C 0 km/h
296 08-04-2007 00:40:03 5.2 C 4.96 g/m*3 5.2 C 0 km/h
297 08-04-2007 00:45:03 5.2 C 5.03 g/m*3 5.2 C 0 km/h
298 08-04-2007 00:50:03 5.1 C 4.99 g/m*3 5.1 C 0 km/h
299 08-04-2007 00:55:03 4.9 C 5 g/m*3 4.9 C 0 km/h
300 08-04-2007 01:00:03 4.9 C 5 g/m*3 4.9 C 0 km/h
Sensor: Nr:Datum:Temp:Abs-Feuchte:Windchill:Wind:
Aussen-T/F 301 08-04-2007 01:05:03 4.8 C 4.96 g/m*3 4.8 C 0 km/h
302 08-04-2007 01:10:03 4.8 C 5.03 g/m*3 4.8 C 0 km/h
303 08-04-2007 01:15:03 4.9 C 5.06 g/m*3 4.9 C 0 km/h
304 08-04-2007 01:20:03 4.6 C 4.96 g/m*3 4.6 C 0 km/h
305 08-04-2007 01:25:03 4.6 C 4.96 g/m*3 4.6 C 0 km/h
306 08-04-2007 01:30:03 4.4 C 4.96 g/m*3 4.4 C 0 km/h
307 08-04-2007 01:35:02 4.4 C 4.96 g/m*3 4.4 C 0 km/h
308 08-04-2007 01:40:02 4.3 C 4.93 g/m*3 4.3 C 0 km/h
309 08-04-2007 01:45:02 4.2 C 4.9 g/m*3 4.2 C 0 km/h
310 08-04-2007 01:50:02 4.2 C 4.9 g/m*3 4.2 C 0 km/h
311 08-04-2007 01:55:03 4.1 C 4.93 g/m*3 4.1 C 0 km/h
312 08-04-2007 02:00:03 4 C 4.9 g/m*3 4 C 0 km/h
313 08-04-2007 02:05:02 4 C 4.9 g/m*3 4 C 0 km/h
314 08-04-2007 02:10:02 4 C 4.96 g/m*3 4 C 0 km/h
315 08-04-2007 02:15:03 3.8 C 4.96 g/m*3 3.8 C 0 km/h
316 08-04-2007 02:20:03 3.7 C 4.92 g/m*3 3.7 C 0 km/h
317 08-04-2007 02:25:03 3.7 C 4.99 g/m*3 3.7 C 0 km/h
318 08-04-2007 02:30:03 3.7 C 4.92 g/m*3 3.7 C 0 km/h
319 08-04-2007 02:35:02 3.6 C 4.95 g/m*3 3.6 C 0 km/h
320 08-04-2007 02:40:02 3.6 C 4.95 g/m*3 3.6 C 0 km/h
321 08-04-2007 02:45:02 3.5 C 4.92 g/m*3 3.5 C 0 km/h
322 08-04-2007 02:50:02 3.5 C 4.92 g/m*3 3.5 C 0 km/h
323 08-04-2007 02:55:02 3.4 C 4.95 g/m*3 3.4 C 0 km/h
324 08-04-2007 03:00:02 3.3 C 4.91 g/m*3 3.3 C 0 km/h
325 08-04-2007 03:05:02 3.3 C 4.91 g/m*3 3.3 C 0 km/h
Sensor: Nr:Datum:Temp:Abs-Feuchte:Windchill:Wind:
Aussen-T/F 326 08-04-2007 03:10:01 3.3 C 4.91 g/m*3 3.3 C 0 km/h
327 08-04-2007 03:15:02 3.2 C 4.94 g/m*3 3.2 C 0 km/h
328 08-04-2007 03:20:02 3 C 4.88 g/m*3 3 C 0 km/h
329 08-04-2007 03:25:02 3 C 4.88 g/m*3 3 C 0 km/h
330 08-04-2007 03:30:02 3.1 C 4.91 g/m*3 3.1 C 0 km/h
331 08-04-2007 03:35:02 3 C 4.93 g/m*3 3 C 0 km/h
332 08-04-2007 03:40:02 2.9 C 4.9 g/m*3 2.9 C 0 km/h
333 08-04-2007 03:45:02 2.9 C 4.9 g/m*3 2.9 C 0 km/h
334 08-04-2007 03:50:02 2.8 C 4.87 g/m*3 2.8 C 0 km/h
335 08-04-2007 03:55:02 2.8 C 4.93 g/m*3 2.8 C 0 km/h
336 08-04-2007 04:00:02 2.7 C 4.89 g/m*3 2.7 C 0 km/h
337 08-04-2007 04:05:02 2.7 C 4.89 g/m*3 2.7 C 0 km/h
338 08-04-2007 04:10:02 2.6 C 4.86 g/m*3 2.6 C 0 km/h
339 08-04-2007 04:15:02 2.7 C 4.89 g/m*3 2.7 C 0 km/h
340 08-04-2007 04:20:02 2.5 C 4.83 g/m*3 2.5 C 0 km/h
341 08-04-2007 04:25:02 2.5 C 4.83 g/m*3 2.5 C 0 km/h
342 08-04-2007 04:30:02 2.4 C 4.8 g/m*3 2.4 C 0 km/h
343 08-04-2007 04:35:02 2.4 C 4.8 g/m*3 2.4 C 0 km/h
344 08-04-2007 04:40:02 2.3 C 4.82 g/m*3 2.3 C 0 km/h
345 08-04-2007 04:45:02 2.2 C 4.79 g/m*3 2.2 C 0 km/h
346 08-04-2007 04:50:02 2.1 C 4.7 g/m*3 2.1 C 0 km/h
347 08-04-2007 04:55:02 2.1 C 4.76 g/m*3 2.1 C 0 km/h
348 08-04-2007 05:00:02 2 C 4.72 g/m*3 2 C 0 km/h
349 08-04-2007 05:05:01 2 C 4.72 g/m*3 2 C 0 km/h
350 08-04-2007 05:10:02 1.9 C 4.75 g/m*3 1.9 C 0 km/h
Sensor: Nr:Datum:Temp:Abs-Feuchte:Windchill:Wind:
Aussen-T/F 351 08-04-2007 05:15:02 2 C 4.72 g/m*3 2 C 0 km/h
352 08-04-2007 05:20:02 1.9 C 4.75 g/m*3 1.9 C 0 km/h
353 08-04-2007 05:25:02 1.8 C 4.71 g/m*3 1.8 C 0 km/h
354 08-04-2007 05:30:02 1.8 C 4.71 g/m*3 1.8 C 0 km/h
355 08-04-2007 05:35:02 1.7 C 4.74 g/m*3 1.7 C 0 km/h
356 08-04-2007 05:40:02 1.7 C 4.68 g/m*3 1.7 C 0 km/h
357 08-04-2007 05:45:01 1.6 C 4.65 g/m*3 1.6 C 0 km/h
358 08-04-2007 05:50:01 1.6 C 4.7 g/m*3 1.6 C 0 km/h
359 08-04-2007 05:55:01 1.6 C 4.7 g/m*3 1.6 C 0 km/h
360 08-04-2007 06:00:02 1.5 C 4.67 g/m*3 1.5 C 0 km/h
361 08-04-2007 06:05:01 1.5 C 4.67 g/m*3 1.5 C 0 km/h
362 08-04-2007 06:10:01 1.5 C 4.67 g/m*3 1.5 C 0 km/h
363 08-04-2007 06:15:02 1.4 C 4.64 g/m*3 1.4 C 0 km/h
364 08-04-2007 06:20:02 1.4 C 4.64 g/m*3 1.4 C 0 km/h
365 08-04-2007 06:25:02 1.3 C 4.66 g/m*3 1.3 C 0 km/h
366 08-04-2007 06:30:02 1.3 C 4.66 g/m*3 1.3 C 0 km/h
367 08-04-2007 06:35:02 1.2 C 4.63 g/m*3 1.2 C 0 km/h
368 08-04-2007 06:40:02 1.1 C 4.6 g/m*3 1.1 C 0 km/h
369 08-04-2007 06:45:01 1 C 4.57 g/m*3 1 C 0 km/h
370 08-04-2007 06:50:01 1.1 C 4.6 g/m*3 1.1 C 0 km/h
371 08-04-2007 06:55:01 1 C 4.57 g/m*3 1 C 0 km/h
372 08-04-2007 07:00:01 1.1 C 4.6 g/m*3 1.1 C 0 km/h
373 08-04-2007 07:05:02 1.1 C 4.6 g/m*3 1.1 C 0 km/h
374 08-04-2007 07:10:02 1.1 C 4.6 g/m*3 1.1 C 0 km/h
375 08-04-2007 07:15:02 1.1 C 4.65 g/m*3 1.1 C 0 km/h
Sensor: Nr:Datum:Temp:Abs-Feuchte:Windchill:Wind:
Aussen-T/F 376 08-04-2007 07:20:02 1.1 C 4.65 g/m*3 1.1 C 0 km/h
377 08-04-2007 07:25:02 1 C 4.62 g/m*3 1 C 0 km/h
378 08-04-2007 07:30:02 1 C 4.62 g/m*3 1 C 0 km/h
379 08-04-2007 07:35:01 1 C 4.62 g/m*3 1 C 0 km/h
380 08-04-2007 07:40:02 1 C 4.62 g/m*3 1 C 0 km/h
381 08-04-2007 07:45:02 1.1 C 4.65 g/m*3 1.1 C 0 km/h
382 08-04-2007 07:50:02 1.1 C 4.65 g/m*3 1.1 C 0 km/h
383 08-04-2007 07:55:02 1.1 C 4.65 g/m*3 1.1 C 0 km/h
384 08-04-2007 08:00:02 1.2 C 4.68 g/m*3 1.2 C 0 km/h
385 08-04-2007 08:05:02 1.2 C 4.68 g/m*3 1.2 C 0 km/h
386 08-04-2007 08:10:02 1.3 C 4.72 g/m*3 1.3 C 0 km/h
387 08-04-2007 08:15:01 1.4 C 4.75 g/m*3 1.4 C 0 km/h
388 08-04-2007 08:20:01 1.4 C 4.75 g/m*3 1.4 C 0 km/h
389 08-04-2007 08:25:01 1.5 C 4.78 g/m*3 1.5 C 0 km/h
390 08-04-2007 08:30:02 1.5 C 4.78 g/m*3 1.5 C 0 km/h
391 08-04-2007 08:35:01 1.6 C 4.81 g/m*3 1.6 C 0 km/h
392 08-04-2007 08:40:01 1.6 C 4.81 g/m*3 1.6 C 0 km/h
393 08-04-2007 08:45:02 1.7 C 4.85 g/m*3 1.7 C 0 km/h
394 08-04-2007 08:50:02 1.9 C 4.91 g/m*3 1.9 C 0 km/h
395 08-04-2007 08:55:02 2 C 4.95 g/m*3 2 C 0 km/h
396 08-04-2007 09:00:02 2.1 C 4.98 g/m*3 2.1 C 0 km/h
397 08-04-2007 09:05:02 2.3 C 5.05 g/m*3 2.3 C 0 km/h
398 08-04-2007 09:10:02 2.4 C 5.08 g/m*3 2.4 C 0 km/h
399 08-04-2007 09:15:01 2.5 C 5.12 g/m*3 2.5 C 0 km/h
400 08-04-2007 09:20:01 2.7 C 5.19 g/m*3 2.7 C 0 km/h
Sensor: Nr:Datum:Temp:Abs-Feuchte:Windchill:Wind:
Aussen-T/F 401 08-04-2007 09:25:01 2.9 C 5.26 g/m*3 2.9 C 0 km/h
402 08-04-2007 09:30:01 3 C 5.23 g/m*3 3 C 0 km/h
403 08-04-2007 09:35:01 3.3 C 5.34 g/m*3 3.3 C 0 km/h
404 08-04-2007 09:40:01 3.7 C 5.48 g/m*3 3.7 C 0 km/h
405 08-04-2007 09:45:01 3.9 C 5.56 g/m*3 3.9 C 0 km/h
406 08-04-2007 09:50:01 4.3 C 5.51 g/m*3 4.3 C 0 km/h
407 08-04-2007 09:55:02 4.4 C 5.48 g/m*3 4.4 C 0 km/h
408 08-04-2007 10:00:02 4.6 C 5.49 g/m*3 4.6 C 0 km/h
409 08-04-2007 10:05:01 5 C 5.57 g/m*3 5 C 0 km/h
410 08-04-2007 10:10:01 5.2 C 5.58 g/m*3 5.2 C 0 km/h
411 08-04-2007 10:15:01 5.6 C 5.73 g/m*3 5.6 C 0 km/h
412 08-04-2007 10:20:01 5.7 C 5.69 g/m*3 5.7 C 0 km/h
413 08-04-2007 10:25:01 6 C 5.66 g/m*3 6 C 0 km/h
414 08-04-2007 10:30:01 6.4 C 5.66 g/m*3 6.4 C 0 km/h
415 08-04-2007 10:35:02 6.7 C 5.7 g/m*3 6.7 C 0 km/h
416 08-04-2007 10:40:02 7 C 5.66 g/m*3 7 C 0 km/h
417 08-04-2007 10:45:01 7.4 C 5.73 g/m*3 7.4 C 0 km/h
418 08-04-2007 10:50:01 7.6 C 5.72 g/m*3 7.6 C 0 km/h
419 08-04-2007 10:55:01 8 C 5.62 g/m*3 8 C 0 km/h
420 08-04-2007 11:00:02 8.3 C 5.65 g/m*3 8.3 C 0 km/h
421 08-04-2007 11:05:01 8.4 C 5.68 g/m*3 8.4 C 0 km/h
422 08-04-2007 11:10:01 8.7 C 5.62 g/m*3 8.7 C 0 km/h
423 08-04-2007 11:15:01 9 C 5.64 g/m*3 9 C 0 km/h
424 08-04-2007 11:20:01 9.2 C 5.63 g/m*3 9.2 C 0 km/h
425 08-04-2007 11:25:01 9.5 C 5.64 g/m*3 9.5 C 0 km/h
Sensor: Nr:Datum:Temp:Abs-Feuchte:Windchill:Wind:
Aussen-T/F 426 08-04-2007 11:30:01 9.8 C 5.66 g/m*3 9.8 C 0 km/h
427 08-04-2007 11:35:02 10.1 C 5.58 g/m*3 10.1 C 0 km/h
428 08-04-2007 11:40:02 10.3 C 5.55 g/m*3 10.3 C 0 km/h
429 08-04-2007 11:45:01 10.4 C 5.49 g/m*3 10.4 C 0 km/h
430 08-04-2007 11:50:01 10.8 C 5.44 g/m*3 10.8 C 0 km/h
431 08-04-2007 11:55:01 11 C 5.41 g/m*3 11 C 0 km/h
432 08-04-2007 12:00:01 11.2 C 5.37 g/m*3 11.2 C 0 km/h
433 08-04-2007 12:05:01 11.4 C 5.23 g/m*3 11.4 C 0 km/h
434 08-04-2007 12:10:01 11.7 C 5.33 g/m*3 11.7 C 0 km/h
435 08-04-2007 12:15:02 11.9 C 5.3 g/m*3 11.9 C 0 km/h
436 08-04-2007 12:20:02 12.2 C 5.18 g/m*3 12.2 C 0 km/h
437 08-04-2007 12:25:02 12.3 C 4.99 g/m*3 12.3 C 0 km/h
438 08-04-2007 12:30:02 12.5 C 5.06 g/m*3 12.5 C 0 km/h
439 08-04-2007 12:35:02 12.6 C 5.09 g/m*3 12.6 C 0 km/h
440 08-04-2007 12:40:02 12.7 C 5.01 g/m*3 12.7 C 0 km/h
441 08-04-2007 12:45:01 12.9 C 5.18 g/m*3 12.9 C 0 km/h
442 08-04-2007 12:50:01 13.1 C 5.02 g/m*3 13.1 C 0 km/h
443 08-04-2007 12:55:01 13.2 C 4.94 g/m*3 13.2 C 0 km/h
444 08-04-2007 13:00:01 13.5 C 5.03 g/m*3 13.5 C 0 km/h
445 08-04-2007 13:05:02 13.8 C 5.12 g/m*3 13.8 C 0 km/h
446 08-04-2007 13:10:02 14 C 4.95 g/m*3 14 C 0 km/h
447 08-04-2007 13:15:02 14.2 C 5.01 g/m*3 14.2 C 0 km/h
448 08-04-2007 13:20:02 14.4 C 4.7 g/m*3 14.4 C 0 km/h
449 08-04-2007 13:25:02 14.4 C 4.57 g/m*3 14.4 C 0 km/h
450 08-04-2007 13:30:02 14.6 C 4.63 g/m*3 14.6 C 0 km/h
Sensor: Nr:Datum:Temp:Abs-Feuchte:Windchill:Wind:
Aussen-T/F 451 08-04-2007 13:35:02 14.6 C 4.63 g/m*3 14.6 C 0 km/h
452 08-04-2007 13:40:02 15 C 4.62 g/m*3 15 C 0 km/h
453 08-04-2007 13:45:02 15.4 C 4.86 g/m*3 15.4 C 0 km/h
454 08-04-2007 13:50:02 15.5 C 4.63 g/m*3 15.5 C 0 km/h
455 08-04-2007 13:55:02 16 C 4.63 g/m*3 16 C 0 km/h
456 08-04-2007 14:00:02 16 C 4.22 g/m*3 16 C 0 km/h
457 08-04-2007 14:05:02 16 C 4.22 g/m*3 16 C 0 km/h
458 08-04-2007 14:10:02 16.2 C 4.41 g/m*3 16.2 C 0 km/h
459 08-04-2007 14:15:01 16.9 C 4.6 g/m*3 16.9 C 0 km/h
460 08-04-2007 14:20:02 17.5 C 4.62 g/m*3 17.5 C 0 km/h
461 08-04-2007 14:25:02 17.9 C 4.58 g/m*3 17.9 C 0 km/h
462 08-04-2007 14:30:02 18.3 C 4.69 g/m*3 18.3 C 0 km/h
463 08-04-2007 14:35:01 18.1 C 4.33 g/m*3 18.1 C 0 km/h
464 08-04-2007 14:40:01 18.2 C 4.35 g/m*3 18.2 C 0 km/h
465 08-04-2007 14:45:02 18.1 C 4.02 g/m*3 18.1 C 0 km/h
466 08-04-2007 14:50:02 18.1 C 4.17 g/m*3 18.1 C 0 km/h
467 08-04-2007 14:55:02 18.5 C 4.27 g/m*3 18.5 C 0 km/h
468 08-04-2007 15:00:02 18.8 C 4.51 g/m*3 18.8 C 0 km/h
469 08-04-2007 15:05:02 18.6 C 4.3 g/m*3 18.6 C 0 km/h
470 08-04-2007 15:10:02 19.1 C 4.43 g/m*3 19.1 C 0 km/h
471 08-04-2007 15:15:01 19.4 C 4.34 g/m*3 19.4 C 0 km/h
472 08-04-2007 15:20:01 19.9 C 4.47 g/m*3 19.9 C 0 km/h
473 08-04-2007 15:25:01 19.8 C 4.44 g/m*3 19.8 C 0 km/h
474 08-04-2007 15:30:01 20 C 4.32 g/m*3 20 C 0 km/h
475 08-04-2007 15:35:01 19.7 C 4.08 g/m*3 19.7 C 0 km/h
Sensor: Nr:Datum:Temp:Abs-Feuchte:Windchill:Wind:
Aussen-T/F 476 08-04-2007 15:40:01 19.7 C 4.25 g/m*3 19.7 C 0 km/h
477 08-04-2007 15:45:02 19.7 C 4.25 g/m*3 19.7 C 0 km/h
478 08-04-2007 15:50:02 19.8 C 4.44 g/m*3 19.8 C 0 km/h
479 08-04-2007 15:55:02 20.5 C 4.45 g/m*3 20.5 C 0 km/h
480 08-04-2007 16:00:02 20.8 C 4.53 g/m*3 20.8 C 0 km/h
481 08-04-2007 16:05:02 21.2 C 4.08 g/m*3 21.2 C 0 km/h
482 08-04-2007 16:10:02 21.4 C 4.12 g/m*3 21.4 C 0 km/h
483 08-04-2007 16:15:01 21.8 C 4.22 g/m*3 21.8 C 0 km/h
484 08-04-2007 16:20:02 22 C 3.88 g/m*3 22 C 0 km/h
485 08-04-2007 16:25:02 22.1 C 3.9 g/m*3 22.1 C 0 km/h
486 08-04-2007 16:30:02 22.6 C 4.02 g/m*3 22.6 C 0 km/h
487 08-04-2007 16:35:01 22.3 C 3.95 g/m*3 22.3 C 0 km/h
488 08-04-2007 16:40:01 21.3 C 3.73 g/m*3 21.3 C 0 km/h
489 08-04-2007 16:45:02 21.9 C 3.86 g/m*3 21.9 C 0 km/h
490 08-04-2007 16:50:02 22.1 C 3.9 g/m*3 22.1 C 0 km/h
491 08-04-2007 16:55:02 22.1 C 3.9 g/m*3 22.1 C 0 km/h
492 08-04-2007 17:00:02 21.3 C 3.73 g/m*3 21.3 C 0 km/h
493 08-04-2007 17:05:01 21.1 C 3.69 g/m*3 21.1 C 0 km/h
494 08-04-2007 17:10:02 20.6 C 3.58 g/m*3 20.6 C 0 km/h
495 08-04-2007 17:15:01 21.4 C 3.75 g/m*3 21.4 C 0 km/h
496 08-04-2007 17:20:01 21.7 C 3.82 g/m*3 21.7 C 0 km/h
497 08-04-2007 17:25:01 21.4 C 3.75 g/m*3 21.4 C 0 km/h
498 08-04-2007 17:30:01 20.5 C 3.56 g/m*3 20.5 C 0 km/h
499 08-04-2007 17:35:01 19.9 C 3.44 g/m*3 19.9 C 0 km/h
500 08-04-2007 17:40:01 20 C 3.63 g/m*3 20 C 0 km/h
Sensor: Nr:Datum:Temp:Abs-Feuchte:Windchill:Wind:
Aussen-T/F 501 08-04-2007 17:45:01 20 C 3.46 g/m*3 20 C 0 km/h
502 08-04-2007 17:50:02 20.1 C 3.48 g/m*3 20.1 C 0 km/h
503 08-04-2007 17:55:02 20.3 C 3.52 g/m*3 20.3 C 0 km/h
504 08-04-2007 18:00:02 20.6 C 3.58 g/m*3 20.6 C 0 km/h
505 08-04-2007 18:05:02 21.1 C 3.69 g/m*3 21.1 C 0 km/h
506 08-04-2007 18:10:02 20.9 C 3.64 g/m*3 20.9 C 0 km/h
507 08-04-2007 18:15:01 20.9 C 3.64 g/m*3 20.9 C 0 km/h
508 08-04-2007 18:20:01 20.9 C 3.64 g/m*3 20.9 C 0 km/h
509 08-04-2007 18:25:01 20.9 C 3.64 g/m*3 20.9 C 0 km/h
510 08-04-2007 18:30:01 20.8 C 3.62 g/m*3 20.8 C 0 km/h
511 08-04-2007 18:35:01 20.8 C 3.62 g/m*3 20.8 C 0 km/h
512 08-04-2007 18:40:01 20.2 C 3.5 g/m*3 20.2 C 0 km/h
513 08-04-2007 18:45:01 19.8 C 3.42 g/m*3 19.8 C 0 km/h
514 08-04-2007 18:50:01 19.6 C 3.55 g/m*3 19.6 C 0 km/h
515 08-04-2007 18:55:02 19.4 C 3.67 g/m*3 19.4 C 0 km/h
516 08-04-2007 19:00:02 19.3 C 4.15 g/m*3 19.3 C 0 km/h
517 08-04-2007 19:05:01 19.2 C 4.29 g/m*3 19.2 C 0 km/h
518 08-04-2007 19:10:01 18.9 C 4.37 g/m*3 18.9 C 0 km/h
519 08-04-2007 19:15:01 18.5 C 4.43 g/m*3 18.5 C 0 km/h
520 08-04-2007 19:20:01 18.3 C 4.69 g/m*3 18.3 C 0 km/h
521 08-04-2007 19:25:01 17.5 C 4.62 g/m*3 17.5 C 0 km/h
522 08-04-2007 19:30:01 16.8 C 4.43 g/m*3 16.8 C 0 km/h
523 08-04-2007 19:35:01 16.6 C 4.52 g/m*3 16.6 C 0 km/h
524 08-04-2007 19:40:01 16.4 C 4.47 g/m*3 16.4 C 0 km/h
525 08-04-2007 19:45:01 16.3 C 4.58 g/m*3 16.3 C 0 km/h
Sensor: Nr:Datum:Temp:Abs-Feuchte:Windchill:Wind:
Aussen-T/F 526 08-04-2007 19:50:01 16.2 C 4.69 g/m*3 16.2 C 0 km/h
527 08-04-2007 19:55:01 15.8 C 4.71 g/m*3 15.8 C 0 km/h
528 08-04-2007 20:00:01 15.6 C 4.65 g/m*3 15.6 C 0 km/h
529 08-04-2007 20:05:01 15.3 C 4.57 g/m*3 15.3 C 0 km/h
530 08-04-2007 20:10:01 15.1 C 4.64 g/m*3 15.1 C 0 km/h
531 08-04-2007 20:15:01 14.8 C 4.56 g/m*3 14.8 C 0 km/h
532 08-04-2007 20:20:01 14.5 C 4.73 g/m*3 14.5 C 0 km/h
533 08-04-2007 20:25:01 14.3 C 4.67 g/m*3 14.3 C 0 km/h
534 08-04-2007 20:30:01 14.1 C 4.61 g/m*3 14.1 C 0 km/h
535 08-04-2007 20:35:03 13.9 C 4.68 g/m*3 13.9 C 0 km/h
536 08-04-2007 20:40:04 13.8 C 4.77 g/m*3 13.8 C 0 km/h
537 08-04-2007 20:45:02 13.6 C 4.71 g/m*3 13.6 C 0 km/h
538 08-04-2007 20:50:02 13.4 C 4.65 g/m*3 13.4 C 0 km/h
539 08-04-2007 20:55:02 13.2 C 4.71 g/m*3 13.2 C 0 km/h
540 08-04-2007 21:00:02 13.2 C 4.59 g/m*3 13.2 C 0 km/h
541 08-04-2007 21:05:02 13.1 C 4.56 g/m*3 13.1 C 0 km/h
542 08-04-2007 21:10:02 12.9 C 4.73 g/m*3 12.9 C 0 km/h
543 08-04-2007 21:15:02 12.8 C 4.82 g/m*3 12.8 C 0 km/h
544 08-04-2007 21:20:02 12.6 C 4.87 g/m*3 12.6 C 0 km/h
545 08-04-2007 21:25:02 12.4 C 4.81 g/m*3 12.4 C 0 km/h
546 08-04-2007 21:30:02 12.3 C 4.89 g/m*3 12.3 C 0 km/h
547 08-04-2007 21:35:01 12.1 C 4.83 g/m*3 12.1 C 0 km/h
548 08-04-2007 21:40:02 12 C 4.8 g/m*3 12 C 0 km/h
549 08-04-2007 21:45:02 11.9 C 4.87 g/m*3 11.9 C 0 km/h
550 08-04-2007 21:50:02 11.8 C 4.95 g/m*3 11.8 C 0 km/h
Sensor: Nr:Datum:Temp:Abs-Feuchte:Windchill:Wind:
Aussen-T/F 551 08-04-2007 21:55:02 11.7 C 4.81 g/m*3 11.7 C 0 km/h
552 08-04-2007 22:00:02 11.5 C 4.85 g/m*3 11.5 C 0 km/h
553 08-04-2007 22:05:02 11.4 C 4.82 g/m*3 11.4 C 0 km/h
554 08-04-2007 22:10:02 11.3 C 4.9 g/m*3 11.3 C 0 km/h
555 08-04-2007 22:15:02 11 C 4.9 g/m*3 11 C 0 km/h
556 08-04-2007 22:20:02 10.9 C 4.97 g/m*3 10.9 C 0 km/h
557 08-04-2007 22:25:02 10.5 C 4.95 g/m*3 10.5 C 0 km/h
558 08-04-2007 22:30:02 10.5 C 4.95 g/m*3 10.5 C 0 km/h
559 08-04-2007 22:35:02 10.5 C 4.95 g/m*3 10.5 C 0 km/h
560 08-04-2007 22:40:02 10.4 C 4.92 g/m*3 10.4 C 0 km/h
561 08-04-2007 22:45:01 10.3 C 4.88 g/m*3 10.3 C 0 km/h
562 08-04-2007 22:50:01 10.1 C 4.82 g/m*3 10.1 C 0 km/h
563 08-04-2007 22:55:01 10 C 4.79 g/m*3 10 C 0 km/h
564 08-04-2007 23:00:01 9.9 C 4.95 g/m*3 9.9 C 0 km/h
565 08-04-2007 23:05:02 9.8 C 4.92 g/m*3 9.8 C 0 km/h
566 08-04-2007 23:10:02 9.7 C 4.89 g/m*3 9.7 C 0 km/h
567 08-04-2007 23:15:02 9.7 C 4.98 g/m*3 9.7 C 0 km/h
568 08-04-2007 23:20:02 9.6 C 4.95 g/m*3 9.6 C 0 km/h
569 08-04-2007 23:25:02 9.6 C 4.95 g/m*3 9.6 C 0 km/h
570 08-04-2007 23:30:02 9.5 C 5.01 g/m*3 9.5 C 0 km/h
571 08-04-2007 23:35:01 9.3 C 4.94 g/m*3 9.3 C 0 km/h
572 08-04-2007 23:40:01 9.3 C 5.03 g/m*3 9.3 C 0 km/h
573 08-04-2007 23:45:02 9.1 C 4.97 g/m*3 9.1 C 0 km/h
574 08-04-2007 23:50:02 8.9 C 5.08 g/m*3 8.9 C 0 km/h
575 08-04-2007 23:55:02 8.8 C 5.05 g/m*3 8.8 C 0 km/h
Sensor: Nr:Datum:Temp:Abs-Feuchte:Windchill:Wind:
Aussen-T/F 576 09-04-2007 00:00:02 8.7 C 5.1 g/m*3 8.7 C 0 km/h
577 09-04-2007 00:05:02 8.7 C 5.1 g/m*3 8.7 C 0 km/h
578 09-04-2007 00:10:02 8.6 C 5.07 g/m*3 8.6 C 0 km/h
579 09-04-2007 00:15:02 8.6 C 5.16 g/m*3 8.6 C 0 km/h
580 09-04-2007 00:20:03 8.4 C 5.09 g/m*3 8.4 C 0 km/h
581 09-04-2007 00:25:03 8.3 C 5.06 g/m*3 8.3 C 0 km/h
582 09-04-2007 00:30:03 8.2 C 5.11 g/m*3 8.2 C 0 km/h
583 09-04-2007 00:35:02 8.1 C 5.08 g/m*3 8.1 C 0 km/h
584 09-04-2007 00:40:02 7.9 C 5.09 g/m*3 7.9 C 0 km/h
585 09-04-2007 00:45:02 7.9 C 5.09 g/m*3 7.9 C 0 km/h
586 09-04-2007 00:50:02 7.8 C 5.06 g/m*3 7.8 C 0 km/h
587 09-04-2007 00:55:02 7.8 C 5.14 g/m*3 7.8 C 0 km/h
588 09-04-2007 01:00:02 7.6 C 5.08 g/m*3 7.6 C 0 km/h
589 09-04-2007 01:05:02 7.6 C 5.16 g/m*3 7.6 C 0 km/h
590 09-04-2007 01:10:02 7.4 C 5.09 g/m*3 7.4 C 0 km/h
591 09-04-2007 01:15:02 7.4 C 5.09 g/m*3 7.4 C 0 km/h
592 09-04-2007 01:20:02 7.3 C 5.06 g/m*3 7.3 C 0 km/h
593 09-04-2007 01:25:02 7.3 C 5.06 g/m*3 7.3 C 0 km/h
594 09-04-2007 01:30:02 7.1 C 4.99 g/m*3 7.1 C 0 km/h
595 09-04-2007 01:35:02 7.2 C 5.02 g/m*3 7.2 C 0 km/h
596 09-04-2007 01:40:02 7 C 4.96 g/m*3 7 C 0 km/h
597 09-04-2007 01:45:02 7 C 4.96 g/m*3 7 C 0 km/h
598 09-04-2007 01:50:02 7 C 4.96 g/m*3 7 C 0 km/h
599 09-04-2007 01:55:02 7 C 5.04 g/m*3 7 C 0 km/h
600 09-04-2007 02:00:02 7 C 5.04 g/m*3 7 C 0 km/h
Sensor: Nr:Datum:Temp:Abs-Feuchte:Windchill:Wind:
Aussen-T/F 601 09-04-2007 02:05:02 6.9 C 5 g/m*3 6.9 C 0 km/h
602 09-04-2007 02:10:02 6.8 C 4.97 g/m*3 6.8 C 0 km/h
603 09-04-2007 02:15:02 6.8 C 5.05 g/m*3 6.8 C 0 km/h
604 09-04-2007 02:20:02 6.7 C 5.01 g/m*3 6.7 C 0 km/h
605 09-04-2007 02:25:02 6.6 C 4.98 g/m*3 6.6 C 0 km/h
606 09-04-2007 02:30:02 6.5 C 4.95 g/m*3 6.5 C 0 km/h
607 09-04-2007 02:35:02 6.4 C 4.99 g/m*3 6.4 C 0 km/h
608 09-04-2007 02:40:02 6.4 C 5.07 g/m*3 6.4 C 0 km/h
609 09-04-2007 02:46:05 6.4 C 5.07 g/m*3 6.4 C 0 km/h
610 09-04-2007 02:51:05 6.3 C 5.03 g/m*3 6.3 C 0 km/h
611 09-04-2007 02:56:05 6.3 C 5.11 g/m*3 6.3 C 0 km/h
612 09-04-2007 03:01:05 6.1 C 5.04 g/m*3 6.1 C 0 km/h
613 09-04-2007 03:06:05 6.1 C 5.04 g/m*3 6.1 C 0 km/h
614 09-04-2007 03:11:06 5.8 C 5.09 g/m*3 5.8 C 0 km/h
615 09-04-2007 03:16:06 5.7 C 5.05 g/m*3 5.7 C 0 km/h
616 09-04-2007 03:21:06 5.7 C 5.12 g/m*3 5.7 C 0 km/h
617 09-04-2007 03:26:06 5.5 C 5.06 g/m*3 5.5 C 0 km/h
618 09-04-2007 03:31:02 5.5 C 5.06 g/m*3 5.5 C 0 km/h
619 09-04-2007 03:36:02 5.5 C 5.06 g/m*3 5.5 C 0 km/h
620 09-04-2007 03:41:02 5.4 C 5.09 g/m*3 5.4 C 0 km/h
621 09-04-2007 03:46:03 5.2 C 5.03 g/m*3 5.2 C 0 km/h
622 09-04-2007 03:51:03 5.2 C 5.03 g/m*3 5.2 C 0 km/h
623 09-04-2007 03:56:03 5.2 C 5.03 g/m*3 5.2 C 0 km/h
624 09-04-2007 04:01:02 5.1 C 4.99 g/m*3 5.1 C 0 km/h
625 09-04-2007 04:06:02 5 C 4.96 g/m*3 5 C 0 km/h
Sensor: Nr:Datum:Temp:Abs-Feuchte:Windchill:Wind:
Aussen-T/F 626 09-04-2007 04:11:02 5 C 4.96 g/m*3 5 C 0 km/h
627 09-04-2007 04:16:03 5 C 4.96 g/m*3 5 C 0 km/h
628 09-04-2007 04:21:03 5 C 4.96 g/m*3 5 C 0 km/h
629 09-04-2007 04:26:03 4.9 C 5.06 g/m*3 4.9 C 0 km/h
630 09-04-2007 04:31:02 4.9 C 5 g/m*3 4.9 C 0 km/h
631 09-04-2007 04:36:02 4.9 C 5.06 g/m*3 4.9 C 0 km/h
632 09-04-2007 04:41:03 5 C 5.03 g/m*3 5 C 0 km/h
633 09-04-2007 04:46:02 4.6 C 5.1 g/m*3 4.6 C 0 km/h
634 09-04-2007 04:51:03 4.5 C 5.06 g/m*3 4.5 C 0 km/h
635 09-04-2007 04:56:03 4.3 C 5.06 g/m*3 4.3 C 0 km/h
636 09-04-2007 05:01:02 4.3 C 5.06 g/m*3 4.3 C 0 km/h
637 09-04-2007 05:06:02 4.2 C 5.03 g/m*3 4.2 C 0 km/h
638 09-04-2007 05:11:03 4.2 C 5.03 g/m*3 4.2 C 0 km/h
639 09-04-2007 05:16:02 4.2 C 5.03 g/m*3 4.2 C 0 km/h
640 09-04-2007 05:21:02 4.2 C 5.03 g/m*3 4.2 C 0 km/h
641 09-04-2007 05:26:02 4.2 C 5.03 g/m*3 4.2 C 0 km/h
642 09-04-2007 05:31:02 4.1 C 4.99 g/m*3 4.1 C 0 km/h
643 09-04-2007 05:36:02 4.2 C 5.03 g/m*3 4.2 C 0 km/h
644 09-04-2007 05:41:02 4.2 C 5.03 g/m*3 4.2 C 0 km/h
645 09-04-2007 05:46:01 4.1 C 4.99 g/m*3 4.1 C 0 km/h
646 09-04-2007 05:51:01 4.1 C 4.99 g/m*3 4.1 C 0 km/h
647 09-04-2007 05:56:01 4 C 4.9 g/m*3 4 C 0 km/h
648 09-04-2007 06:01:02 3.9 C 4.93 g/m*3 3.9 C 0 km/h
649 09-04-2007 06:06:02 3.9 C 4.99 g/m*3 3.9 C 0 km/h
650 09-04-2007 06:11:02 3.8 C 4.96 g/m*3 3.8 C 0 km/h
Sensor: Nr:Datum:Temp:Abs-Feuchte:Windchill:Wind:
Aussen-T/F 651 09-04-2007 06:16:02 3.7 C 4.99 g/m*3 3.7 C 0 km/h
652 09-04-2007 06:21:03 3.7 C 4.99 g/m*3 3.7 C 0 km/h
653 09-04-2007 06:26:03 3.6 C 4.95 g/m*3 3.6 C 0 km/h
654 09-04-2007 06:31:01 3.6 C 5.01 g/m*3 3.6 C 0 km/h
655 09-04-2007 06:36:01 3.6 C 5.01 g/m*3 3.6 C 0 km/h
656 09-04-2007 06:41:01 3.5 C 4.98 g/m*3 3.5 C 0 km/h
657 09-04-2007 06:46:02 3.4 C 4.95 g/m*3 3.4 C 0 km/h
658 09-04-2007 06:51:02 3.4 C 5.01 g/m*3 3.4 C 0 km/h
659 09-04-2007 06:56:02 3.3 C 4.97 g/m*3 3.3 C 0 km/h
660 09-04-2007 07:01:02 3.3 C 4.97 g/m*3 3.3 C 0 km/h
661 09-04-2007 07:06:02 3.3 C 4.97 g/m*3 3.3 C 0 km/h
662 09-04-2007 07:11:02 3.2 C 4.94 g/m*3 3.2 C 0 km/h
663 09-04-2007 07:16:01 3.2 C 4.88 g/m*3 3.2 C 0 km/h
664 09-04-2007 07:21:01 3.1 C 4.85 g/m*3 3.1 C 0 km/h
665 09-04-2007 07:26:01 3.1 C 4.85 g/m*3 3.1 C 0 km/h
666 09-04-2007 07:31:01 3.2 C 4.88 g/m*3 3.2 C 0 km/h
667 09-04-2007 07:36:01 3.3 C 4.97 g/m*3 3.3 C 0 km/h
668 09-04-2007 07:41:01 3.3 C 4.97 g/m*3 3.3 C 0 km/h
669 09-04-2007 07:46:02 3.3 C 4.97 g/m*3 3.3 C 0 km/h
670 09-04-2007 07:51:02 3.3 C 4.97 g/m*3 3.3 C 0 km/h
671 09-04-2007 07:56:03 3.4 C 5.01 g/m*3 3.4 C 0 km/h
672 09-04-2007 08:01:01 3.4 C 5.01 g/m*3 3.4 C 0 km/h
673 09-04-2007 08:06:01 3.5 C 5.04 g/m*3 3.5 C 0 km/h
674 09-04-2007 08:11:01 3.6 C 5.08 g/m*3 3.6 C 0 km/h
675 09-04-2007 08:16:01 3.6 C 5.08 g/m*3 3.6 C 0 km/h
Sensor: Nr:Datum:Temp:Abs-Feuchte:Windchill:Wind:
Aussen-T/F 676 09-04-2007 08:21:01 3.7 C 5.11 g/m*3 3.7 C 0 km/h
677 09-04-2007 08:26:01 3.8 C 5.14 g/m*3 3.8 C 0 km/h
678 09-04-2007 08:31:02 3.9 C 5.18 g/m*3 3.9 C 0 km/h
679 09-04-2007 08:36:02 4 C 5.15 g/m*3 4 C 0 km/h
680 09-04-2007 08:41:02 4.1 C 5.18 g/m*3 4.1 C 0 km/h
681 09-04-2007 08:46:01 4.2 C 5.22 g/m*3 4.2 C 0 km/h
682 09-04-2007 08:51:01 4.4 C 5.29 g/m*3 4.4 C 0 km/h
683 09-04-2007 08:56:01 4.6 C 5.36 g/m*3 4.6 C 0 km/h
684 09-04-2007 09:01:02 4.8 C 5.36 g/m*3 4.8 C 0 km/h
685 09-04-2007 09:06:02 5 C 5.37 g/m*3 5 C 0 km/h
686 09-04-2007 09:11:02 5.4 C 5.44 g/m*3 5.4 C 0 km/h
687 09-04-2007 09:16:02 5.7 C 5.41 g/m*3 5.7 C 0 km/h
688 09-04-2007 09:21:02 5.8 C 5.44 g/m*3 5.8 C 0 km/h
689 09-04-2007 09:26:02 6.1 C 5.48 g/m*3 6.1 C 0 km/h
690 09-04-2007 09:31:01 6.5 C 5.47 g/m*3 6.5 C 0 km/h
691 09-04-2007 09:36:01 6.6 C 5.44 g/m*3 6.6 C 0 km/h
692 09-04-2007 09:41:01 6.8 C 5.43 g/m*3 6.8 C 0 km/h
693 09-04-2007 09:46:02 7.1 C 5.46 g/m*3 7.1 C 0 km/h
694 09-04-2007 09:51:02 7.3 C 5.53 g/m*3 7.3 C 0 km/h
695 09-04-2007 09:56:02 7.6 C 5.64 g/m*3 7.6 C 0 km/h
696 09-04-2007 10:01:02 7.9 C 5.67 g/m*3 7.9 C 0 km/h
697 09-04-2007 10:06:02 8.2 C 5.53 g/m*3 8.2 C 0 km/h
698 09-04-2007 10:11:02 8.4 C 5.51 g/m*3 8.4 C 0 km/h
699 09-04-2007 10:16:02 8.7 C 5.53 g/m*3 8.7 C 0 km/h
700 09-04-2007 10:21:02 9.1 C 5.41 g/m*3 9.1 C 0 km/h
Sensor: Nr:Datum:Temp:Abs-Feuchte:Windchill:Wind:
Aussen-T/F 701 09-04-2007 10:26:02 9.2 C 5.45 g/m*3 9.2 C 0 km/h
702 09-04-2007 10:31:02 9.6 C 5.5 g/m*3 9.6 C 0 km/h
703 09-04-2007 10:36:02 10 C 5.45 g/m*3 10 C 0 km/h
704 09-04-2007 10:41:02 10.1 C 5.39 g/m*3 10.1 C 0 km/h
705 09-04-2007 10:46:02 10.6 C 5.47 g/m*3 10.6 C 0 km/h
706 09-04-2007 10:51:02 11 C 5.31 g/m*3 11 C 0 km/h
707 09-04-2007 10:56:02 11.4 C 5.03 g/m*3 11.4 C 0 km/h
708 09-04-2007 11:01:02 11.5 C 4.85 g/m*3 11.5 C 0 km/h
709 09-04-2007 11:06:02 11.9 C 4.98 g/m*3 11.9 C 0 km/h
710 09-04-2007 11:11:03 12.4 C 5.03 g/m*3 12.4 C 0 km/h
711 09-04-2007 11:16:02 12.5 C 5.06 g/m*3 12.5 C 0 km/h
712 09-04-2007 11:21:02 12.7 C 5.01 g/m*3 12.7 C 0 km/h
713 09-04-2007 11:26:02 12.8 C 4.93 g/m*3 12.8 C 0 km/h
714 09-04-2007 11:31:03 13 C 4.88 g/m*3 13 C 0 km/h
715 09-04-2007 11:36:03 13.2 C 4.82 g/m*3 13.2 C 0 km/h
716 09-04-2007 11:41:03 13.4 C 4.88 g/m*3 13.4 C 0 km/h
717 09-04-2007 11:46:01 13.6 C 5.06 g/m*3 13.6 C 0 km/h
718 09-04-2007 11:51:01 13.8 C 5 g/m*3 13.8 C 0 km/h
719 09-04-2007 11:56:01 14 C 4.95 g/m*3 14 C 0 km/h
720 09-04-2007 12:01:01 14.4 C 5.07 g/m*3 14.4 C 0 km/h
721 09-04-2007 12:06:01 14.4 C 4.94 g/m*3 14.4 C 0 km/h
722 09-04-2007 12:11:01 14.7 C 5.04 g/m*3 14.7 C 0 km/h
723 09-04-2007 12:16:01 15.1 C 5.03 g/m*3 15.1 C 0 km/h
724 09-04-2007 12:21:01 15.4 C 5.12 g/m*3 15.4 C 0 km/h
725 09-04-2007 12:26:01 16 C 5.18 g/m*3 16 C 0 km/h
Sensor: Nr:Datum:Temp:Abs-Feuchte:Windchill:Wind:
Aussen-T/F 726 09-04-2007 12:31:04 16.5 C 5.06 g/m*3 16.5 C 0 km/h
727 09-04-2007 12:36:05 16.6 C 4.94 g/m*3 16.6 C 0 km/h
728 09-04-2007 12:41:05 17 C 5.06 g/m*3 17 C 0 km/h
729 09-04-2007 12:46:03 17.1 C 4.95 g/m*3 17.1 C 0 km/h
730 09-04-2007 12:51:03 17 C 4.77 g/m*3 17 C 0 km/h
731 09-04-2007 12:56:03 17.1 C 4.95 g/m*3 17.1 C 0 km/h
732 09-04-2007 13:01:02 17.5 C 5.22 g/m*3 17.5 C 0 km/h
733 09-04-2007 13:06:02 17.6 C 4.95 g/m*3 17.6 C 0 km/h
734 09-04-2007 13:11:02 17.3 C 4.86 g/m*3 17.3 C 0 km/h
735 09-04-2007 13:16:02 17.3 C 5.01 g/m*3 17.3 C 0 km/h
736 09-04-2007 13:21:03 17.6 C 5.1 g/m*3 17.6 C 0 km/h
737 09-04-2007 13:26:03 18 C 5.07 g/m*3 18 C 0 km/h
738 09-04-2007 13:31:05 18.7 C 5.12 g/m*3 18.7 C 0 km/h
739 09-04-2007 13:36:05 19.1 C 4.92 g/m*3 19.1 C 0 km/h
740 09-04-2007 13:41:05 19.4 C 5.17 g/m*3 19.4 C 0 km/h
741 09-04-2007 13:46:02 19.5 C 5.03 g/m*3 19.5 C 0 km/h
742 09-04-2007 13:51:02 19.8 C 5.3 g/m*3 19.8 C 0 km/h
743 09-04-2007 13:56:02 20.3 C 5.1 g/m*3 20.3 C 0 km/h
744 09-04-2007 14:01:01 20.3 C 4.92 g/m*3 20.3 C 0 km/h
745 09-04-2007 14:06:01 19.9 C 4.81 g/m*3 19.9 C 0 km/h
746 09-04-2007 14:11:01 19.5 C 5.03 g/m*3 19.5 C 0 km/h
747 09-04-2007 14:16:02 19.7 C 5.26 g/m*3 19.7 C 0 km/h
748 09-04-2007 14:21:02 20.2 C 5.25 g/m*3 20.2 C 0 km/h
749 09-04-2007 14:26:02 19.8 C 4.78 g/m*3 19.8 C 0 km/h
750 09-04-2007 14:31:02 19.6 C 4.73 g/m*3 19.6 C 0 km/h
Sensor: Nr:Datum:Temp:Abs-Feuchte:Windchill:Wind:
Aussen-T/F 751 09-04-2007 14:36:02 19.7 C 4.75 g/m*3 19.7 C 0 km/h
752 09-04-2007 14:41:02 20.3 C 4.75 g/m*3 20.3 C 0 km/h
753 09-04-2007 14:46:02 20 C 4.84 g/m*3 20 C 0 km/h
754 09-04-2007 14:51:02 20 C 4.84 g/m*3 20 C 0 km/h
755 09-04-2007 14:56:02 20 C 4.67 g/m*3 20 C 0 km/h
756 09-04-2007 15:01:02 19.2 C 4.62 g/m*3 19.2 C 0 km/h
757 09-04-2007 15:06:02 19.2 C 4.45 g/m*3 19.2 C 0 km/h
758 09-04-2007 15:11:02 19.3 C 4.48 g/m*3 19.3 C 0 km/h
759 09-04-2007 15:16:02 19.7 C 4.58 g/m*3 19.7 C 0 km/h
760 09-04-2007 15:21:02 20 C 4.32 g/m*3 20 C 0 km/h
761 09-04-2007 15:26:02 20.1 C 4.69 g/m*3 20.1 C 0 km/h
762 09-04-2007 15:31:02 20.6 C 4.83 g/m*3 20.6 C 0 km/h
763 09-04-2007 15:36:02 21 C 4.76 g/m*3 21 C 0 km/h
764 09-04-2007 15:41:02 20.5 C 4.45 g/m*3 20.5 C 0 km/h
765 09-04-2007 15:46:03 20.2 C 4.55 g/m*3 20.2 C 0 km/h
766 09-04-2007 15:51:03 19.9 C 4.64 g/m*3 19.9 C 0 km/h
767 09-04-2007 15:56:03 20 C 4.67 g/m*3 20 C 0 km/h
768 09-04-2007 16:01:02 19.6 C 4.56 g/m*3 19.6 C 0 km/h
769 09-04-2007 16:06:02 20 C 4.49 g/m*3 20 C 0 km/h
770 09-04-2007 16:11:02 20 C 4.32 g/m*3 20 C 0 km/h
771 09-04-2007 16:16:02 20.9 C 4.55 g/m*3 20.9 C 0 km/h
772 09-04-2007 16:21:02 20.3 C 4.4 g/m*3 20.3 C 0 km/h
773 09-04-2007 16:26:02 20.2 C 4.55 g/m*3 20.2 C 0 km/h
774 09-04-2007 16:31:03 19.9 C 4.47 g/m*3 19.9 C 0 km/h
775 09-04-2007 16:36:03 19.3 C 4.64 g/m*3 19.3 C 0 km/h
Sensor: Nr:Datum:Temp:Abs-Feuchte:Windchill:Wind:
Aussen-T/F 776 09-04-2007 16:41:03 19.5 C 4.87 g/m*3 19.5 C 0 km/h
777 09-04-2007 16:46:02 19.9 C 4.81 g/m*3 19.9 C 0 km/h
778 09-04-2007 16:51:02 19.4 C 4.5 g/m*3 19.4 C 0 km/h
779 09-04-2007 16:56:02 19.3 C 4.81 g/m*3 19.3 C 0 km/h
780 09-04-2007 17:01:02 19 C 4.56 g/m*3 19 C 0 km/h
781 09-04-2007 17:06:02 18.8 C 4.67 g/m*3 18.8 C 0 km/h
782 09-04-2007 17:11:02 18.5 C 4.75 g/m*3 18.5 C 0 km/h
783 09-04-2007 17:16:02 18.5 C 4.75 g/m*3 18.5 C 0 km/h
784 09-04-2007 17:21:02 18.5 C 4.75 g/m*3 18.5 C 0 km/h
785 09-04-2007 17:26:02 18.4 C 4.72 g/m*3 18.4 C 0 km/h
786 09-04-2007 17:31:03 18.3 C 4.69 g/m*3 18.3 C 0 km/h
787 09-04-2007 17:36:03 18.2 C 4.82 g/m*3 18.2 C 0 km/h
788 09-04-2007 17:41:03 18.1 C 4.79 g/m*3 18.1 C 0 km/h
789 09-04-2007 17:46:02 18.6 C 4.93 g/m*3 18.6 C 0 km/h
790 09-04-2007 17:51:02 18.9 C 5.02 g/m*3 18.9 C 0 km/h
791 09-04-2007 17:56:02 19.1 C 4.92 g/m*3 19.1 C 0 km/h
792 09-04-2007 18:01:02 18.9 C 4.86 g/m*3 18.9 C 0 km/h
793 09-04-2007 18:06:02 18.7 C 4.96 g/m*3 18.7 C 0 km/h
794 09-04-2007 18:11:02 18.8 C 4.99 g/m*3 18.8 C 0 km/h
795 09-04-2007 18:16:02 18.9 C 5.02 g/m*3 18.9 C 0 km/h
796 09-04-2007 18:21:02 18.8 C 5.15 g/m*3 18.8 C 0 km/h
797 09-04-2007 18:26:02 18.2 C 4.97 g/m*3 18.2 C 0 km/h
798 09-04-2007 18:31:02 18 C 5.07 g/m*3 18 C 0 km/h
799 09-04-2007 18:36:02 18.1 C 5.1 g/m*3 18.1 C 0 km/h
800 09-04-2007 18:41:02 18.1 C 5.1 g/m*3 18.1 C 0 km/h
Sensor: Nr:Datum:Temp:Abs-Feuchte:Windchill:Wind:
Aussen-T/F 801 09-04-2007 18:46:01 18.2 C 4.97 g/m*3 18.2 C 0 km/h
802 09-04-2007 18:51:01 17.9 C 5.04 g/m*3 17.9 C 0 km/h
803 09-04-2007 18:56:01 17.7 C 4.83 g/m*3 17.7 C 0 km/h
804 09-04-2007 19:01:01 17.4 C 4.89 g/m*3 17.4 C 0 km/h
805 09-04-2007 19:06:01 17.4 C 4.89 g/m*3 17.4 C 0 km/h
806 09-04-2007 19:11:01 17.4 C 4.89 g/m*3 17.4 C 0 km/h
807 09-04-2007 19:16:02 17.2 C 4.98 g/m*3 17.2 C 0 km/h
808 09-04-2007 19:21:02 17.2 C 4.83 g/m*3 17.2 C 0 km/h
809 09-04-2007 19:26:02 17.1 C 4.8 g/m*3 17.1 C 0 km/h
810 09-04-2007 19:31:02 16.9 C 4.89 g/m*3 16.9 C 0 km/h
811 09-04-2007 19:36:02 16.5 C 4.91 g/m*3 16.5 C 0 km/h
812 09-04-2007 19:41:02 16.3 C 4.86 g/m*3 16.3 C 0 km/h
813 09-04-2007 19:46:01 16.3 C 4.86 g/m*3 16.3 C 0 km/h
814 09-04-2007 19:51:01 16.2 C 5.1 g/m*3 16.2 C 0 km/h
815 09-04-2007 19:56:01 15.9 C 4.88 g/m*3 15.9 C 0 km/h
816 09-04-2007 20:01:01 15.8 C 4.98 g/m*3 15.8 C 0 km/h
817 09-04-2007 20:06:01 15.6 C 5.05 g/m*3 15.6 C 0 km/h
818 09-04-2007 20:11:01 15.4 C 4.99 g/m*3 15.4 C 0 km/h
819 09-04-2007 20:16:01 15.2 C 5.06 g/m*3 15.2 C 0 km/h
820 09-04-2007 20:21:01 15 C 5 g/m*3 15 C 0 km/h
821 09-04-2007 20:26:01 14.8 C 5.19 g/m*3 14.8 C 0 km/h
822 09-04-2007 20:31:02 14.7 C 5.16 g/m*3 14.7 C 0 km/h
823 09-04-2007 20:36:02 14.5 C 5.1 g/m*3 14.5 C 0 km/h
824 09-04-2007 20:41:02 14.4 C 5.19 g/m*3 14.4 C 0 km/h
825 09-04-2007 20:46:02 14.3 C 5.16 g/m*3 14.3 C 0 km/h
Sensor: Nr:Datum:Temp:Abs-Feuchte:Windchill:Wind:
Aussen-T/F 826 09-04-2007 20:51:02 14.4 C 5.19 g/m*3 14.4 C 0 km/h
827 09-04-2007 20:56:02 14.2 C 5.13 g/m*3 14.2 C 0 km/h
828 09-04-2007 21:01:02 14.1 C 5.1 g/m*3 14.1 C 0 km/h
829 09-04-2007 21:06:02 14.1 C 5.1 g/m*3 14.1 C 0 km/h
830 09-04-2007 21:11:02 14.1 C 4.98 g/m*3 14.1 C 0 km/h
831 09-04-2007 21:16:01 14 C 5.07 g/m*3 14 C 0 km/h
832 09-04-2007 21:21:01 14 C 4.95 g/m*3 14 C 0 km/h
833 09-04-2007 21:26:01 14 C 5.07 g/m*3 14 C 0 km/h
834 09-04-2007 21:31:01 13.8 C 5.24 g/m*3 13.8 C 0 km/h
835 09-04-2007 21:36:01 13.5 C 5.15 g/m*3 13.5 C 0 km/h
836 09-04-2007 21:41:01 13.4 C 5.11 g/m*3 13.4 C 0 km/h
837 09-04-2007 21:46:02 13.3 C 5.2 g/m*3 13.3 C 0 km/h
838 09-04-2007 21:51:02 13.2 C 5.17 g/m*3 13.2 C 0 km/h
839 09-04-2007 21:56:02 12.7 C 5.12 g/m*3 12.7 C 0 km/h
840 09-04-2007 22:01:02 13.2 C 5.17 g/m*3 13.2 C 0 km/h
841 09-04-2007 22:06:02 13.1 C 5.25 g/m*3 13.1 C 0 km/h
842 09-04-2007 22:11:03 13.1 C 5.25 g/m*3 13.1 C 0 km/h
843 09-04-2007 22:16:02 13 C 5.22 g/m*3 13 C 0 km/h
844 09-04-2007 22:21:02 12.9 C 5.3 g/m*3 12.9 C 0 km/h
845 09-04-2007 22:26:02 12.8 C 5.26 g/m*3 12.8 C 0 km/h
846 09-04-2007 22:31:01 12.8 C 5.38 g/m*3 12.8 C 0 km/h
847 09-04-2007 22:36:01 12.8 C 5.26 g/m*3 12.8 C 0 km/h
848 09-04-2007 22:41:01 12.5 C 5.28 g/m*3 12.5 C 0 km/h
849 09-04-2007 22:46:02 12.5 C 5.28 g/m*3 12.5 C 0 km/h
850 09-04-2007 22:51:02 12.4 C 5.35 g/m*3 12.4 C 0 km/h
Sensor: Nr:Datum:Temp:Abs-Feuchte:Windchill:Wind:
Aussen-T/F 851 09-04-2007 22:56:02 12.2 C 5.18 g/m*3 12.2 C 0 km/h
852 09-04-2007 23:01:02 12.2 C 5.29 g/m*3 12.2 C 0 km/h
853 09-04-2007 23:06:02 11.9 C 5.51 g/m*3 11.9 C 0 km/h
854 09-04-2007 23:11:02 11.8 C 5.47 g/m*3 11.8 C 0 km/h
855 09-04-2007 23:16:01 11.8 C 5.47 g/m*3 11.8 C 0 km/h
856 09-04-2007 23:21:01 11.4 C 5.54 g/m*3 11.4 C 0 km/h
857 09-04-2007 23:26:01 11.2 C 5.37 g/m*3 11.2 C 0 km/h
858 09-04-2007 23:31:02 11.2 C 5.37 g/m*3 11.2 C 0 km/h
859 09-04-2007 23:36:02 11 C 5.61 g/m*3 11 C 0 km/h
860 09-04-2007 23:41:02 10.9 C 5.67 g/m*3 10.9 C 0 km/h
861 09-04-2007 23:46:01 10.6 C 5.76 g/m*3 10.6 C 0 km/h
862 09-04-2007 23:51:01 10.5 C 5.72 g/m*3 10.5 C 0 km/h
863 09-04-2007 23:56:01 10.4 C 5.78 g/m*3 10.4 C 0 km/h
864 10-04-2007 00:01:02 10.3 C 5.75 g/m*3 10.3 C 0 km/h
865 10-04-2007 00:06:02 10.3 C 5.75 g/m*3 10.3 C 0 km/h
866 10-04-2007 00:11:02 10.1 C 5.67 g/m*3 10.1 C 0 km/h
867 10-04-2007 00:16:03 9.9 C 5.79 g/m*3 9.9 C 0 km/h
868 10-04-2007 00:21:04 9.9 C 5.79 g/m*3 9.9 C 0 km/h
869 10-04-2007 00:26:04 9.7 C 5.62 g/m*3 9.7 C 0 km/h
870 10-04-2007 00:31:02 9.6 C 5.68 g/m*3 9.6 C 0 km/h
871 10-04-2007 00:36:02 9.5 C 5.73 g/m*3 9.5 C 0 km/h
872 10-04-2007 00:41:02 9.4 C 5.7 g/m*3 9.4 C 0 km/h
873 10-04-2007 00:46:03 9.3 C 5.75 g/m*3 9.3 C 0 km/h
874 10-04-2007 00:51:03 9.1 C 5.77 g/m*3 9.1 C 0 km/h
875 10-04-2007 00:56:03 9.1 C 5.77 g/m*3 9.1 C 0 km/h
Sensor: Nr:Datum:Temp:Abs-Feuchte:Windchill:Wind:
Aussen-T/F 876 10-04-2007 01:01:02 9.1 C 5.68 g/m*3 9.1 C 0 km/h
877 10-04-2007 01:06:02 9.1 C 5.77 g/m*3 9.1 C 0 km/h
878 10-04-2007 01:11:02 9 C 5.73 g/m*3 9 C 0 km/h
879 10-04-2007 01:16:02 9 C 5.64 g/m*3 9 C 0 km/h
880 10-04-2007 01:21:02 8.9 C 5.69 g/m*3 8.9 C 0 km/h
881 10-04-2007 01:26:02 8.9 C 5.69 g/m*3 8.9 C 0 km/h
882 10-04-2007 01:31:03 8.8 C 5.66 g/m*3 8.8 C 0 km/h
883 10-04-2007 01:36:03 8.9 C 5.78 g/m*3 8.9 C 0 km/h
884 10-04-2007 01:41:03 8.7 C 5.71 g/m*3 8.7 C 0 km/h
885 10-04-2007 01:46:03 8.6 C 5.67 g/m*3 8.6 C 0 km/h
886 10-04-2007 01:51:03 8.5 C 5.72 g/m*3 8.5 C 0 km/h
887 10-04-2007 01:56:03 8.4 C 5.68 g/m*3 8.4 C 0 km/h
888 10-04-2007 02:01:02 8.4 C 5.68 g/m*3 8.4 C 0 km/h
889 10-04-2007 02:06:02 8.2 C 5.61 g/m*3 8.2 C 0 km/h
890 10-04-2007 02:11:03 8.2 C 5.69 g/m*3 8.2 C 0 km/h
891 10-04-2007 02:16:03 8.1 C 5.66 g/m*3 8.1 C 0 km/h
892 10-04-2007 02:21:03 8 C 5.62 g/m*3 8 C 0 km/h
893 10-04-2007 02:26:03 7.9 C 5.75 g/m*3 7.9 C 0 km/h
894 10-04-2007 02:31:03 7.9 C 5.75 g/m*3 7.9 C 0 km/h
895 10-04-2007 02:36:03 7.8 C 5.71 g/m*3 7.8 C 0 km/h
896 10-04-2007 02:41:03 7.7 C 5.68 g/m*3 7.7 C 0 km/h
897 10-04-2007 02:46:01 7.5 C 5.6 g/m*3 7.5 C 0 km/h
898 10-04-2007 02:51:01 7.5 C 5.6 g/m*3 7.5 C 0 km/h
899 10-04-2007 02:56:01 7.4 C 5.57 g/m*3 7.4 C 0 km/h
900 10-04-2007 03:01:01 7.4 C 5.65 g/m*3 7.4 C 0 km/h
Sensor: Nr:Datum:Temp:Abs-Feuchte:Windchill:Wind:
Aussen-T/F 901 10-04-2007 03:06:01 7.4 C 5.65 g/m*3 7.4 C 0 km/h
902 10-04-2007 03:11:01 7.5 C 5.68 g/m*3 7.5 C 0 km/h
903 10-04-2007 03:16:01 7.6 C 5.72 g/m*3 7.6 C 0 km/h
904 10-04-2007 03:21:01 7.7 C 5.76 g/m*3 7.7 C 0 km/h
905 10-04-2007 03:26:02 7.7 C 5.76 g/m*3 7.7 C 0 km/h
906 10-04-2007 03:31:02 7.5 C 5.68 g/m*3 7.5 C 0 km/h
907 10-04-2007 03:36:02 7.4 C 5.65 g/m*3 7.4 C 0 km/h
908 10-04-2007 03:41:02 7.3 C 5.61 g/m*3 7.3 C 0 km/h
909 10-04-2007 03:46:02 7.2 C 5.57 g/m*3 7.2 C 0 km/h
910 10-04-2007 03:51:02 7.1 C 5.62 g/m*3 7.1 C 0 km/h
911 10-04-2007 03:56:02 7 C 5.58 g/m*3 7 C 0 km/h
912 10-04-2007 04:01:02 6.9 C 5.62 g/m*3 6.9 C 0 km/h
913 10-04-2007 04:06:02 6.6 C 5.51 g/m*3 6.6 C 0 km/h
914 10-04-2007 04:11:02 6.5 C 5.47 g/m*3 6.5 C 0 km/h
915 10-04-2007 04:16:02 6.5 C 5.55 g/m*3 6.5 C 0 km/h
916 10-04-2007 04:21:02 6.4 C 5.59 g/m*3 6.4 C 0 km/h
917 10-04-2007 04:26:02 6.3 C 5.55 g/m*3 6.3 C 0 km/h
918 10-04-2007 04:31:02 6.2 C 5.59 g/m*3 6.2 C 0 km/h
919 10-04-2007 04:36:02 6.1 C 5.55 g/m*3 6.1 C 0 km/h
920 10-04-2007 04:41:02 6 C 5.59 g/m*3 6 C 0 km/h
921 10-04-2007 04:46:01 5.9 C 5.62 g/m*3 5.9 C 0 km/h
922 10-04-2007 04:51:01 5.9 C 5.62 g/m*3 5.9 C 0 km/h
923 10-04-2007 04:56:01 5.8 C 5.66 g/m*3 5.8 C 0 km/h
924 10-04-2007 05:01:01 5.8 C 5.66 g/m*3 5.8 C 0 km/h
925 10-04-2007 05:06:01 5.8 C 5.66 g/m*3 5.8 C 0 km/h
Sensor: Nr:Datum:Temp:Abs-Feuchte:Windchill:Wind:
Aussen-T/F 926 10-04-2007 05:11:01 5.9 C 5.7 g/m*3 5.9 C 0 km/h
927 10-04-2007 05:16:02 5.9 C 5.7 g/m*3 5.9 C 0 km/h
928 10-04-2007 05:21:02 5.9 C 5.7 g/m*3 5.9 C 0 km/h
929 10-04-2007 05:26:02 5.9 C 5.62 g/m*3 5.9 C 0 km/h
930 10-04-2007 05:31:02 5.9 C 5.62 g/m*3 5.9 C 0 km/h
931 10-04-2007 05:36:02 5.9 C 5.62 g/m*3 5.9 C 0 km/h
932 10-04-2007 05:41:02 5.9 C 5.62 g/m*3 5.9 C 0 km/h
933 10-04-2007 05:46:01 5.9 C 5.62 g/m*3 5.9 C 0 km/h
934 10-04-2007 05:51:01 5.9 C 5.62 g/m*3 5.9 C 0 km/h
935 10-04-2007 05:56:01 6 C 5.59 g/m*3 6 C 0 km/h
936 10-04-2007 06:01:01 5.9 C 5.62 g/m*3 5.9 C 0 km/h
937 10-04-2007 06:06:01 6 C 5.59 g/m*3 6 C 0 km/h
938 10-04-2007 06:11:01 6.1 C 5.63 g/m*3 6.1 C 0 km/h
939 10-04-2007 06:16:02 6.2 C 5.66 g/m*3 6.2 C 0 km/h
940 10-04-2007 06:21:02 6.3 C 5.63 g/m*3 6.3 C 0 km/h
941 10-04-2007 06:26:02 6.3 C 5.63 g/m*3 6.3 C 0 km/h
942 10-04-2007 06:31:02 6.3 C 5.63 g/m*3 6.3 C 0 km/h
943 10-04-2007 06:36:02 6.1 C 5.55 g/m*3 6.1 C 0 km/h
944 10-04-2007 06:41:02 6.2 C 5.59 g/m*3 6.2 C 0 km/h
945 10-04-2007 06:46:01 6 C 5.52 g/m*3 6 C 0 km/h
946 10-04-2007 06:51:01 6 C 5.59 g/m*3 6 C 0 km/h
947 10-04-2007 06:56:01 6 C 5.59 g/m*3 6 C 0 km/h
948 10-04-2007 07:01:02 6 C 5.59 g/m*3 6 C 0 km/h
949 10-04-2007 07:06:02 6 C 5.66 g/m*3 6 C 0 km/h
950 10-04-2007 07:11:02 6 C 5.66 g/m*3 6 C 0 km/h
Sensor: Nr:Datum:Temp:Abs-Feuchte:Windchill:Wind:
Aussen-T/F 951 10-04-2007 07:16:02 6.1 C 5.63 g/m*3 6.1 C 0 km/h
952 10-04-2007 07:21:02 6.2 C 5.66 g/m*3 6.2 C 0 km/h
953 10-04-2007 07:26:02 6.2 C 5.66 g/m*3 6.2 C 0 km/h
954 10-04-2007 07:31:01 6.3 C 5.7 g/m*3 6.3 C 0 km/h
955 10-04-2007 07:36:01 6.3 C 5.7 g/m*3 6.3 C 0 km/h
956 10-04-2007 07:41:01 6.1 C 5.63 g/m*3 6.1 C 0 km/h
957 10-04-2007 07:46:02 6.1 C 5.7 g/m*3 6.1 C 0 km/h
958 10-04-2007 07:51:02 6.1 C 5.7 g/m*3 6.1 C 0 km/h
959 10-04-2007 07:56:02 6.2 C 5.81 g/m*3 6.2 C 0 km/h
960 10-04-2007 08:01:02 6.3 C 5.85 g/m*3 6.3 C 0 km/h
961 10-04-2007 08:06:02 6.4 C 5.81 g/m*3 6.4 C 0 km/h
962 10-04-2007 08:11:02 6.7 C 5.93 g/m*3 6.7 C 0 km/h
963 10-04-2007 08:16:01 6.9 C 5.93 g/m*3 6.9 C 0 km/h
964 10-04-2007 08:21:02 7 C 5.89 g/m*3 7 C 0 km/h
965 10-04-2007 08:26:02 7.8 C 5.88 g/m*3 7.8 C 0 km/h
966 10-04-2007 08:31:01 8 C 5.7 g/m*3 8 C 0 km/h
967 10-04-2007 08:36:01 8.1 C 5.74 g/m*3 8.1 C 0 km/h
968 10-04-2007 08:41:01 8.2 C 5.69 g/m*3 8.2 C 0 km/h
969 10-04-2007 08:46:01 8.1 C 5.66 g/m*3 8.1 C 0 km/h
970 10-04-2007 08:51:01 8.2 C 5.69 g/m*3 8.2 C 0 km/h
971 10-04-2007 08:56:01 8.2 C 5.69 g/m*3 8.2 C 0 km/h
972 10-04-2007 09:01:02 8.2 C 5.78 g/m*3 8.2 C 0 km/h
973 10-04-2007 09:06:02 8.2 C 5.78 g/m*3 8.2 C 0 km/h
974 10-04-2007 09:11:02 8.4 C 5.94 g/m*3 8.4 C 0 km/h
975 10-04-2007 09:16:02 8.5 C 5.89 g/m*3 8.5 C 0 km/h
Sensor: Nr:Datum:Temp:Abs-Feuchte:Windchill:Wind:
Aussen-T/F 976 10-04-2007 09:21:02 8.4 C 5.85 g/m*3 8.4 C 0 km/h
977 10-04-2007 09:26:02 8.5 C 5.89 g/m*3 8.5 C 0 km/h
978 10-04-2007 09:31:01 8.5 C 5.89 g/m*3 8.5 C 0 km/h
979 10-04-2007 09:36:01 8.6 C 5.93 g/m*3 8.6 C 0 km/h
980 10-04-2007 09:41:02 8.6 C 5.93 g/m*3 8.6 C 0 km/h
981 10-04-2007 09:46:02 8.7 C 5.97 g/m*3 8.7 C 0 km/h
982 10-04-2007 09:51:02 8.8 C 6.01 g/m*3 8.8 C 0 km/h
983 10-04-2007 09:56:02 8.8 C 6.01 g/m*3 8.8 C 0 km/h
984 10-04-2007 10:01:02 9 C 5.99 g/m*3 9 C 0 km/h
985 10-04-2007 10:06:02 9.3 C 6.02 g/m*3 9.3 C 0 km/h
986 10-04-2007 10:11:02 9.5 C 6.1 g/m*3 9.5 C 0 km/h
987 10-04-2007 10:16:02 9.7 C 6.08 g/m*3 9.7 C 0 km/h
988 10-04-2007 10:21:02 9.8 C 6.12 g/m*3 9.8 C 0 km/h
989 10-04-2007 10:26:02 10.1 C 6.15 g/m*3 10.1 C 0 km/h
990 10-04-2007 10:31:01 10.2 C 6.09 g/m*3 10.2 C 0 km/h
991 10-04-2007 10:36:01 10.2 C 6 g/m*3 10.2 C 0 km/h
992 10-04-2007 10:41:01 10.7 C 6.19 g/m*3 10.7 C 0 km/h
993 10-04-2007 10:46:02 10.8 C 6.13 g/m*3 10.8 C 0 km/h
994 10-04-2007 10:51:02 11 C 6.01 g/m*3 11 C 0 km/h
995 10-04-2007 10:56:02 11.2 C 6.08 g/m*3 11.2 C 0 km/h
996 10-04-2007 11:01:01 11.4 C 6.06 g/m*3 11.4 C 0 km/h
997 10-04-2007 11:06:01 11.6 C 6.13 g/m*3 11.6 C 0 km/h
998 10-04-2007 11:11:01 11.7 C 6.07 g/m*3 11.7 C 0 km/h
999 10-04-2007 11:16:01 11.9 C 6.14 g/m*3 11.9 C 0 km/h
1000 10-04-2007 11:21:01 12.1 C 6.11 g/m*3 12.1 C 0 km/h
Sensor: Nr:Datum:Temp:Abs-Feuchte:Windchill:Wind:
Aussen-T/F 1001 10-04-2007 11:26:01 12.5 C 6.16 g/m*3 12.5 C 0 km/h
1002 10-04-2007 11:31:02 12.8 C 6.16 g/m*3 12.8 C 0 km/h
1003 10-04-2007 11:36:02 13.1 C 6.16 g/m*3 13.1 C 0 km/h
1004 10-04-2007 11:41:02 13.5 C 6.2 g/m*3 13.5 C 0 km/h
1005 10-04-2007 11:46:02 13.9 C 6.11 g/m*3 13.9 C 0 km/h
1006 10-04-2007 11:51:02 14.1 C 6.07 g/m*3 14.1 C 0 km/h
1007 10-04-2007 11:56:02 14.2 C 5.98 g/m*3 14.2 C 0 km/h
1008 10-04-2007 12:01:02 14.2 C 5.98 g/m*3 14.2 C 0 km/h
1009 10-04-2007 12:06:02 14.5 C 6.09 g/m*3 14.5 C 0 km/h
1010 10-04-2007 12:11:02 14.8 C 6.08 g/m*3 14.8 C 0 km/h
1011 10-04-2007 12:16:01 15.4 C 5.91 g/m*3 15.4 C 0 km/h
1012 10-04-2007 12:21:01 15.6 C 5.98 g/m*3 15.6 C 0 km/h
1013 10-04-2007 12:26:01 16 C 5.99 g/m*3 16 C 0 km/h
1014 10-04-2007 12:31:01 16.3 C 5.97 g/m*3 16.3 C 0 km/h
1015 10-04-2007 12:36:01 16.1 C 5.89 g/m*3 16.1 C 0 km/h
1016 10-04-2007 12:41:01 16.6 C 6.07 g/m*3 16.6 C 0 km/h
1017 10-04-2007 12:46:02 16.8 C 6.15 g/m*3 16.8 C 0 km/h
1018 10-04-2007 12:51:02 17.5 C 6.11 g/m*3 17.5 C 0 km/h
1019 10-04-2007 12:56:02 17.4 C 6.08 g/m*3 17.4 C 0 km/h
1020 10-04-2007 13:01:01 17.2 C 6 g/m*3 17.2 C 0 km/h
1021 10-04-2007 13:06:01 17.3 C 6.19 g/m*3 17.3 C 0 km/h
1022 10-04-2007 13:11:01 17.5 C 6.26 g/m*3 17.5 C 0 km/h
1023 10-04-2007 13:16:01 18 C 6.14 g/m*3 18 C 0 km/h
1024 10-04-2007 13:21:01 18.2 C 6.22 g/m*3 18.2 C 0 km/h
1025 10-04-2007 13:26:01 18.6 C 6.37 g/m*3 18.6 C 0 km/h
Sensor: Nr:Datum:Temp:Abs-Feuchte:Windchill:Wind:
Aussen-T/F 1026 10-04-2007 13:31:02 18.8 C 6.12 g/m*3 18.8 C 0 km/h
1027 10-04-2007 13:36:02 18.7 C 6.24 g/m*3 18.7 C 0 km/h
1028 10-04-2007 13:41:02 18.8 C 6.28 g/m*3 18.8 C 0 km/h
1029 10-04-2007 13:46:01 18.7 C 6.24 g/m*3 18.7 C 0 km/h
1030 10-04-2007 13:51:01 18.3 C 5.94 g/m*3 18.3 C 0 km/h
1031 10-04-2007 13:56:01 18 C 5.68 g/m*3 18 C 0 km/h
1032 10-04-2007 14:01:01 18 C 5.68 g/m*3 18 C 0 km/h
1033 10-04-2007 14:06:01 18.4 C 5.82 g/m*3 18.4 C 0 km/h
1034 10-04-2007 14:11:01 18 C 5.68 g/m*3 18 C 0 km/h
1035 10-04-2007 14:16:02 18.1 C 5.72 g/m*3 18.1 C 0 km/h
1036 10-04-2007 14:21:02 17.9 C 5.8 g/m*3 17.9 C 0 km/h
1037 10-04-2007 14:26:02 18.2 C 5.91 g/m*3 18.2 C 0 km/h
1038 10-04-2007 14:31:02 18.3 C 5.94 g/m*3 18.3 C 0 km/h
1039 10-04-2007 14:36:02 18.2 C 5.91 g/m*3 18.2 C 0 km/h
1040 10-04-2007 14:41:02 18.3 C 5.94 g/m*3 18.3 C 0 km/h
1041 10-04-2007 14:46:01 19.3 C 5.97 g/m*3 19.3 C 0 km/h
1042 10-04-2007 14:51:01 19.3 C 5.97 g/m*3 19.3 C 0 km/h
1043 10-04-2007 14:56:01 19.1 C 5.9 g/m*3 19.1 C 0 km/h
1044 10-04-2007 15:01:02 19.3 C 5.97 g/m*3 19.3 C 0 km/h
1045 10-04-2007 15:06:02 19.2 C 5.94 g/m*3 19.2 C 0 km/h
1046 10-04-2007 15:11:02 19.2 C 5.94 g/m*3 19.2 C 0 km/h
1047 10-04-2007 15:16:02 19.2 C 5.94 g/m*3 19.2 C 0 km/h
1048 10-04-2007 15:21:02 18.7 C 5.92 g/m*3 18.7 C 0 km/h
1049 10-04-2007 15:26:02 18.8 C 5.96 g/m*3 18.8 C 0 km/h
1050 10-04-2007 15:31:01 18.7 C 6.08 g/m*3 18.7 C 0 km/h
Sensor: Nr:Datum:Temp:Abs-Feuchte:Windchill:Wind:
Aussen-T/F 1051 10-04-2007 15:36:01 18.4 C 6.13 g/m*3 18.4 C 0 km/h
1052 10-04-2007 15:41:01 18.5 C 6.17 g/m*3 18.5 C 0 km/h
1053 10-04-2007 15:46:02 18.7 C 6.24 g/m*3 18.7 C 0 km/h
1054 10-04-2007 15:51:02 18.6 C 6.05 g/m*3 18.6 C 0 km/h
1055 10-04-2007 15:56:02 18.6 C 5.89 g/m*3 18.6 C 0 km/h
1056 10-04-2007 16:01:02 18.5 C 6.01 g/m*3 18.5 C 0 km/h
1057 10-04-2007 16:06:02 18.4 C 5.98 g/m*3 18.4 C 0 km/h
1058 10-04-2007 16:11:02 18.3 C 6.1 g/m*3 18.3 C 0 km/h
1059 10-04-2007 16:16:01 18.2 C 6.06 g/m*3 18.2 C 0 km/h
1060 10-04-2007 16:21:01 18.1 C 6.18 g/m*3 18.1 C 0 km/h
1061 10-04-2007 16:26:02 17.9 C 6.11 g/m*3 17.9 C 0 km/h
1062 10-04-2007 16:31:01 17.7 C 6.19 g/m*3 17.7 C 0 km/h
1063 10-04-2007 16:36:01 17.3 C 6.04 g/m*3 17.3 C 0 km/h
1064 10-04-2007 16:41:01 17.6 C 6.15 g/m*3 17.6 C 0 km/h
1065 10-04-2007 16:46:02 17.8 C 6.37 g/m*3 17.8 C 0 km/h
1066 10-04-2007 16:51:02 18.1 C 6.33 g/m*3 18.1 C 0 km/h
1067 10-04-2007 16:56:02 18.2 C 6.22 g/m*3 18.2 C 0 km/h
1068 10-04-2007 17:01:01 18 C 6.14 g/m*3 18 C 0 km/h
1069 10-04-2007 17:06:01 17.9 C 6.11 g/m*3 17.9 C 0 km/h
1070 10-04-2007 17:11:02 17.9 C 6.11 g/m*3 17.9 C 0 km/h
1071 10-04-2007 17:16:01 17.9 C 6.11 g/m*3 17.9 C 0 km/h
1072 10-04-2007 17:21:01 18.1 C 6.03 g/m*3 18.1 C 0 km/h
1073 10-04-2007 17:26:01 17.9 C 6.11 g/m*3 17.9 C 0 km/h
1074 10-04-2007 17:31:01 17.6 C 6 g/m*3 17.6 C 0 km/h
1075 10-04-2007 17:36:01 17.7 C 6.19 g/m*3 17.7 C 0 km/h
Sensor: Nr:Datum:Temp:Abs-Feuchte:Windchill:Wind:
Aussen-T/F 1076 10-04-2007 17:41:01 17.8 C 6.22 g/m*3 17.8 C 0 km/h
1077 10-04-2007 17:46:02 17.8 C 6.22 g/m*3 17.8 C 0 km/h
1078 10-04-2007 17:51:02 18 C 6.14 g/m*3 18 C 0 km/h
1079 10-04-2007 17:56:02 17.7 C 6.19 g/m*3 17.7 C 0 km/h
1080 10-04-2007 18:01:01 17.5 C 6.26 g/m*3 17.5 C 0 km/h
1081 10-04-2007 18:06:01 17.5 C 6.26 g/m*3 17.5 C 0 km/h
1082 10-04-2007 18:11:02 17.5 C 6.26 g/m*3 17.5 C 0 km/h
1083 10-04-2007 18:16:01 17.5 C 6.26 g/m*3 17.5 C 0 km/h
1084 10-04-2007 18:21:01 17.1 C 6.11 g/m*3 17.1 C 0 km/h
1085 10-04-2007 18:26:01 17.2 C 6.15 g/m*3 17.2 C 0 km/h
1086 10-04-2007 18:31:01 17.1 C 6.11 g/m*3 17.1 C 0 km/h
1087 10-04-2007 18:36:01 17.1 C 6.11 g/m*3 17.1 C 0 km/h
1088 10-04-2007 18:41:01 17.2 C 6.15 g/m*3 17.2 C 0 km/h
1089 10-04-2007 18:46:01 17.2 C 6.15 g/m*3 17.2 C 0 km/h
1090 10-04-2007 18:51:02 16.9 C 6.33 g/m*3 16.9 C 0 km/h
1091 10-04-2007 18:56:02 16.8 C 6.29 g/m*3 16.8 C 0 km/h
1092 10-04-2007 19:01:01 16.8 C 6.29 g/m*3 16.8 C 0 km/h
1093 10-04-2007 19:06:01 16.8 C 6.29 g/m*3 16.8 C 0 km/h
1094 10-04-2007 19:11:01 16.7 C 6.25 g/m*3 16.7 C 0 km/h
1095 10-04-2007 19:16:01 16.6 C 6.36 g/m*3 16.6 C 0 km/h
1096 10-04-2007 19:21:01 16.4 C 6.28 g/m*3 16.4 C 0 km/h
1097 10-04-2007 19:26:01 16.3 C 6.24 g/m*3 16.3 C 0 km/h
1098 10-04-2007 19:31:02 16.2 C 6.21 g/m*3 16.2 C 0 km/h
1099 10-04-2007 19:36:02 16.2 C 6.21 g/m*3 16.2 C 0 km/h
1100 10-04-2007 19:41:02 16 C 6.27 g/m*3 16 C 0 km/h
Sensor: Nr:Datum:Temp:Abs-Feuchte:Windchill:Wind:
Aussen-T/F 1101 10-04-2007 19:46:01 16 C 6.27 g/m*3 16 C 0 km/h
1102 10-04-2007 19:51:02 15.9 C 6.37 g/m*3 15.9 C 0 km/h
1103 10-04-2007 19:56:02 15.6 C 6.38 g/m*3 15.6 C 0 km/h
1104 10-04-2007 20:01:01 15.5 C 6.34 g/m*3 15.5 C 0 km/h
1105 10-04-2007 20:06:01 15.3 C 6.4 g/m*3 15.3 C 0 km/h
1106 10-04-2007 20:11:01 15.1 C 6.45 g/m*3 15.1 C 0 km/h
1107 10-04-2007 20:16:01 14.9 C 6.5 g/m*3 14.9 C 0 km/h
1108 10-04-2007 20:21:01 14.9 C 6.5 g/m*3 14.9 C 0 km/h
1109 10-04-2007 20:26:01 14.8 C 6.59 g/m*3 14.8 C 0 km/h
1110 10-04-2007 20:31:02 14.5 C 6.59 g/m*3 14.5 C 0 km/h
1111 10-04-2007 20:36:02 14.4 C 6.55 g/m*3 14.4 C 0 km/h
1112 10-04-2007 20:41:02 14.1 C 6.55 g/m*3 14.1 C 0 km/h
1113 10-04-2007 20:46:01 13.8 C 6.55 g/m*3 13.8 C 0 km/h
1114 10-04-2007 20:51:01 13.7 C 6.63 g/m*3 13.7 C 0 km/h
1115 10-04-2007 20:56:02 13.5 C 6.55 g/m*3 13.5 C 0 km/h
1116 10-04-2007 21:01:01 13.2 C 6.54 g/m*3 13.2 C 0 km/h
1117 10-04-2007 21:06:01 13.1 C 6.5 g/m*3 13.1 C 0 km/h
1118 10-04-2007 21:11:01 13 C 6.58 g/m*3 13 C 0 km/h
1119 10-04-2007 21:16:01 12.8 C 6.72 g/m*3 12.8 C 0 km/h
1120 10-04-2007 21:21:01 12.7 C 6.79 g/m*3 12.7 C 0 km/h
1121 10-04-2007 21:26:01 12.6 C 6.75 g/m*3 12.6 C 0 km/h
1122 10-04-2007 21:31:02 12.5 C 6.82 g/m*3 12.5 C 0 km/h
1123 10-04-2007 21:36:02 12.3 C 6.73 g/m*3 12.3 C 0 km/h
1124 10-04-2007 21:41:02 12.3 C 6.73 g/m*3 12.3 C 0 km/h
1125 10-04-2007 21:46:01 12.1 C 6.76 g/m*3 12.1 C 0 km/h
Sensor: Nr:Datum:Temp:Abs-Feuchte:Windchill:Wind:
Aussen-T/F 1126 10-04-2007 21:51:01 12 C 6.71 g/m*3 12 C 0 km/h
1127 10-04-2007 21:56:01 12.1 C 6.86 g/m*3 12.1 C 0 km/h
1128 10-04-2007 22:01:01 12 C 6.82 g/m*3 12 C 0 km/h
1129 10-04-2007 22:06:01 11.9 C 6.88 g/m*3 11.9 C 0 km/h
1130 10-04-2007 22:11:01 11.8 C 6.95 g/m*3 11.8 C 0 km/h
1131 10-04-2007 22:16:01 11.9 C 6.88 g/m*3 11.9 C 0 km/h
1132 10-04-2007 22:21:01 11.6 C 6.76 g/m*3 11.6 C 0 km/h
1133 10-04-2007 22:26:01 11.4 C 6.77 g/m*3 11.4 C 0 km/h
1134 10-04-2007 22:31:02 11.4 C 6.77 g/m*3 11.4 C 0 km/h
1135 10-04-2007 22:36:02 11.3 C 6.83 g/m*3 11.3 C 0 km/h
1136 10-04-2007 22:41:02 11.2 C 6.79 g/m*3 11.2 C 0 km/h
1137 10-04-2007 22:46:01 11.2 C 6.79 g/m*3 11.2 C 0 km/h
1138 10-04-2007 22:51:01 11.1 C 6.75 g/m*3 11.1 C 0 km/h
1139 10-04-2007 22:56:01 11 C 6.81 g/m*3 11 C 0 km/h
1140 10-04-2007 23:01:02 11 C 6.81 g/m*3 11 C 0 km/h
1141 10-04-2007 23:06:02 10.8 C 6.92 g/m*3 10.8 C 0 km/h
1142 10-04-2007 23:11:02 10.7 C 6.88 g/m*3 10.7 C 0 km/h
1143 10-04-2007 23:16:02 10.6 C 6.83 g/m*3 10.6 C 0 km/h
1144 10-04-2007 23:21:02 10.5 C 6.79 g/m*3 10.5 C 0 km/h
1145 10-04-2007 23:26:02 10.5 C 6.79 g/m*3 10.5 C 0 km/h
1146 10-04-2007 23:31:01 10.3 C 6.8 g/m*3 10.3 C 0 km/h
1147 10-04-2007 23:36:02 10.2 C 6.85 g/m*3 10.2 C 0 km/h
1148 10-04-2007 23:41:02 10 C 6.86 g/m*3 10 C 0 km/h
1149 10-04-2007 23:46:01 9.9 C 6.91 g/m*3 9.9 C 0 km/h
1150 10-04-2007 23:51:01 9.9 C 6.91 g/m*3 9.9 C 0 km/h
Sensor: Nr:Datum:Temp:Abs-Feuchte:Windchill:Wind:
Aussen-T/F 1151 10-04-2007 23:56:01 9.8 C 6.96 g/m*3 9.8 C 0 km/h
1152 11-04-2007 00:01:02 9.7 C 6.91 g/m*3 9.7 C 0 km/h
1153 11-04-2007 00:06:02 9.7 C 6.91 g/m*3 9.7 C 0 km/h
1154 11-04-2007 00:11:02 9.7 C 6.91 g/m*3 9.7 C 0 km/h
1155 11-04-2007 00:16:02 9.7 C 6.91 g/m*3 9.7 C 0 km/h
1156 11-04-2007 00:21:02 9.6 C 6.96 g/m*3 9.6 C 0 km/h
1157 11-04-2007 00:26:02 9.5 C 6.92 g/m*3 9.5 C 0 km/h
1158 11-04-2007 00:31:02 9.6 C 6.96 g/m*3 9.6 C 0 km/h
1159 11-04-2007 00:36:02 9.6 C 6.96 g/m*3 9.6 C 0 km/h
1160 11-04-2007 00:41:02 9.6 C 6.96 g/m*3 9.6 C 0 km/h
1161 11-04-2007 00:46:02 9.6 C 6.96 g/m*3 9.6 C 0 km/h
1162 11-04-2007 00:51:02 9.6 C 6.96 g/m*3 9.6 C 0 km/h
1163 11-04-2007 00:56:02 9.5 C 6.92 g/m*3 9.5 C 0 km/h
1164 11-04-2007 01:01:01 9.5 C 6.92 g/m*3 9.5 C 0 km/h
1165 11-04-2007 01:06:01 9.3 C 6.92 g/m*3 9.3 C 0 km/h
1166 11-04-2007 01:11:01 9.3 C 6.92 g/m*3 9.3 C 0 km/h
1167 11-04-2007 01:16:02 9.3 C 6.92 g/m*3 9.3 C 0 km/h
1168 11-04-2007 01:21:02 9.3 C 6.92 g/m*3 9.3 C 0 km/h
1169 11-04-2007 01:26:02 9.4 C 6.96 g/m*3 9.4 C 0 km/h
1170 11-04-2007 01:31:01 9.5 C 7.01 g/m*3 9.5 C 0 km/h
1171 11-04-2007 01:36:02 9.4 C 6.87 g/m*3 9.4 C 0 km/h
1172 11-04-2007 01:41:02 9.4 C 6.87 g/m*3 9.4 C 0 km/h
1173 11-04-2007 01:46:01 9.4 C 6.96 g/m*3 9.4 C 0 km/h
1174 11-04-2007 01:51:01 9.6 C 6.96 g/m*3 9.6 C 0 km/h
1175 11-04-2007 01:56:01 9.6 C 6.96 g/m*3 9.6 C 0 km/h
Sensor: Nr:Datum:Temp:Abs-Feuchte:Windchill:Wind:
Aussen-T/F 1176 11-04-2007 02:01:01 9.6 C 6.96 g/m*3 9.6 C 0 km/h
1177 11-04-2007 02:06:01 9.6 C 6.96 g/m*3 9.6 C 0 km/h
1178 11-04-2007 02:11:01 9.6 C 6.96 g/m*3 9.6 C 0 km/h
1179 11-04-2007 02:16:02 9.3 C 6.92 g/m*3 9.3 C 0 km/h
1180 11-04-2007 02:21:02 9.4 C 6.96 g/m*3 9.4 C 0 km/h
1181 11-04-2007 02:26:02 9.5 C 6.92 g/m*3 9.5 C 0 km/h
1182 11-04-2007 02:31:02 9.7 C 7.01 g/m*3 9.7 C 0 km/h
1183 11-04-2007 02:36:02 9.6 C 6.96 g/m*3 9.6 C 0 km/h
1184 11-04-2007 02:41:02 9.5 C 6.92 g/m*3 9.5 C 0 km/h
1185 11-04-2007 02:46:02 9.1 C 6.74 g/m*3 9.1 C 0 km/h
1186 11-04-2007 02:51:02 9.1 C 6.74 g/m*3 9.1 C 0 km/h
1187 11-04-2007 02:56:02 9 C 6.7 g/m*3 9 C 0 km/h
1188 11-04-2007 03:01:02 8.7 C 6.75 g/m*3 8.7 C 0 km/h
1189 11-04-2007 03:06:02 8.7 C 6.75 g/m*3 8.7 C 0 km/h
1190 11-04-2007 03:11:02 8.3 C 6.74 g/m*3 8.3 C 0 km/h
1191 11-04-2007 03:16:02 8.2 C 6.78 g/m*3 8.2 C 0 km/h
1192 11-04-2007 03:21:02 8.1 C 6.74 g/m*3 8.1 C 0 km/h
1193 11-04-2007 03:26:02 8.1 C 6.74 g/m*3 8.1 C 0 km/h
1194 11-04-2007 03:31:02 7.9 C 6.82 g/m*3 7.9 C 0 km/h
1195 11-04-2007 03:36:02 7.9 C 6.82 g/m*3 7.9 C 0 km/h
1196 11-04-2007 03:41:02 7.7 C 6.73 g/m*3 7.7 C 0 km/h
1197 11-04-2007 03:46:02 7.7 C 6.73 g/m*3 7.7 C 0 km/h
1198 11-04-2007 03:51:02 7.5 C 6.64 g/m*3 7.5 C 0 km/h
1199 11-04-2007 03:56:02 7.5 C 6.64 g/m*3 7.5 C 0 km/h
1200 11-04-2007 04:01:02 7.4 C 6.6 g/m*3 7.4 C 0 km/h
Sensor: Nr:Datum:Temp:Abs-Feuchte:Windchill:Wind:
Aussen-T/F 1201 11-04-2007 04:06:02 7.3 C 6.64 g/m*3 7.3 C 0 km/h
1202 11-04-2007 04:11:02 7.2 C 6.59 g/m*3 7.2 C 0 km/h
1203 11-04-2007 04:16:02 7.1 C 6.55 g/m*3 7.1 C 0 km/h
1204 11-04-2007 04:21:02 7.1 C 6.55 g/m*3 7.1 C 0 km/h
1205 11-04-2007 04:26:02 7.2 C 6.67 g/m*3 7.2 C 0 km/h
1206 11-04-2007 04:31:02 7.2 C 6.67 g/m*3 7.2 C 0 km/h
1207 11-04-2007 04:36:02 7 C 6.59 g/m*3 7 C 0 km/h
1208 11-04-2007 04:41:02 6.9 C 6.62 g/m*3 6.9 C 0 km/h
1209 11-04-2007 04:46:01 6.9 C 6.62 g/m*3 6.9 C 0 km/h
1210 11-04-2007 04:51:02 6.8 C 6.65 g/m*3 6.8 C 0 km/h
1211 11-04-2007 04:56:02 6.8 C 6.65 g/m*3 6.8 C 0 km/h
1212 11-04-2007 05:01:02 6.7 C 6.61 g/m*3 6.7 C 0 km/h
1213 11-04-2007 05:06:02 6.7 C 6.61 g/m*3 6.7 C 0 km/h
1214 11-04-2007 05:11:02 6.5 C 6.52 g/m*3 6.5 C 0 km/h
1215 11-04-2007 05:16:01 6.4 C 6.48 g/m*3 6.4 C 0 km/h
1216 11-04-2007 05:21:01 6.3 C 6.44 g/m*3 6.3 C 0 km/h
1217 11-04-2007 05:26:01 6.2 C 6.4 g/m*3 6.2 C 0 km/h
1218 11-04-2007 05:31:01 6.1 C 6.36 g/m*3 6.1 C 0 km/h
1219 11-04-2007 05:36:02 6.1 C 6.36 g/m*3 6.1 C 0 km/h
1220 11-04-2007 05:41:02 6 C 6.31 g/m*3 6 C 0 km/h
1221 11-04-2007 05:46:02 6 C 6.31 g/m*3 6 C 0 km/h
1222 11-04-2007 05:51:02 5.9 C 6.35 g/m*3 5.9 C 0 km/h
1223 11-04-2007 05:56:02 5.9 C 6.35 g/m*3 5.9 C 0 km/h
1224 11-04-2007 06:01:01 5.8 C 6.38 g/m*3 5.8 C 0 km/h
1225 11-04-2007 06:06:02 5.8 C 6.38 g/m*3 5.8 C 0 km/h
Sensor: Nr:Datum:Temp:Abs-Feuchte:Windchill:Wind:
Aussen-T/F 1226 11-04-2007 06:11:02 5.8 C 6.38 g/m*3 5.8 C 0 km/h
1227 11-04-2007 06:16:01 5.7 C 6.33 g/m*3 5.7 C 0 km/h
1228 11-04-2007 06:21:01 5.6 C 6.29 g/m*3 5.6 C 0 km/h
1229 11-04-2007 06:26:01 5.6 C 6.22 g/m*3 5.6 C 0 km/h
1230 11-04-2007 06:31:01 5.4 C 6.14 g/m*3 5.4 C 0 km/h
1231 11-04-2007 06:36:01 5.3 C 6.17 g/m*3 5.3 C 0 km/h
1232 11-04-2007 06:41:01 5.3 C 6.17 g/m*3 5.3 C 0 km/h
1233 11-04-2007 06:46:02 5.1 C 6.09 g/m*3 5.1 C 0 km/h
1234 11-04-2007 06:51:02 5.1 C 6.09 g/m*3 5.1 C 0 km/h
1235 11-04-2007 06:56:02 5.1 C 6.09 g/m*3 5.1 C 0 km/h
1236 11-04-2007 07:01:01 5 C 6.05 g/m*3 5 C 0 km/h
1237 11-04-2007 07:06:01 5 C 6.05 g/m*3 5 C 0 km/h
1238 11-04-2007 07:11:01 5 C 6.05 g/m*3 5 C 0 km/h
1239 11-04-2007 07:16:01 5 C 6.05 g/m*3 5 C 0 km/h
1240 11-04-2007 07:21:01 5 C 6.05 g/m*3 5 C 0 km/h
1241 11-04-2007 07:26:01 4.9 C 6.08 g/m*3 4.9 C 0 km/h
1242 11-04-2007 07:31:02 4.9 C 6.08 g/m*3 4.9 C 0 km/h
1243 11-04-2007 07:36:02 5 C 6.12 g/m*3 5 C 0 km/h
1244 11-04-2007 07:41:02 5 C 6.12 g/m*3 5 C 0 km/h
1245 11-04-2007 07:46:01 5 C 6.12 g/m*3 5 C 0 km/h
1246 11-04-2007 07:51:01 5.1 C 6.16 g/m*3 5.1 C 0 km/h
1247 11-04-2007 07:56:01 5.2 C 6.2 g/m*3 5.2 C 0 km/h
1248 11-04-2007 08:01:01 5.1 C 6.16 g/m*3 5.1 C 0 km/h
1249 11-04-2007 08:06:01 5.3 C 6.24 g/m*3 5.3 C 0 km/h
1250 11-04-2007 08:11:01 5.4 C 6.28 g/m*3 5.4 C 0 km/h
Sensor: Nr:Datum:Temp:Abs-Feuchte:Windchill:Wind:
Aussen-T/F 1251 11-04-2007 08:16:01 5.5 C 6.32 g/m*3 5.5 C 0 km/h
1252 11-04-2007 08:21:01 5.5 C 6.32 g/m*3 5.5 C 0 km/h
1253 11-04-2007 08:26:01 5.6 C 6.36 g/m*3 5.6 C 0 km/h
1254 11-04-2007 08:31:02 5.6 C 6.36 g/m*3 5.6 C 0 km/h
1255 11-04-2007 08:36:02 5.6 C 6.29 g/m*3 5.6 C 0 km/h
1256 11-04-2007 08:41:02 5.6 C 6.29 g/m*3 5.6 C 0 km/h
1257 11-04-2007 09:00:01 5.9 C 6.49 g/m*3 5.9 C 0 km/h
1258 11-04-2007 09:15:02 6.3 C 6.59 g/m*3 6.3 C 0 km/h
1259 11-04-2007 09:30:02 6.5 C 6.67 g/m*3 6.5 C 0 km/h
1260 11-04-2007 09:45:02 6.9 C 6.77 g/m*3 6.9 C 0 km/h
1261 11-04-2007 10:00:02 7.5 C 6.88 g/m*3 7.5 C 0 km/h
1262 11-04-2007 10:15:02 8.3 C 7 g/m*3 8.3 C 0 km/h
1263 11-04-2007 10:30:02 9.2 C 7.05 g/m*3 9.2 C 0 km/h
1264 11-04-2007 10:50:01 10.3 C 7.18 g/m*3 10.3 C 0 km/h
1265 11-04-2007 11:05:01 11.4 C 7.08 g/m*3 11.4 C 0 km/h
1266 11-04-2007 11:20:01 13 C 7.03 g/m*3 13 C 0 km/h
1267 11-04-2007 11:35:01 14.2 C 6.35 g/m*3 14.2 C 0 km/h
1268 11-04-2007 11:50:01 14.9 C 6.25 g/m*3 14.9 C 0 km/h
1269 11-04-2007 12:05:01 15.6 C 5.98 g/m*3 15.6 C 0 km/h
1270 11-04-2007 12:20:01 16.1 C 6.03 g/m*3 16.1 C 0 km/h
1271 11-04-2007 12:35:01 16.1 C 5.62 g/m*3 16.1 C 0 km/h
1272 11-04-2007 12:50:01 16.3 C 5.83 g/m*3 16.3 C 0 km/h
1273 11-04-2007 13:05:01 17.3 C 5.89 g/m*3 17.3 C 0 km/h
1274 11-04-2007 13:20:01 17 C 5.64 g/m*3 17 C 0 km/h
1275 11-04-2007 13:35:01 17.6 C 5.55 g/m*3 17.6 C 0 km/h
Sensor: Nr:Datum:Temp:Abs-Feuchte:Windchill:Wind:
Aussen-T/F 1276 11-04-2007 13:50:01 18.1 C 5.41 g/m*3 18.1 C 0 km/h
1277 11-04-2007 14:05:01 18.9 C 5.67 g/m*3 18.9 C 0 km/h
1278 11-04-2007 14:20:01 19.7 C 5.43 g/m*3 19.7 C 0 km/h
1279 11-04-2007 14:35:02 20.8 C 5.43 g/m*3 20.8 C 0 km/h
1280 11-04-2007 14:50:02 20.8 C 5.25 g/m*3 20.8 C 0 km/h
1281 11-04-2007 15:05:02 21.9 C 5.21 g/m*3 21.9 C 0 km/h
1282 11-04-2007 15:20:02 22.6 C 5.22 g/m*3 22.6 C 0 km/h
1283 11-04-2007 15:35:02 23.3 C 5.02 g/m*3 23.3 C 0 km/h
1284 11-04-2007 15:50:02 22.3 C 4.94 g/m*3 22.3 C 0 km/h
1285 11-04-2007 16:05:02 22.9 C 5.11 g/m*3 22.9 C 0 km/h
1286 11-04-2007 16:20:02 23 C 4.73 g/m*3 23 C 0 km/h
1287 11-04-2007 16:35:02 23 C 5.14 g/m*3 23 C 0 km/h
1288 11-04-2007 16:50:02 24.8 C 5.01 g/m*3 24.8 C 0 km/h
1289 11-04-2007 17:05:02 24.7 C 4.98 g/m*3 24.7 C 0 km/h
1290 11-04-2007 17:20:02 25 C 4.6 g/m*3 25 C 0 km/h
1291 11-04-2007 17:35:02 24.7 C 4.75 g/m*3 24.7 C 0 km/h
1292 11-04-2007 17:50:02 24.1 C 4.59 g/m*3 24.1 C 0 km/h
1293 11-04-2007 18:05:02 23.5 C 4.86 g/m*3 23.5 C 0 km/h
1294 11-04-2007 18:20:02 23.1 C 4.96 g/m*3 23.1 C 0 km/h
1295 11-04-2007 18:35:02 23 C 5.14 g/m*3 23 C 0 km/h
1296 11-04-2007 18:50:02 22.5 C 5.19 g/m*3 22.5 C 0 km/h
1297 11-04-2007 19:05:02 22.6 C 5.22 g/m*3 22.6 C 0 km/h
1298 11-04-2007 19:20:03 22 C 5.43 g/m*3 22 C 0 km/h
1299 11-04-2007 19:35:03 20.6 C 5.73 g/m*3 20.6 C 0 km/h
1300 11-04-2007 19:50:03 20 C 5.88 g/m*3 20 C 0 km/h
Sensor: Nr:Datum:Temp:Abs-Feuchte:Windchill:Wind:
Aussen-T/F 1301 11-04-2007 20:05:03 19.5 C 6.21 g/m*3 19.5 C 0 km/h
1302 11-04-2007 20:20:03 18.4 C 6.29 g/m*3 18.4 C 0 km/h
1303 11-04-2007 20:35:03 17.7 C 6.34 g/m*3 17.7 C 0 km/h
1304 11-04-2007 20:50:03 16.9 C 6.33 g/m*3 16.9 C 0 km/h
1305 11-04-2007 21:05:03 16.3 C 6.38 g/m*3 16.3 C 0 km/h
1306 11-04-2007 21:20:03 16 C 6.4 g/m*3 16 C 0 km/h
1307 11-04-2007 21:35:03 15.4 C 6.31 g/m*3 15.4 C 0 km/h
1308 11-04-2007 21:50:03 15 C 6.15 g/m*3 15 C 0 km/h
1309 11-04-2007 22:05:03 14.8 C 6.21 g/m*3 14.8 C 0 km/h
1310 11-04-2007 22:20:03 14.4 C 6.18 g/m*3 14.4 C 0 km/h
1311 11-04-2007 22:35:03 14 C 6.27 g/m*3 14 C 0 km/h
1312 11-04-2007 22:50:03 13.7 C 6.28 g/m*3 13.7 C 0 km/h
1313 11-04-2007 23:05:03 13.5 C 6.43 g/m*3 13.5 C 0 km/h
1314 11-04-2007 23:20:03 13.2 C 6.43 g/m*3 13.2 C 0 km/h
1315 11-04-2007 23:35:03 12.8 C 6.5 g/m*3 12.8 C 0 km/h
1316 11-04-2007 23:50:04 12.4 C 6.45 g/m*3 12.4 C 0 km/h
1317 12-04-2007 00:05:04 12.2 C 6.47 g/m*3 12.2 C 0 km/h
1318 12-04-2007 00:20:04 12 C 6.5 g/m*3 12 C 0 km/h
1319 12-04-2007 00:35:04 11.9 C 6.67 g/m*3 11.9 C 0 km/h
1320 12-04-2007 00:50:04 11.3 C 6.53 g/m*3 11.3 C 0 km/h
1321 12-04-2007 01:05:04 11.3 C 6.53 g/m*3 11.3 C 0 km/h
1322 12-04-2007 01:20:04 11.1 C 6.45 g/m*3 11.1 C 0 km/h
1323 12-04-2007 01:35:04 11 C 6.51 g/m*3 11 C 0 km/h
1324 12-04-2007 01:50:04 11.2 C 6.59 g/m*3 11.2 C 0 km/h
1325 12-04-2007 02:05:04 11.2 C 6.49 g/m*3 11.2 C 0 km/h
Sensor: Nr:Datum:Temp:Abs-Feuchte:Windchill:Wind:
Aussen-T/F 1326 12-04-2007 02:20:04 11 C 6.41 g/m*3 11 C 0 km/h
1327 12-04-2007 02:35:04 10.7 C 6.48 g/m*3 10.7 C 0 km/h
1328 12-04-2007 02:50:04 10.6 C 6.54 g/m*3 10.6 C 0 km/h
1329 12-04-2007 03:05:04 10.4 C 6.46 g/m*3 10.4 C 0 km/h
1330 12-04-2007 03:20:04 10.1 C 6.43 g/m*3 10.1 C 0 km/h
1331 12-04-2007 03:35:04 9.9 C 6.44 g/m*3 9.9 C 0 km/h
1332 12-04-2007 03:50:04 9.5 C 6.37 g/m*3 9.5 C 0 km/h
1333 12-04-2007 04:05:04 9.3 C 6.47 g/m*3 9.3 C 0 km/h
1334 12-04-2007 04:20:05 9.2 C 6.52 g/m*3 9.2 C 0 km/h
1335 12-04-2007 04:35:05 8.9 C 6.48 g/m*3 8.9 C 0 km/h
1336 12-04-2007 04:50:05 8.5 C 6.4 g/m*3 8.5 C 0 km/h
1337 12-04-2007 05:05:05 8.3 C 6.41 g/m*3 8.3 C 0 km/h
1338 12-04-2007 05:20:05 8.1 C 6.41 g/m*3 8.1 C 0 km/h
1339 12-04-2007 05:35:05 8 C 6.45 g/m*3 8 C 0 km/h
1340 12-04-2007 05:50:05 7.8 C 6.53 g/m*3 7.8 C 0 km/h
1341 12-04-2007 06:05:05 7.8 C 6.45 g/m*3 7.8 C 0 km/h
1342 12-04-2007 06:20:05 7.6 C 6.36 g/m*3 7.6 C 0 km/h
1343 12-04-2007 06:35:05 7.5 C 6.4 g/m*3 7.5 C 0 km/h
1344 12-04-2007 06:50:05 7.2 C 6.36 g/m*3 7.2 C 0 km/h
1345 12-04-2007 07:05:05 7.2 C 6.44 g/m*3 7.2 C 0 km/h
1346 12-04-2007 07:20:05 7.2 C 6.44 g/m*3 7.2 C 0 km/h
1347 12-04-2007 07:35:05 7.2 C 6.44 g/m*3 7.2 C 0 km/h
1348 12-04-2007 07:50:05 7.3 C 6.48 g/m*3 7.3 C 0 km/h
1349 12-04-2007 08:05:05 7.5 C 6.56 g/m*3 7.5 C 0 km/h
1350 12-04-2007 08:20:05 7.6 C 6.53 g/m*3 7.6 C 0 km/h
Sensor: Nr:Datum:Temp:Abs-Feuchte:Windchill:Wind:
Aussen-T/F 1351 12-04-2007 08:35:05 8 C 6.61 g/m*3 8 C 0 km/h
1352 12-04-2007 08:50:05 8.4 C 6.87 g/m*3 8.4 C 0 km/h
1353 12-04-2007 09:05:06 9 C 6.96 g/m*3 9 C 0 km/h
1354 12-04-2007 09:20:06 9.4 C 6.96 g/m*3 9.4 C 0 km/h
1355 12-04-2007 09:35:06 10.2 C 7.04 g/m*3 10.2 C 0 km/h
1356 12-04-2007 09:50:06 11 C 7.11 g/m*3 11 C 0 km/h
1357 12-04-2007 10:05:06 12 C 7.14 g/m*3 12 C 0 km/h
1358 12-04-2007 10:20:06 13 C 6.8 g/m*3 13 C 0 km/h
1359 12-04-2007 10:35:06 13.7 C 6.75 g/m*3 13.7 C 0 km/h
1360 12-04-2007 10:50:06 14.4 C 6.55 g/m*3 14.4 C 0 km/h
1361 12-04-2007 11:05:06 15.2 C 6.62 g/m*3 15.2 C 0 km/h
1362 12-04-2007 11:20:06 16 C 6.54 g/m*3 16 C 0 km/h
1363 12-04-2007 11:35:06 16.6 C 6.5 g/m*3 16.6 C 0 km/h
1364 12-04-2007 11:50:06 17.5 C 6.56 g/m*3 17.5 C 0 km/h
1365 12-04-2007 12:05:06 18.2 C 6.53 g/m*3 18.2 C 0 km/h
1366 12-04-2007 12:20:06 19.1 C 6.56 g/m*3 19.1 C 0 km/h
1367 12-04-2007 12:35:06 19.6 C 6.75 g/m*3 19.6 C 0 km/h
1368 12-04-2007 12:50:06 20.2 C 6.64 g/m*3 20.2 C 0 km/h
1369 12-04-2007 13:05:06 20.7 C 6.66 g/m*3 20.7 C 0 km/h
1370 12-04-2007 13:20:06 21.4 C 6.56 g/m*3 21.4 C 0 km/h
1371 12-04-2007 13:35:06 21.9 C 6.56 g/m*3 21.9 C 0 km/h
1372 12-04-2007 13:50:07 22.9 C 6.54 g/m*3 22.9 C 0 km/h
1373 12-04-2007 14:05:07 23.4 C 6.31 g/m*3 23.4 C 0 km/h
1374 12-04-2007 14:20:07 24 C 6.09 g/m*3 24 C 0 km/h
1375 12-04-2007 14:35:07 24.7 C 6.34 g/m*3 24.7 C 0 km/h
Sensor: Nr:Datum:Temp:Abs-Feuchte:Windchill:Wind:
Aussen-T/F 1376 12-04-2007 14:50:07 25.3 C 6.09 g/m*3 25.3 C 0 km/h
1377 12-04-2007 15:05:07 25.9 C 6.05 g/m*3 25.9 C 0 km/h
1378 12-04-2007 15:20:07 26.3 C 5.94 g/m*3 26.3 C 0 km/h
1379 12-04-2007 15:35:07 26.7 C 5.82 g/m*3 26.7 C 0 km/h
1380 12-04-2007 15:50:07 26.7 C 5.57 g/m*3 26.7 C 0 km/h
1381 12-04-2007 16:05:07 27.5 C 5.56 g/m*3 27.5 C 0 km/h
1382 12-04-2007 16:20:07 27.6 C 5.59 g/m*3 27.6 C 0 km/h
1383 12-04-2007 16:35:07 27.7 C 5.62 g/m*3 27.7 C 0 km/h
1384 12-04-2007 16:50:07 27.7 C 5.62 g/m*3 27.7 C 0 km/h
1385 12-04-2007 17:05:07 27.9 C 5.68 g/m*3 27.9 C 0 km/h
1386 12-04-2007 17:20:07 27.5 C 5.82 g/m*3 27.5 C 0 km/h
1387 12-04-2007 17:35:07 28.2 C 5.77 g/m*3 28.2 C 0 km/h
1388 12-04-2007 17:50:07 28.4 C 5.84 g/m*3 28.4 C 0 km/h
1389 12-04-2007 18:05:07 28.6 C 5.62 g/m*3 28.6 C 0 km/h
1390 12-04-2007 18:20:08 28.5 C 5.59 g/m*3 28.5 C 0 km/h
1391 12-04-2007 18:35:08 28 C 5.44 g/m*3 28 C 0 km/h
1392 12-04-2007 18:50:08 28.2 C 5.77 g/m*3 28.2 C 0 km/h
1393 12-04-2007 19:05:08 27.9 C 5.68 g/m*3 27.9 C 0 km/h
1394 12-04-2007 19:20:08 27.3 C 5.49 g/m*3 27.3 C 0 km/h
1395 12-04-2007 19:35:08 26.9 C 6.14 g/m*3 26.9 C 0 km/h
1396 12-04-2007 19:50:08 25.3 C 6.09 g/m*3 25.3 C 0 km/h
1397 12-04-2007 20:05:08 24 C 6.09 g/m*3 24 C 0 km/h
1398 12-04-2007 20:20:08 22.5 C 6.19 g/m*3 22.5 C 0 km/h
1399 12-04-2007 20:35:08 21.8 C 6.52 g/m*3 21.8 C 0 km/h
1400 12-04-2007 20:50:08 21 C 6.59 g/m*3 21 C 0 km/h
Sensor: Nr:Datum:Temp:Abs-Feuchte:Windchill:Wind:
Aussen-T/F 1401 12-04-2007 21:05:08 20.2 C 6.82 g/m*3 20.2 C 0 km/h
1402 12-04-2007 21:20:08 19.8 C 6.83 g/m*3 19.8 C 0 km/h
1403 12-04-2007 21:35:08 19.5 C 6.88 g/m*3 19.5 C 0 km/h
1404 12-04-2007 21:50:08 18.9 C 6.97 g/m*3 18.9 C 0 km/h
1405 12-04-2007 22:05:08 18.6 C 7.16 g/m*3 18.6 C 0 km/h
1406 12-04-2007 22:20:08 18.2 C 7.15 g/m*3 18.2 C 0 km/h
1407 12-04-2007 22:35:08 17.8 C 7.29 g/m*3 17.8 C 0 km/h
1408 12-04-2007 22:50:09 17.5 C 7.16 g/m*3 17.5 C 0 km/h
1409 12-04-2007 23:05:09 17.2 C 7.18 g/m*3 17.2 C 0 km/h
1410 12-04-2007 23:20:09 16.7 C 7.25 g/m*3 16.7 C 0 km/h
1411 12-04-2007 23:35:09 16.2 C 7.31 g/m*3 16.2 C 0 km/h
1412 12-04-2007 23:50:09 15.9 C 7.45 g/m*3 15.9 C 0 km/h
1413 13-04-2007 00:05:09 16 C 7.49 g/m*3 16 C 0 km/h
1414 13-04-2007 00:20:09 15.8 C 7.54 g/m*3 15.8 C 0 km/h
1415 13-04-2007 00:35:09 15.4 C 7.49 g/m*3 15.4 C 0 km/h
1416 13-04-2007 00:50:09 15.2 C 7.53 g/m*3 15.2 C 0 km/h
1417 13-04-2007 01:05:09 15.2 C 7.53 g/m*3 15.2 C 0 km/h
1418 13-04-2007 01:20:09 15.1 C 7.61 g/m*3 15.1 C 0 km/h
1419 13-04-2007 01:35:09 15 C 7.57 g/m*3 15 C 0 km/h
1420 13-04-2007 01:50:09 14.6 C 7.63 g/m*3 14.6 C 0 km/h
1421 13-04-2007 02:05:09 14.3 C 7.62 g/m*3 14.3 C 0 km/h
1422 13-04-2007 02:20:09 13.8 C 7.63 g/m*3 13.8 C 0 km/h
1423 13-04-2007 02:35:09 13.7 C 7.58 g/m*3 13.7 C 0 km/h
1424 13-04-2007 02:50:09 13.4 C 7.67 g/m*3 13.4 C 0 km/h
1425 13-04-2007 03:05:09 13 C 7.48 g/m*3 13 C 0 km/h
Sensor: Nr:Datum:Temp:Abs-Feuchte:Windchill:Wind:
Aussen-T/F 1426 13-04-2007 03:20:09 12.6 C 7.52 g/m*3 12.6 C 0 km/h
1427 13-04-2007 03:35:10 12.2 C 7.55 g/m*3 12.2 C 0 km/h
1428 13-04-2007 03:50:10 11.9 C 7.52 g/m*3 11.9 C 0 km/h
1429 13-04-2007 04:05:10 11.7 C 7.53 g/m*3 11.7 C 0 km/h
1430 13-04-2007 04:20:10 11.5 C 7.44 g/m*3 11.5 C 0 km/h
1431 13-04-2007 04:35:10 11.6 C 7.69 g/m*3 11.6 C 0 km/h
1432 13-04-2007 04:50:10 11.3 C 7.65 g/m*3 11.3 C 0 km/h
1433 13-04-2007 05:05:10 11.1 C 7.45 g/m*3 11.1 C 0 km/h
1434 13-04-2007 05:20:10 11.1 C 7.55 g/m*3 11.1 C 0 km/h
1435 13-04-2007 05:35:10 10.8 C 7.51 g/m*3 10.8 C 0 km/h
1436 13-04-2007 05:50:10 10.7 C 7.46 g/m*3 10.7 C 0 km/h
1437 13-04-2007 06:05:10 10.5 C 7.47 g/m*3 10.5 C 0 km/h
1438 13-04-2007 06:20:10 10.4 C 7.52 g/m*3 10.4 C 0 km/h
1439 13-04-2007 06:35:10 10.3 C 7.47 g/m*3 10.3 C 0 km/h
1440 13-04-2007 06:50:10 10.3 C 7.47 g/m*3 10.3 C 0 km/h
1441 13-04-2007 07:05:10 10.2 C 7.52 g/m*3 10.2 C 0 km/h
1442 13-04-2007 07:20:10 10.2 C 7.52 g/m*3 10.2 C 0 km/h
1443 13-04-2007 07:35:10 10.3 C 7.57 g/m*3 10.3 C 0 km/h
1444 13-04-2007 07:50:10 10.5 C 7.57 g/m*3 10.5 C 0 km/h
1445 13-04-2007 08:05:11 10.5 C 7.57 g/m*3 10.5 C 0 km/h
1446 13-04-2007 08:20:11 10.8 C 7.71 g/m*3 10.8 C 0 km/h
1447 13-04-2007 08:35:11 11.1 C 7.76 g/m*3 11.1 C 0 km/h
1448 13-04-2007 08:50:11 11.4 C 7.8 g/m*3 11.4 C 0 km/h
1449 13-04-2007 09:05:11 12 C 7.99 g/m*3 12 C 0 km/h
1450 13-04-2007 09:20:11 12.7 C 8.01 g/m*3 12.7 C 0 km/h
Sensor: Nr:Datum:Temp:Abs-Feuchte:Windchill:Wind:
Aussen-T/F 1451 13-04-2007 09:35:11 13 C 7.83 g/m*3 13 C 0 km/h
1452 13-04-2007 09:50:11 13.5 C 7.95 g/m*3 13.5 C 0 km/h
1453 13-04-2007 10:05:11 14 C 8.08 g/m*3 14 C 0 km/h
1454 13-04-2007 10:20:11 14.8 C 8.23 g/m*3 14.8 C 0 km/h
1455 13-04-2007 10:35:11 15.6 C 8.25 g/m*3 15.6 C 0 km/h
1456 13-04-2007 10:50:11 16.4 C 8.1 g/m*3 16.4 C 0 km/h
1457 13-04-2007 11:05:11 17.2 C 7.76 g/m*3 17.2 C 0 km/h
1458 13-04-2007 11:20:11 18.2 C 7.77 g/m*3 18.2 C 0 km/h
1459 13-04-2007 11:35:11 19.1 C 7.7 g/m*3 19.1 C 0 km/h
1460 13-04-2007 11:50:11 19.2 C 7.09 g/m*3 19.2 C 0 km/h
1461 13-04-2007 12:05:11 20 C 7.09 g/m*3 20 C 0 km/h
1462 13-04-2007 12:20:11 20.4 C 7.08 g/m*3 20.4 C 0 km/h
1463 13-04-2007 12:35:11 21.2 C 7.04 g/m*3 21.2 C 0 km/h
1464 13-04-2007 12:50:12 21.9 C 7.14 g/m*3 21.9 C 0 km/h
1465 13-04-2007 13:05:12 22.1 C 7.03 g/m*3 22.1 C 0 km/h
1466 13-04-2007 13:20:12 22.5 C 7.19 g/m*3 22.5 C 0 km/h
1467 13-04-2007 13:35:12 23.8 C 6.88 g/m*3 23.8 C 0 km/h
1468 13-04-2007 13:50:12 24.5 C 6.71 g/m*3 24.5 C 0 km/h
1469 13-04-2007 14:05:12 24.8 C 6.37 g/m*3 24.8 C 0 km/h
1470 13-04-2007 14:20:12 25.7 C 6.7 g/m*3 25.7 C 0 km/h
1471 13-04-2007 14:35:12 25.7 C 6.22 g/m*3 25.7 C 0 km/h
1472 13-04-2007 14:50:12 26.6 C 6.29 g/m*3 26.6 C 0 km/h
1473 13-04-2007 15:05:12 27.7 C 5.88 g/m*3 27.7 C 0 km/h
1474 13-04-2007 15:20:12 28.7 C 5.65 g/m*3 28.7 C 0 km/h
1475 13-04-2007 15:35:12 29 C 5.74 g/m*3 29 C 0 km/h
Sensor: Nr:Datum:Temp:Abs-Feuchte:Windchill:Wind:
Aussen-T/F 1476 13-04-2007 15:50:12 29.5 C 5.9 g/m*3 29.5 C 0 km/h
1477 13-04-2007 16:05:12 30.2 C 6.13 g/m*3 30.2 C 0 km/h
1478 13-04-2007 16:20:12 30.3 C 6.16 g/m*3 30.3 C 0 km/h
1479 13-04-2007 16:35:12 30.4 C 6.2 g/m*3 30.4 C 0 km/h
1480 13-04-2007 16:50:12 30.9 C 6.37 g/m*3 30.9 C 0 km/h
1481 13-04-2007 17:05:12 30.7 C 6.3 g/m*3 30.7 C 0 km/h
1482 13-04-2007 17:20:13 30.8 C 6.33 g/m*3 30.8 C 0 km/h
1483 13-04-2007 17:35:13 30.8 C 6.33 g/m*3 30.8 C 0 km/h
1484 13-04-2007 17:50:13 30.6 C 6.26 g/m*3 30.6 C 0 km/h
1485 13-04-2007 18:05:13 30.4 C 6.2 g/m*3 30.4 C 0 km/h
1486 13-04-2007 18:20:13 30.3 C 6.16 g/m*3 30.3 C 0 km/h
1487 13-04-2007 18:35:13 29.3 C 5.84 g/m*3 29.3 C 0 km/h
1488 13-04-2007 18:50:13 29.4 C 5.87 g/m*3 29.4 C 0 km/h
1489 13-04-2007 19:05:13 29 C 5.74 g/m*3 29 C 0 km/h
1490 13-04-2007 19:20:13 27.9 C 5.95 g/m*3 27.9 C 0 km/h
1491 13-04-2007 19:35:13 26.8 C 6.11 g/m*3 26.8 C 0 km/h
1492 13-04-2007 19:50:13 25.7 C 6.22 g/m*3 25.7 C 0 km/h
1493 13-04-2007 20:05:13 24.6 C 6.3 g/m*3 24.6 C 0 km/h
1494 13-04-2007 20:20:13 23.6 C 6.59 g/m*3 23.6 C 0 km/h
1495 13-04-2007 20:35:13 22.9 C 6.74 g/m*3 22.9 C 0 km/h
1496 13-04-2007 20:50:13 22.5 C 6.79 g/m*3 22.5 C 0 km/h
1497 13-04-2007 21:05:13 22.2 C 6.87 g/m*3 22.2 C 0 km/h
1498 13-04-2007 21:20:13 22.1 C 6.83 g/m*3 22.1 C 0 km/h
1499 13-04-2007 21:35:13 21.8 C 7.1 g/m*3 21.8 C 0 km/h
1500 13-04-2007 21:50:14 21.4 C 7.12 g/m*3 21.4 C 0 km/h
Sensor: Nr:Datum:Temp:Abs-Feuchte:Windchill:Wind:
Aussen-T/F 1501 13-04-2007 22:05:14 21.2 C 7.04 g/m*3 21.2 C 0 km/h
1502 13-04-2007 22:20:14 21.1 C 7.19 g/m*3 21.1 C 0 km/h
1503 13-04-2007 22:35:14 20.7 C 7.38 g/m*3 20.7 C 0 km/h
1504 13-04-2007 22:50:14 20.5 C 7.3 g/m*3 20.5 C 0 km/h
1505 13-04-2007 23:05:14 20.2 C 7.34 g/m*3 20.2 C 0 km/h
1506 13-04-2007 23:20:14 20.1 C 7.3 g/m*3 20.1 C 0 km/h
1507 13-04-2007 23:35:14 19.9 C 7.22 g/m*3 19.9 C 0 km/h
1508 13-04-2007 23:50:14 19.4 C 7.17 g/m*3 19.4 C 0 km/h
1509 14-04-2007 00:05:14 19.3 C 7.3 g/m*3 19.3 C 0 km/h
1510 14-04-2007 00:20:14 19.2 C 7.26 g/m*3 19.2 C 0 km/h
1511 14-04-2007 00:35:14 18.8 C 7.41 g/m*3 18.8 C 0 km/h
1512 14-04-2007 00:50:14 18.3 C 7.35 g/m*3 18.3 C 0 km/h
1513 14-04-2007 01:05:14 17.8 C 7.29 g/m*3 17.8 C 0 km/h
1514 14-04-2007 01:20:14 17.7 C 7.39 g/m*3 17.7 C 0 km/h
1515 14-04-2007 01:35:14 17.5 C 7.31 g/m*3 17.5 C 0 km/h
1516 14-04-2007 01:50:14 17.2 C 7.32 g/m*3 17.2 C 0 km/h
1517 14-04-2007 02:05:14 17 C 7.38 g/m*3 17 C 0 km/h
1518 14-04-2007 02:20:15 16.6 C 7.35 g/m*3 16.6 C 0 km/h
1519 14-04-2007 02:35:15 16.3 C 7.35 g/m*3 16.3 C 0 km/h
1520 14-04-2007 02:50:15 16.2 C 7.31 g/m*3 16.2 C 0 km/h
1521 14-04-2007 03:05:15 15.9 C 7.45 g/m*3 15.9 C 0 km/h
1522 14-04-2007 03:20:15 15.4 C 7.36 g/m*3 15.4 C 0 km/h
1523 14-04-2007 03:35:15 15 C 7.44 g/m*3 15 C 0 km/h
1524 14-04-2007 03:50:15 14.5 C 7.46 g/m*3 14.5 C 0 km/h
1525 14-04-2007 04:05:15 14.4 C 7.54 g/m*3 14.4 C 0 km/h
Sensor: Nr:Datum:Temp:Abs-Feuchte:Windchill:Wind:
Aussen-T/F 1526 14-04-2007 04:20:15 14.1 C 7.52 g/m*3 14.1 C 0 km/h
1527 14-04-2007 04:35:15 13.9 C 7.55 g/m*3 13.9 C 0 km/h
1528 14-04-2007 04:50:15 13.8 C 7.63 g/m*3 13.8 C 0 km/h
1529 14-04-2007 05:05:15 13.3 C 7.63 g/m*3 13.3 C 0 km/h
1530 14-04-2007 05:20:15 13 C 7.48 g/m*3 13 C 0 km/h
1531 14-04-2007 05:35:15 12.7 C 7.57 g/m*3 12.7 C 0 km/h
1532 14-04-2007 05:50:15 12.5 C 7.7 g/m*3 12.5 C 0 km/h
1533 14-04-2007 06:05:15 12.3 C 7.71 g/m*3 12.3 C 0 km/h
1534 14-04-2007 06:20:15 12 C 7.67 g/m*3 12 C 0 km/h
1535 14-04-2007 06:35:15 11.8 C 7.58 g/m*3 11.8 C 0 km/h
1536 14-04-2007 06:50:16 11.7 C 7.53 g/m*3 11.7 C 0 km/h
1537 14-04-2007 07:05:16 11.7 C 7.53 g/m*3 11.7 C 0 km/h
1538 14-04-2007 07:20:16 11.7 C 7.53 g/m*3 11.7 C 0 km/h
1539 14-04-2007 07:35:16 11.7 C 7.64 g/m*3 11.7 C 0 km/h
1540 14-04-2007 07:50:16 11.8 C 7.68 g/m*3 11.8 C 0 km/h
1541 14-04-2007 08:05:16 12.1 C 7.72 g/m*3 12.1 C 0 km/h
1542 14-04-2007 08:20:16 12.2 C 7.77 g/m*3 12.2 C 0 km/h
1543 14-04-2007 08:35:16 12.4 C 7.87 g/m*3 12.4 C 0 km/h
1544 14-04-2007 08:50:16 12.5 C 7.81 g/m*3 12.5 C 0 km/h
1545 14-04-2007 09:05:16 12.8 C 7.84 g/m*3 12.8 C 0 km/h
1546 14-04-2007 09:20:16 13.2 C 7.92 g/m*3 13.2 C 0 km/h
1547 14-04-2007 09:35:16 13.9 C 8.15 g/m*3 13.9 C 0 km/h
1548 14-04-2007 09:50:16 14.7 C 8.18 g/m*3 14.7 C 0 km/h
1549 14-04-2007 10:05:16 15.6 C 8.11 g/m*3 15.6 C 0 km/h
1550 14-04-2007 10:20:16 16.8 C 8.01 g/m*3 16.8 C 0 km/h
Sensor: Nr:Datum:Temp:Abs-Feuchte:Windchill:Wind:
Aussen-T/F 1551 14-04-2007 10:35:16 17.7 C 8.15 g/m*3 17.7 C 0 km/h
1552 14-04-2007 10:50:16 18.6 C 8.12 g/m*3 18.6 C 0 km/h
1553 14-04-2007 11:05:16 19.5 C 7.55 g/m*3 19.5 C 0 km/h
1554 14-04-2007 11:20:17 20.5 C 7.12 g/m*3 20.5 C 0 km/h
1555 14-04-2007 11:35:17 21.5 C 6.98 g/m*3 21.5 C 0 km/h
1556 14-04-2007 11:50:17 22.1 C 6.64 g/m*3 22.1 C 0 km/h
1557 14-04-2007 12:05:17 22.9 C 6.74 g/m*3 22.9 C 0 km/h
1558 14-04-2007 12:20:17 23.4 C 6.52 g/m*3 23.4 C 0 km/h
1559 14-04-2007 12:35:17 24.1 C 6.56 g/m*3 24.1 C 0 km/h
1560 14-04-2007 12:50:17 24.6 C 6.3 g/m*3 24.6 C 0 km/h
1561 14-04-2007 13:05:17 25 C 6.22 g/m*3 25 C 0 km/h
1562 14-04-2007 13:20:17 25.3 C 6.09 g/m*3 25.3 C 0 km/h
1563 14-04-2007 13:35:17 26.4 C 6.22 g/m*3 26.4 C 0 km/h
1564 14-04-2007 13:50:17 26.8 C 6.11 g/m*3 26.8 C 0 km/h
1565 14-04-2007 14:05:17 27.7 C 6.15 g/m*3 27.7 C 0 km/h
1566 14-04-2007 14:20:17 28.3 C 6.08 g/m*3 28.3 C 0 km/h
1567 14-04-2007 14:35:17 29 C 6.03 g/m*3 29 C 0 km/h
1568 14-04-2007 14:50:17 29.7 C 5.97 g/m*3 29.7 C 0 km/h
1569 14-04-2007 15:05:17 30.3 C 6.16 g/m*3 30.3 C 0 km/h
1570 14-04-2007 15:20:17 30.7 C 6.3 g/m*3 30.7 C 0 km/h
1571 14-04-2007 15:35:17 31 C 6.4 g/m*3 31 C 0 km/h
1572 14-04-2007 15:50:18 31 C 6.4 g/m*3 31 C 0 km/h
1573 14-04-2007 16:05:18 31.1 C 6.43 g/m*3 31.1 C 0 km/h
1574 14-04-2007 16:20:18 31.4 C 6.54 g/m*3 31.4 C 0 km/h
1575 14-04-2007 16:35:18 31.4 C 6.54 g/m*3 31.4 C 0 km/h
Sensor: Nr:Datum:Temp:Abs-Feuchte:Windchill:Wind:
Aussen-T/F 1576 14-04-2007 16:50:18 32 C 6.75 g/m*3 32 C 0 km/h
1577 14-04-2007 17:05:18 32.1 C 6.79 g/m*3 32.1 C 0 km/h
1578 14-04-2007 17:20:18 31.8 C 6.68 g/m*3 31.8 C 0 km/h
1579 14-04-2007 17:35:18 31.9 C 6.72 g/m*3 31.9 C 0 km/h
1580 14-04-2007 17:50:18 32 C 6.75 g/m*3 32 C 0 km/h
1581 14-04-2007 18:05:18 31.7 C 6.64 g/m*3 31.7 C 0 km/h
1582 14-04-2007 18:20:18 32 C 6.75 g/m*3 32 C 0 km/h
1583 14-04-2007 18:35:18 31.8 C 6.68 g/m*3 31.8 C 0 km/h
1584 14-04-2007 18:50:18 31.5 C 6.57 g/m*3 31.5 C 0 km/h
1585 14-04-2007 19:05:18 31.2 C 6.47 g/m*3 31.2 C 0 km/h
1586 14-04-2007 19:20:18 30.8 C 6.33 g/m*3 30.8 C 0 km/h
1587 14-04-2007 19:35:18 30.6 C 6.26 g/m*3 30.6 C 0 km/h
1588 14-04-2007 19:50:18 30 C 6.06 g/m*3 30 C 0 km/h
1589 14-04-2007 20:05:19 27.4 C 5.26 g/m*3 27.4 C 0 km/h
1590 14-04-2007 20:20:19 25.9 C 4.84 g/m*3 25.9 C 0 km/h
1591 14-04-2007 20:35:19 24.6 C 4.5 g/m*3 24.6 C 0 km/h
1592 14-04-2007 20:50:19 24.2 C 4.4 g/m*3 24.2 C 0 km/h
1593 14-04-2007 21:05:19 23.5 C 4.44 g/m*3 23.5 C 0 km/h
1594 14-04-2007 21:20:19 23 C 4.32 g/m*3 23 C 0 km/h
1595 14-04-2007 21:35:19 22.8 C 5.08 g/m*3 22.8 C 0 km/h
1596 14-04-2007 21:50:19 22.6 C 5.42 g/m*3 22.6 C 0 km/h
1597 14-04-2007 22:05:19 22.3 C 5.92 g/m*3 22.3 C 0 km/h
1598 14-04-2007 22:20:19 22.1 C 6.44 g/m*3 22.1 C 0 km/h
1599 14-04-2007 22:35:19 21.3 C 6.71 g/m*3 21.3 C 0 km/h
1600 14-04-2007 22:50:19 20.9 C 7.1 g/m*3 20.9 C 0 km/h
Sensor: Nr:Datum:Temp:Abs-Feuchte:Windchill:Wind:
Aussen-T/F 1601 14-04-2007 23:05:19 20.4 C 7.08 g/m*3 20.4 C 0 km/h
1602 14-04-2007 23:20:19 20.1 C 7.13 g/m*3 20.1 C 0 km/h
1603 14-04-2007 23:35:19 19.9 C 7.22 g/m*3 19.9 C 0 km/h
1604 14-04-2007 23:50:19 19.7 C 7.13 g/m*3 19.7 C 0 km/h
1605 15-04-2007 00:05:19 19.6 C 7.09 g/m*3 19.6 C 0 km/h
1606 15-04-2007 00:20:19 19.3 C 6.97 g/m*3 19.3 C 0 km/h
1607 15-04-2007 00:35:20 19 C 6.84 g/m*3 19 C 0 km/h
1608 15-04-2007 00:50:20 18.7 C 6.88 g/m*3 18.7 C 0 km/h
1609 15-04-2007 01:05:20 18.5 C 6.8 g/m*3 18.5 C 0 km/h
1610 15-04-2007 01:20:20 18.2 C 6.68 g/m*3 18.2 C 0 km/h
1611 15-04-2007 01:35:20 18 C 6.6 g/m*3 18 C 0 km/h
1612 15-04-2007 01:50:20 17.8 C 6.83 g/m*3 17.8 C 0 km/h
1613 15-04-2007 02:05:20 17.4 C 6.82 g/m*3 17.4 C 0 km/h
1614 15-04-2007 02:20:20 17 C 6.95 g/m*3 17 C 0 km/h
1615 15-04-2007 02:35:20 16.7 C 6.82 g/m*3 16.7 C 0 km/h
1616 15-04-2007 02:50:20 16.4 C 6.84 g/m*3 16.4 C 0 km/h
1617 15-04-2007 03:05:20 15.9 C 6.91 g/m*3 15.9 C 0 km/h
1618 15-04-2007 03:20:20 15.1 C 6.97 g/m*3 15.1 C 0 km/h
1619 15-04-2007 03:35:20 14.6 C 7.13 g/m*3 14.6 C 0 km/h
1620 15-04-2007 03:50:20 14 C 7 g/m*3 14 C 0 km/h
1621 15-04-2007 04:05:20 13.8 C 7.15 g/m*3 13.8 C 0 km/h
1622 15-04-2007 04:20:20 13.5 C 7.25 g/m*3 13.5 C 0 km/h
1623 15-04-2007 04:35:20 13.1 C 7.07 g/m*3 13.1 C 0 km/h
1624 15-04-2007 04:50:20 13 C 7.14 g/m*3 13 C 0 km/h
1625 15-04-2007 05:05:20 12.7 C 7.12 g/m*3 12.7 C 0 km/h
Sensor: Nr:Datum:Temp:Abs-Feuchte:Windchill:Wind:
Aussen-T/F 1626 15-04-2007 05:20:20 12.5 C 7.15 g/m*3 12.5 C 0 km/h
1627 15-04-2007 05:35:21 12.1 C 7.08 g/m*3 12.1 C 0 km/h
1628 15-04-2007 05:50:21 11.7 C 7.22 g/m*3 11.7 C 0 km/h
1629 15-04-2007 06:05:21 11.5 C 7.13 g/m*3 11.5 C 0 km/h
1630 15-04-2007 06:20:21 11.3 C 7.14 g/m*3 11.3 C 0 km/h
1631 15-04-2007 06:35:21 11.1 C 7.05 g/m*3 11.1 C 0 km/h
1632 15-04-2007 06:50:21 10.7 C 7.07 g/m*3 10.7 C 0 km/h
1633 15-04-2007 07:05:21 10.7 C 7.17 g/m*3 10.7 C 0 km/h
1634 15-04-2007 07:20:21 10.6 C 7.22 g/m*3 10.6 C 0 km/h
1635 15-04-2007 07:35:21 10.6 C 7.22 g/m*3 10.6 C 0 km/h
1636 15-04-2007 07:50:21 10.7 C 7.17 g/m*3 10.7 C 0 km/h
1637 15-04-2007 08:05:21 10.8 C 7.22 g/m*3 10.8 C 0 km/h
1638 15-04-2007 08:20:21 10.9 C 7.26 g/m*3 10.9 C 0 km/h
1639 15-04-2007 08:35:21 11.2 C 7.3 g/m*3 11.2 C 0 km/h
1640 15-04-2007 08:50:21 11.7 C 7.43 g/m*3 11.7 C 0 km/h
1641 15-04-2007 09:05:21 12 C 7.35 g/m*3 12 C 0 km/h
1642 15-04-2007 09:20:21 12.5 C 7.59 g/m*3 12.5 C 0 km/h
1643 15-04-2007 09:35:21 13.3 C 7.74 g/m*3 13.3 C 0 km/h
1644 15-04-2007 09:50:21 14.5 C 7.84 g/m*3 14.5 C 0 km/h
1645 15-04-2007 10:05:21 15.4 C 7.62 g/m*3 15.4 C 0 km/h
1646 15-04-2007 10:20:22 16.4 C 7.68 g/m*3 16.4 C 0 km/h
1647 15-04-2007 10:35:22 17.4 C 7.85 g/m*3 17.4 C 0 km/h
1648 15-04-2007 10:50:22 18.3 C 7.82 g/m*3 18.3 C 0 km/h
1649 15-04-2007 11:05:22 19.7 C 6.79 g/m*3 19.7 C 0 km/h
1650 15-04-2007 11:20:22 20.8 C 6.52 g/m*3 20.8 C 0 km/h
Sensor: Nr:Datum:Temp:Abs-Feuchte:Windchill:Wind:
Aussen-T/F 1651 15-04-2007 11:35:22 21.7 C 6.49 g/m*3 21.7 C 0 km/h
1652 15-04-2007 11:50:22 22.3 C 6.12 g/m*3 22.3 C 0 km/h
1653 15-04-2007 12:05:22 23.2 C 5.61 g/m*3 23.2 C 0 km/h
1654 15-04-2007 12:20:22 23.9 C 5.62 g/m*3 23.9 C 0 km/h
1655 15-04-2007 12:35:22 24.4 C 4.67 g/m*3 24.4 C 0 km/h
1656 15-04-2007 12:50:22 24.9 C 4.81 g/m*3 24.9 C 0 km/h
1657 15-04-2007 13:05:22 25.5 C 4.97 g/m*3 25.5 C 0 km/h
1658 15-04-2007 13:20:22 26 C 4.87 g/m*3 26 C 0 km/h
1659 15-04-2007 13:35:22 26.5 C 5.01 g/m*3 26.5 C 0 km/h
1660 15-04-2007 13:50:22 27.3 C 5.23 g/m*3 27.3 C 0 km/h
1661 15-04-2007 14:05:22 28 C 5.44 g/m*3 28 C 0 km/h
1662 15-04-2007 14:20:22 28.8 C 5.68 g/m*3 28.8 C 0 km/h
1663 15-04-2007 14:35:22 29.4 C 5.87 g/m*3 29.4 C 0 km/h
1664 15-04-2007 14:50:23 30 C 6.06 g/m*3 30 C 0 km/h
1665 15-04-2007 15:05:23 30.1 C 6.1 g/m*3 30.1 C 0 km/h
1666 15-04-2007 15:20:23 30.5 C 6.23 g/m*3 30.5 C 0 km/h
1667 15-04-2007 15:35:23 30.8 C 6.33 g/m*3 30.8 C 0 km/h
1668 15-04-2007 15:50:23 31.1 C 6.43 g/m*3 31.1 C 0 km/h
1669 15-04-2007 16:05:23 31.2 C 6.47 g/m*3 31.2 C 0 km/h
1670 15-04-2007 16:20:23 31.7 C 6.64 g/m*3 31.7 C 0 km/h
1671 15-04-2007 16:35:23 31.5 C 6.57 g/m*3 31.5 C 0 km/h
1672 15-04-2007 16:50:23 32.1 C 6.79 g/m*3 32.1 C 0 km/h
1673 15-04-2007 17:05:23 32 C 6.75 g/m*3 32 C 0 km/h
1674 15-04-2007 17:20:23 32.1 C 6.79 g/m*3 32.1 C 0 km/h
1675 15-04-2007 17:35:23 32 C 6.75 g/m*3 32 C 0 km/h
Sensor: Nr:Datum:Temp:Abs-Feuchte:Windchill:Wind:
Aussen-T/F 1676 15-04-2007 17:50:23 32 C 6.75 g/m*3 32 C 0 km/h
1677 15-04-2007 18:05:23 32 C 6.75 g/m*3 32 C 0 km/h
1678 15-04-2007 18:20:23 31.8 C 6.68 g/m*3 31.8 C 0 km/h
1679 15-04-2007 18:35:23 31.8 C 6.68 g/m*3 31.8 C 0 km/h
1680 15-04-2007 18:50:23 31.7 C 6.64 g/m*3 31.7 C 0 km/h
1681 15-04-2007 19:05:24 31.5 C 6.57 g/m*3 31.5 C 0 km/h
1682 15-04-2007 19:20:24 31.3 C 6.5 g/m*3 31.3 C 0 km/h
1683 15-04-2007 19:35:24 30.7 C 6.3 g/m*3 30.7 C 0 km/h
1684 15-04-2007 19:50:24 29.9 C 6.03 g/m*3 29.9 C 0 km/h
1685 15-04-2007 20:05:24 28 C 5.44 g/m*3 28 C 0 km/h
1686 15-04-2007 20:20:24 26.1 C 4.9 g/m*3 26.1 C 0 km/h
1687 15-04-2007 20:35:24 24.6 C 4.5 g/m*3 24.6 C 0 km/h
1688 15-04-2007 20:50:24 23.6 C 4.25 g/m*3 23.6 C 0 km/h
1689 15-04-2007 21:05:24 22.8 C 4.06 g/m*3 22.8 C 0 km/h
1690 15-04-2007 21:20:24 22.2 C 4.32 g/m*3 22.2 C 0 km/h
1691 15-04-2007 21:35:24 21.6 C 4.55 g/m*3 21.6 C 0 km/h
1692 15-04-2007 21:50:24 21 C 4.58 g/m*3 21 C 0 km/h
1693 15-04-2007 22:05:24 20.5 C 4.63 g/m*3 20.5 C 0 km/h
1694 15-04-2007 22:20:24 19.9 C 5.15 g/m*3 19.9 C 0 km/h
1695 15-04-2007 22:35:24 19.5 C 5.2 g/m*3 19.5 C 0 km/h
1696 15-04-2007 22:50:24 18.7 C 5.12 g/m*3 18.7 C 0 km/h
1697 15-04-2007 23:05:24 18.3 C 5.32 g/m*3 18.3 C 0 km/h
1698 15-04-2007 23:20:24 17.2 C 5.56 g/m*3 17.2 C 0 km/h
1699 15-04-2007 23:35:24 16.8 C 5.86 g/m*3 16.8 C 0 km/h
1700 15-04-2007 23:50:24 16.4 C 5.58 g/m*3 16.4 C 0 km/h
Sensor: Nr:Datum:Temp:Abs-Feuchte:Windchill:Wind:
Aussen-T/F 1701 16-04-2007 00:05:25 16.3 C 5.41 g/m*3 16.3 C 0 km/h
1702 16-04-2007 00:20:25 16 C 5.45 g/m*3 16 C 0 km/h
1703 16-04-2007 00:35:25 15.6 C 5.59 g/m*3 15.6 C 0 km/h
1704 16-04-2007 00:50:25 14.7 C 5.67 g/m*3 14.7 C 0 km/h
1705 16-04-2007 01:05:25 14.6 C 5.63 g/m*3 14.6 C 0 km/h
1706 16-04-2007 01:20:25 14.3 C 5.41 g/m*3 14.3 C 0 km/h
1707 16-04-2007 01:35:25 14.2 C 5.37 g/m*3 14.2 C 0 km/h
1708 16-04-2007 01:50:25 14.1 C 5.46 g/m*3 14.1 C 0 km/h
1709 16-04-2007 02:05:25 13.7 C 5.45 g/m*3 13.7 C 0 km/h
1710 16-04-2007 02:20:25 13.5 C 5.5 g/m*3 13.5 C 0 km/h
1711 16-04-2007 02:35:25 13.2 C 5.63 g/m*3 13.2 C 0 km/h
1712 16-04-2007 02:50:25 13 C 5.67 g/m*3 13 C 0 km/h
1713 16-04-2007 03:05:25 12.8 C 5.82 g/m*3 12.8 C 0 km/h
1714 16-04-2007 03:20:25 12.4 C 5.68 g/m*3 12.4 C 0 km/h
1715 16-04-2007 03:35:25 12.2 C 5.83 g/m*3 12.2 C 0 km/h
1716 16-04-2007 03:50:25 11.9 C 5.93 g/m*3 11.9 C 0 km/h
1717 16-04-2007 04:05:25 11.8 C 5.79 g/m*3 11.8 C 0 km/h
1718 16-04-2007 04:20:26 11.4 C 5.85 g/m*3 11.4 C 0 km/h
1719 16-04-2007 04:35:26 11.1 C 5.74 g/m*3 11.1 C 0 km/h
1720 16-04-2007 04:50:26 10.9 C 5.87 g/m*3 10.9 C 0 km/h
1721 16-04-2007 05:05:26 10.8 C 5.93 g/m*3 10.8 C 0 km/h
1722 16-04-2007 05:20:26 10.5 C 5.92 g/m*3 10.5 C 0 km/h
1723 16-04-2007 05:35:26 10.2 C 5.9 g/m*3 10.2 C 0 km/h
1724 16-04-2007 05:50:26 10.1 C 5.96 g/m*3 10.1 C 0 km/h
1725 16-04-2007 06:05:26 9.8 C 6.03 g/m*3 9.8 C 0 km/h
Sensor: Nr:Datum:Temp:Abs-Feuchte:Windchill:Wind:
Aussen-T/F 1726 16-04-2007 06:20:26 9.8 C 6.03 g/m*3 9.8 C 0 km/h
1727 16-04-2007 06:35:26 9.4 C 5.97 g/m*3 9.4 C 0 km/h
1728 16-04-2007 06:50:26 9.2 C 5.89 g/m*3 9.2 C 0 km/h
1729 16-04-2007 07:05:26 9.2 C 5.98 g/m*3 9.2 C 0 km/h
1730 16-04-2007 07:20:26 9.1 C 5.94 g/m*3 9.1 C 0 km/h
1731 16-04-2007 07:35:26 9.2 C 5.98 g/m*3 9.2 C 0 km/h
1732 16-04-2007 07:50:26 9.3 C 6.11 g/m*3 9.3 C 0 km/h
1733 16-04-2007 08:05:26 9.3 C 6.11 g/m*3 9.3 C 0 km/h
1734 16-04-2007 08:20:26 9.6 C 6.23 g/m*3 9.6 C 0 km/h
1735 16-04-2007 08:35:26 10 C 6.3 g/m*3 10 C 0 km/h
1736 16-04-2007 08:50:27 10.3 C 6.32 g/m*3 10.3 C 0 km/h
1737 16-04-2007 09:05:27 10.8 C 6.42 g/m*3 10.8 C 0 km/h
1738 16-04-2007 09:20:27 11.3 C 6.43 g/m*3 11.3 C 0 km/h
1739 16-04-2007 09:35:27 12.1 C 6.54 g/m*3 12.1 C 0 km/h
1740 16-04-2007 09:50:27 13 C 6.46 g/m*3 13 C 0 km/h
1741 16-04-2007 10:05:27 13.9 C 6.59 g/m*3 13.9 C 0 km/h
1742 16-04-2007 10:20:27 14.7 C 6.67 g/m*3 14.7 C 0 km/h
1743 16-04-2007 10:35:27 16 C 6.54 g/m*3 16 C 0 km/h
1744 16-04-2007 10:50:27 16.7 C 6.68 g/m*3 16.7 C 0 km/h
1745 16-04-2007 11:05:27 17.9 C 6.87 g/m*3 17.9 C 0 km/h
1746 16-04-2007 11:20:27 18.9 C 7.13 g/m*3 18.9 C 0 km/h
1747 16-04-2007 11:35:27 20.2 C 6.99 g/m*3 20.2 C 0 km/h
1748 16-04-2007 11:50:27 21.2 C 6.49 g/m*3 21.2 C 0 km/h
1749 16-04-2007 12:05:27 21.5 C 6.03 g/m*3 21.5 C 0 km/h
1750 16-04-2007 12:20:27 21.9 C 5.98 g/m*3 21.9 C 0 km/h
Sensor: Nr:Datum:Temp:Abs-Feuchte:Windchill:Wind:
Aussen-T/F 1751 16-04-2007 12:35:27 22.7 C 5.86 g/m*3 22.7 C 0 km/h
1752 16-04-2007 12:50:27 23.5 C 6.13 g/m*3 23.5 C 0 km/h
1753 16-04-2007 13:05:27 24.2 C 5.5 g/m*3 24.2 C 0 km/h
1754 16-04-2007 13:20:27 24.7 C 5.21 g/m*3 24.7 C 0 km/h
1755 16-04-2007 13:35:28 25.7 C 4.79 g/m*3 25.7 C 0 km/h
1756 16-04-2007 13:50:28 26.6 C 5.03 g/m*3 26.6 C 0 km/h
1757 16-04-2007 14:05:28 27.4 C 5.26 g/m*3 27.4 C 0 km/h
1758 16-04-2007 14:20:28 27.8 C 5.38 g/m*3 27.8 C 0 km/h
1759 16-04-2007 14:35:28 28.9 C 5.71 g/m*3 28.9 C 0 km/h
1760 16-04-2007 14:50:28 29.5 C 5.9 g/m*3 29.5 C 0 km/h
1761 16-04-2007 15:05:28 29.7 C 5.97 g/m*3 29.7 C 0 km/h
1762 16-04-2007 15:20:28 29.4 C 5.87 g/m*3 29.4 C 0 km/h
1763 16-04-2007 15:35:28 30.3 C 6.16 g/m*3 30.3 C 0 km/h
1764 16-04-2007 15:50:28 30.4 C 6.2 g/m*3 30.4 C 0 km/h
1765 16-04-2007 16:05:28 31 C 6.4 g/m*3 31 C 0 km/h
1766 16-04-2007 16:20:28 31 C 6.4 g/m*3 31 C 0 km/h
1767 16-04-2007 16:35:28 31.7 C 6.64 g/m*3 31.7 C 0 km/h
1768 16-04-2007 16:50:28 31.9 C 6.72 g/m*3 31.9 C 0 km/h
1769 16-04-2007 17:05:17 31.5 C 6.57 g/m*3 31.5 C 0 km/h
1770 16-04-2007 17:20:43 32 C 6.75 g/m*3 32 C 0 km/h
1771 16-04-2007 17:35:01 31.5 C 6.57 g/m*3 31.5 C 0 km/h
1772 16-04-2007 17:50:27 31.3 C 6.5 g/m*3 31.3 C 0 km/h
1773 16-04-2007 18:05:42 31.1 C 6.43 g/m*3 31.1 C 0 km/h
1774 16-04-2007 18:20:10 31.2 C 6.47 g/m*3 31.2 C 0 km/h
1775 16-04-2007 18:35:01 31.2 C 6.47 g/m*3 31.2 C 0 km/h
Sensor: Nr:Datum:Temp:Abs-Feuchte:Windchill:Wind:
Aussen-T/F 1776 16-04-2007 18:50:02 31.2 C 6.47 g/m*3 31.2 C 0 km/h
1777 16-04-2007 19:05:01 30.8 C 6.33 g/m*3 30.8 C 0 km/h
1778 16-04-2007 19:20:01 30.9 C 6.37 g/m*3 30.9 C 0 km/h
1779 16-04-2007 19:35:01 30.3 C 6.16 g/m*3 30.3 C 0 km/h
1780 16-04-2007 19:50:01 29.1 C 5.78 g/m*3 29.1 C 0 km/h
1781 16-04-2007 20:05:02 27.4 C 5.26 g/m*3 27.4 C 0 km/h
1782 16-04-2007 20:20:01 25.2 C 4.66 g/m*3 25.2 C 0 km/h
1783 16-04-2007 20:35:01 24 C 4.35 g/m*3 24 C 0 km/h
1784 16-04-2007 20:50:01 23 C 4.73 g/m*3 23 C 0 km/h
1785 16-04-2007 21:05:02 22.3 C 4.94 g/m*3 22.3 C 0 km/h
1786 16-04-2007 21:20:02 21.7 C 5.15 g/m*3 21.7 C 0 km/h
1787 16-04-2007 21:35:02 21.3 C 5.22 g/m*3 21.3 C 0 km/h
1788 16-04-2007 21:50:02 20.8 C 5.43 g/m*3 20.8 C 0 km/h
1789 16-04-2007 22:05:02 20.4 C 5.31 g/m*3 20.4 C 0 km/h
1790 16-04-2007 22:20:02 19.8 C 5.47 g/m*3 19.8 C 0 km/h
1791 16-04-2007 22:35:02 19.1 C 5.57 g/m*3 19.1 C 0 km/h
1792 16-04-2007 22:50:02 18.7 C 5.44 g/m*3 18.7 C 0 km/h
1793 16-04-2007 23:05:03 18.4 C 5.5 g/m*3 18.4 C 0 km/h
1794 16-04-2007 23:20:02 17.7 C 5.73 g/m*3 17.7 C 0 km/h
1795 16-04-2007 23:35:03 17.2 C 5.86 g/m*3 17.2 C 0 km/h
1796 16-04-2007 23:50:02 16.9 C 5.75 g/m*3 16.9 C 0 km/h
1797 17-04-2007 00:05:03 16.7 C 5.83 g/m*3 16.7 C 0 km/h
1798 17-04-2007 00:20:04 16.4 C 5.72 g/m*3 16.4 C 0 km/h
1799 17-04-2007 00:35:03 16 C 5.86 g/m*3 16 C 0 km/h
1800 17-04-2007 00:50:03 15.7 C 6.02 g/m*3 15.7 C 0 km/h
Sensor: Nr:Datum:Temp:Abs-Feuchte:Windchill:Wind:
Aussen-T/F 1801 17-04-2007 01:05:03 15.1 C 6.19 g/m*3 15.1 C 0 km/h
1802 17-04-2007 01:20:03 14.9 C 6.25 g/m*3 14.9 C 0 km/h
1803 17-04-2007 01:35:03 14.7 C 6.17 g/m*3 14.7 C 0 km/h
1804 17-04-2007 01:50:02 14.3 C 6.14 g/m*3 14.3 C 0 km/h
1805 17-04-2007 02:05:02 13.9 C 6.35 g/m*3 13.9 C 0 km/h
1806 17-04-2007 02:20:03 13.3 C 6.59 g/m*3 13.3 C 0 km/h
1807 17-04-2007 02:35:03 13.2 C 6.54 g/m*3 13.2 C 0 km/h
1808 17-04-2007 02:51:04 13.1 C 6.39 g/m*3 13.1 C 0 km/h
1809 17-04-2007 03:06:04 13 C 6.35 g/m*3 13 C 0 km/h
1810 17-04-2007 03:21:03 12.8 C 6.38 g/m*3 12.8 C 0 km/h
1811 17-04-2007 03:36:03 12.7 C 6.35 g/m*3 12.7 C 0 km/h
1812 17-04-2007 03:51:03 12.4 C 6.34 g/m*3 12.4 C 0 km/h
1813 17-04-2007 04:06:03 12.3 C 6.41 g/m*3 12.3 C 0 km/h
1814 17-04-2007 04:21:02 12 C 6.39 g/m*3 12 C 0 km/h
1815 17-04-2007 04:36:03 11.6 C 6.55 g/m*3 11.6 C 0 km/h
1816 17-04-2007 04:51:03 11.1 C 6.45 g/m*3 11.1 C 0 km/h
1817 17-04-2007 05:06:03 11 C 6.51 g/m*3 11 C 0 km/h
1818 17-04-2007 05:21:02 10.9 C 6.56 g/m*3 10.9 C 0 km/h
1819 17-04-2007 05:36:02 10.7 C 6.48 g/m*3 10.7 C 0 km/h
1820 17-04-2007 05:51:02 10.2 C 6.47 g/m*3 10.2 C 0 km/h
1821 17-04-2007 06:06:03 10.2 C 6.47 g/m*3 10.2 C 0 km/h
1822 17-04-2007 06:21:02 10.1 C 6.43 g/m*3 10.1 C 0 km/h
1823 17-04-2007 06:36:04 10 C 6.48 g/m*3 10 C 0 km/h
1824 17-04-2007 06:51:02 9.9 C 6.72 g/m*3 9.9 C 0 km/h
1825 17-04-2007 07:06:03 11 C 7.71 g/m*3 11 C 0 km/h
Sensor: Nr:Datum:Temp:Abs-Feuchte:Windchill:Wind:
Aussen-T/F 1826 17-04-2007 07:21:02 11.2 C 7.4 g/m*3 11.2 C 0 km/h
1827 17-04-2007 07:36:02 10.7 C 6.97 g/m*3 10.7 C 0 km/h
1828 17-04-2007 07:51:02 10.5 C 6.89 g/m*3 10.5 C 0 km/h
1829 17-04-2007 08:06:03 11 C 7.21 g/m*3 11 C 0 km/h
1830 17-04-2007 08:21:01 11.6 C 7.38 g/m*3 11.6 C 0 km/h
1831 17-04-2007 08:36:02 12.2 C 7.45 g/m*3 12.2 C 0 km/h
1832 17-04-2007 08:51:01 12.7 C 7.68 g/m*3 12.7 C 0 km/h
1833 17-04-2007 09:06:06 12.8 C 7.62 g/m*3 12.8 C 0 km/h
1834 17-04-2007 09:21:02 12.8 C 7.5 g/m*3 12.8 C 0 km/h
1835 17-04-2007 09:36:02 12.9 C 7.44 g/m*3 12.9 C 0 km/h
1836 17-04-2007 09:51:02 13 C 7.37 g/m*3 13 C 0 km/h
1837 17-04-2007 10:06:02 13.2 C 7.46 g/m*3 13.2 C 0 km/h
1838 17-04-2007 10:21:02 13.5 C 7.49 g/m*3 13.5 C 0 km/h
1839 17-04-2007 10:36:02 13.8 C 7.39 g/m*3 13.8 C 0 km/h
1840 17-04-2007 10:51:02 14.2 C 7.45 g/m*3 14.2 C 0 km/h
1841 17-04-2007 11:06:03 14 C 7.24 g/m*3 14 C 0 km/h
1842 17-04-2007 11:21:02 13.5 C 7.49 g/m*3 13.5 C 0 km/h
1843 17-04-2007 11:36:02 13.5 C 7.6 g/m*3 13.5 C 0 km/h
1844 17-04-2007 11:51:02 13.4 C 7.56 g/m*3 13.4 C 0 km/h
1845 17-04-2007 12:06:02 13.8 C 7.63 g/m*3 13.8 C 0 km/h
1846 17-04-2007 12:21:02 13.8 C 7.51 g/m*3 13.8 C 0 km/h
1847 17-04-2007 12:36:02 14.1 C 7.52 g/m*3 14.1 C 0 km/h
1848 17-04-2007 12:51:04 15 C 7.57 g/m*3 15 C 0 km/h
1849 17-04-2007 13:06:13 16 C 7.49 g/m*3 16 C 0 km/h
1850 17-04-2007 13:21:02 16.8 C 7.72 g/m*3 16.8 C 0 km/h
Sensor: Nr:Datum:Temp:Abs-Feuchte:Windchill:Wind:
Aussen-T/F 1851 17-04-2007 13:36:02 17.6 C 7.5 g/m*3 17.6 C 0 km/h
1852 17-04-2007 13:51:02 17.9 C 7.48 g/m*3 17.9 C 0 km/h
1853 17-04-2007 14:06:02 19.2 C 7.59 g/m*3 19.2 C 0 km/h
1854 17-04-2007 14:21:02 19.5 C 7.22 g/m*3 19.5 C 0 km/h
1855 17-04-2007 14:36:02 19.8 C 7.34 g/m*3 19.8 C 0 km/h
1856 17-04-2007 14:51:02 19.3 C 7.13 g/m*3 19.3 C 0 km/h
1857 17-04-2007 15:06:02 19.8 C 7.34 g/m*3 19.8 C 0 km/h
1858 17-04-2007 15:21:02 20.1 C 7.3 g/m*3 20.1 C 0 km/h
1859 17-04-2007 15:36:02 20.4 C 7.25 g/m*3 20.4 C 0 km/h
1860 17-04-2007 15:51:01 20.4 C 7.25 g/m*3 20.4 C 0 km/h
1861 17-04-2007 16:06:02 20.1 C 7.13 g/m*3 20.1 C 0 km/h
1862 17-04-2007 16:21:02 20.2 C 7.17 g/m*3 20.2 C 0 km/h
1863 17-04-2007 16:36:02 20.7 C 7.02 g/m*3 20.7 C 0 km/h
1864 17-04-2007 16:51:02 20.4 C 7.08 g/m*3 20.4 C 0 km/h
1865 17-04-2007 17:06:02 21.6 C 7.02 g/m*3 21.6 C 0 km/h
1866 17-04-2007 17:21:02 19.9 C 6.7 g/m*3 19.9 C 0 km/h
1867 17-04-2007 17:36:01 19.4 C 6.84 g/m*3 19.4 C 0 km/h
1868 17-04-2007 17:51:02 19.2 C 6.76 g/m*3 19.2 C 0 km/h
1869 17-04-2007 18:06:02 19 C 6.68 g/m*3 19 C 0 km/h
1870 17-04-2007 18:21:02 18.7 C 6.56 g/m*3 18.7 C 0 km/h
1871 17-04-2007 18:36:03 18.7 C 6.56 g/m*3 18.7 C 0 km/h
1872 17-04-2007 18:51:02 18.7 C 6.56 g/m*3 18.7 C 0 km/h
1873 17-04-2007 19:06:03 18.1 C 6.33 g/m*3 18.1 C 0 km/h
1874 17-04-2007 19:21:02 17.4 C 6.08 g/m*3 17.4 C 0 km/h
1875 17-04-2007 19:36:02 17 C 5.64 g/m*3 17 C 0 km/h
Sensor: Nr:Datum:Temp:Abs-Feuchte:Windchill:Wind:
Aussen-T/F 1876 17-04-2007 19:51:02 16.6 C 5.23 g/m*3 16.6 C 0 km/h
1877 17-04-2007 20:06:02 16.1 C 4.93 g/m*3 16.1 C 0 km/h
1878 17-04-2007 20:21:01 15.8 C 5.12 g/m*3 15.8 C 0 km/h
1879 17-04-2007 20:36:01 15.5 C 5.16 g/m*3 15.5 C 0 km/h
1880 17-04-2007 20:51:02 15.1 C 5.16 g/m*3 15.1 C 0 km/h
1881 17-04-2007 21:06:01 14.8 C 5.07 g/m*3 14.8 C 0 km/h
1882 17-04-2007 21:21:02 14.3 C 4.67 g/m*3 14.3 C 0 km/h
1883 17-04-2007 21:36:02 14 C 4.22 g/m*3 14 C 0 km/h
1884 17-04-2007 21:51:02 13.6 C 4.35 g/m*3 13.6 C 0 km/h
1885 17-04-2007 22:06:02 13.2 C 4.36 g/m*3 13.2 C 0 km/h
1886 17-04-2007 22:21:02 12.9 C 4.51 g/m*3 12.9 C 0 km/h
1887 17-04-2007 22:36:02 12.5 C 4.29 g/m*3 12.5 C 0 km/h
1888 17-04-2007 22:51:01 12.2 C 3.88 g/m*3 12.2 C 0 km/h
1889 17-04-2007 23:06:02 12.1 C 3.75 g/m*3 12.1 C 0 km/h
1890 17-04-2007 23:21:02 11.8 C 3.89 g/m*3 11.8 C 0 km/h
1891 17-04-2007 23:36:01 11.4 C 4 g/m*3 11.4 C 0 km/h
1892 17-04-2007 23:51:02 11.1 C 4.03 g/m*3 11.1 C 0 km/h
1893 18-04-2007 00:06:02 10.9 C 4.18 g/m*3 10.9 C 0 km/h
1894 18-04-2007 00:21:03 10.6 C 4.2 g/m*3 10.6 C 0 km/h
1895 18-04-2007 00:36:02 10.2 C 4.28 g/m*3 10.2 C 0 km/h
1896 18-04-2007 00:51:02 10.1 C 4.35 g/m*3 10.1 C 0 km/h
1897 18-04-2007 01:06:02 10 C 4.42 g/m*3 10 C 0 km/h
1898 18-04-2007 01:21:02 10 C 4.42 g/m*3 10 C 0 km/h
1899 18-04-2007 01:36:02 9.8 C 4.55 g/m*3 9.8 C 0 km/h
1900 18-04-2007 01:51:02 9.7 C 4.61 g/m*3 9.7 C 0 km/h
Sensor: Nr:Datum:Temp:Abs-Feuchte:Windchill:Wind:
Aussen-T/F 1901 18-04-2007 02:06:02 9.5 C 4.64 g/m*3 9.5 C 0 km/h
1902 18-04-2007 02:21:03 9.3 C 4.76 g/m*3 9.3 C 0 km/h
1903 18-04-2007 02:36:03 9.2 C 4.82 g/m*3 9.2 C 0 km/h
1904 18-04-2007 02:52:03 9 C 4.85 g/m*3 9 C 0 km/h
1905 18-04-2007 03:07:03 8.8 C 4.87 g/m*3 8.8 C 0 km/h
1906 18-04-2007 03:22:03 8.8 C 4.96 g/m*3 8.8 C 0 km/h
1907 18-04-2007 03:37:03 8.6 C 4.98 g/m*3 8.6 C 0 km/h
1908 18-04-2007 03:52:03 8.4 C 5.01 g/m*3 8.4 C 0 km/h
1909 18-04-2007 04:07:03 8.3 C 5.14 g/m*3 8.3 C 0 km/h
1910 18-04-2007 04:22:02 8.2 C 5.19 g/m*3 8.2 C 0 km/h
1911 18-04-2007 04:37:03 8 C 5.29 g/m*3 8 C 0 km/h
1912 18-04-2007 04:52:02 7.8 C 5.47 g/m*3 7.8 C 0 km/h
1913 18-04-2007 05:07:02 7.6 C 5.48 g/m*3 7.6 C 0 km/h
1914 18-04-2007 05:22:02 7.6 C 5.64 g/m*3 7.6 C 0 km/h
1915 18-04-2007 05:37:02 7.5 C 5.68 g/m*3 7.5 C 0 km/h
1916 18-04-2007 05:52:02 7.9 C 5.83 g/m*3 7.9 C 0 km/h
1917 18-04-2007 06:07:02 8 C 5.79 g/m*3 8 C 0 km/h
1918 18-04-2007 06:22:02 7.8 C 5.88 g/m*3 7.8 C 0 km/h
1919 18-04-2007 06:37:03 7.5 C 5.84 g/m*3 7.5 C 0 km/h
1920 18-04-2007 06:52:02 7.1 C 5.77 g/m*3 7.1 C 0 km/h
1921 18-04-2007 07:07:03 7.2 C 5.97 g/m*3 7.2 C 0 km/h
1922 18-04-2007 07:22:01 7.4 C 6.04 g/m*3 7.4 C 0 km/h
1923 18-04-2007 07:37:02 7.4 C 6.04 g/m*3 7.4 C 0 km/h
1924 18-04-2007 07:52:01 7.6 C 6.04 g/m*3 7.6 C 0 km/h
1925 18-04-2007 08:07:02 7.9 C 6.08 g/m*3 7.9 C 0 km/h
Sensor: Nr:Datum:Temp:Abs-Feuchte:Windchill:Wind:
Aussen-T/F 1926 18-04-2007 08:22:01 8.1 C 5.99 g/m*3 8.1 C 0 km/h
1927 18-04-2007 08:37:01 8.4 C 6.02 g/m*3 8.4 C 0 km/h
1928 18-04-2007 08:52:01 8.8 C 6.09 g/m*3 8.8 C 0 km/h
1929 18-04-2007 09:07:01 9.5 C 6.01 g/m*3 9.5 C 0 km/h
1930 18-04-2007 09:22:01 9.7 C 5.81 g/m*3 9.7 C 0 km/h
1931 18-04-2007 09:37:01 9.9 C 5.7 g/m*3 9.9 C 0 km/h
1932 18-04-2007 09:52:02 9.9 C 5.7 g/m*3 9.9 C 0 km/h
1933 18-04-2007 10:07:02 10.4 C 5.4 g/m*3 10.4 C 0 km/h
1934 18-04-2007 10:22:03 10.8 C 5.04 g/m*3 10.8 C 0 km/h
1935 18-04-2007 10:37:02 11.3 C 5.1 g/m*3 11.3 C 0 km/h
1936 18-04-2007 10:52:02 11.7 C 5.02 g/m*3 11.7 C 0 km/h
1937 18-04-2007 11:07:01 11.8 C 4.74 g/m*3 11.8 C 0 km/h
1938 18-04-2007 11:22:01 11.1 C 4.63 g/m*3 11.1 C 0 km/h
1939 18-04-2007 11:37:02 11.8 C 4.32 g/m*3 11.8 C 0 km/h
1940 18-04-2007 11:52:02 13.1 C 4.22 g/m*3 13.1 C 0 km/h
1941 18-04-2007 12:07:02 12.5 C 4.07 g/m*3 12.5 C 0 km/h
1942 18-04-2007 12:22:02 13.5 C 4.09 g/m*3 13.5 C 0 km/h
1943 18-04-2007 12:37:02 12.8 C 4.26 g/m*3 12.8 C 0 km/h
1944 18-04-2007 12:52:02 13.6 C 4.12 g/m*3 13.6 C 0 km/h
1945 18-04-2007 13:07:02 14.3 C 4.05 g/m*3 14.3 C 0 km/h
1946 18-04-2007 13:22:03 13.6 C 3.77 g/m*3 13.6 C 0 km/h
1947 18-04-2007 13:37:02 14.4 C 3.71 g/m*3 14.4 C 0 km/h
1948 18-04-2007 13:52:02 13.5 C 3.63 g/m*3 13.5 C 0 km/h
1949 18-04-2007 14:07:02 14.7 C 3.78 g/m*3 14.7 C 0 km/h
1950 18-04-2007 14:22:01 15.2 C 3.5 g/m*3 15.2 C 0 km/h
Sensor: Nr:Datum:Temp:Abs-Feuchte:Windchill:Wind:
Aussen-T/F 1951 18-04-2007 14:37:02 15.6 C 3.59 g/m*3 15.6 C 0 km/h
1952 18-04-2007 14:52:01 13.9 C 3.36 g/m*3 13.9 C 0 km/h
1953 18-04-2007 15:07:02 14.6 C 3.63 g/m*3 14.6 C 0 km/h
1954 18-04-2007 15:22:02 14.6 C 3.38 g/m*3 14.6 C 0 km/h
1955 18-04-2007 15:37:01 15.1 C 3.23 g/m*3 15.1 C 0 km/h
1956 18-04-2007 15:52:02 15.3 C 3.13 g/m*3 15.3 C 0 km/h
1957 18-04-2007 16:07:01 15.4 C 3.02 g/m*3 15.4 C 0 km/h
1958 18-04-2007 16:22:01 15.3 C 3.26 g/m*3 15.3 C 0 km/h
1959 18-04-2007 16:37:02 14.8 C 3.55 g/m*3 14.8 C 0 km/h
1960 18-04-2007 16:52:02 17.5 C 3.28 g/m*3 17.5 C 0 km/h
1961 18-04-2007 17:07:02 16.5 C 3.09 g/m*3 16.5 C 0 km/h
1962 18-04-2007 17:22:02 15.6 C 3.46 g/m*3 15.6 C 0 km/h
1963 18-04-2007 17:37:03 14.7 C 3.4 g/m*3 14.7 C 0 km/h
1964 18-04-2007 17:52:02 14.8 C 3.55 g/m*3 14.8 C 0 km/h
1965 18-04-2007 18:07:02 15.1 C 3.35 g/m*3 15.1 C 0 km/h
1966 18-04-2007 18:22:02 14.8 C 3.55 g/m*3 14.8 C 0 km/h
1967 18-04-2007 18:37:02 13.9 C 3.6 g/m*3 13.9 C 0 km/h
1968 18-04-2007 18:52:02 14.7 C 3.9 g/m*3 14.7 C 0 km/h
1969 18-04-2007 19:07:01 13.9 C 3.6 g/m*3 13.9 C 0 km/h
1970 18-04-2007 19:22:01 14.4 C 3.71 g/m*3 14.4 C 0 km/h
1971 18-04-2007 19:37:02 14.4 C 3.71 g/m*3 14.4 C 0 km/h
1972 18-04-2007 19:52:02 14.1 C 3.76 g/m*3 14.1 C 0 km/h
1973 18-04-2007 20:07:03 13.5 C 3.98 g/m*3 13.5 C 0 km/h
1974 18-04-2007 20:22:02 13.3 C 3.93 g/m*3 13.3 C 0 km/h
1975 18-04-2007 20:37:02 12.5 C 4.29 g/m*3 12.5 C 0 km/h
Sensor: Nr:Datum:Temp:Abs-Feuchte:Windchill:Wind:
Aussen-T/F 1976 18-04-2007 20:52:02 11.4 C 4.31 g/m*3 11.4 C 0 km/h
1977 18-04-2007 21:07:02 10.5 C 4.27 g/m*3 10.5 C 0 km/h
1978 18-04-2007 21:22:03 10 C 4.23 g/m*3 10 C 0 km/h
1979 18-04-2007 21:37:02 9.8 C 4.36 g/m*3 9.8 C 0 km/h
1980 18-04-2007 21:52:02 9.4 C 4.25 g/m*3 9.4 C 0 km/h
1981 18-04-2007 22:07:02 9.3 C 4.4 g/m*3 9.3 C 0 km/h
1982 18-04-2007 22:22:01 9 C 4.41 g/m*3 9 C 0 km/h
1983 18-04-2007 22:37:02 8.7 C 4.5 g/m*3 8.7 C 0 km/h
1984 18-04-2007 22:52:02 8.3 C 4.55 g/m*3 8.3 C 0 km/h
1985 18-04-2007 23:07:03 8 C 4.63 g/m*3 8 C 0 km/h
1986 18-04-2007 23:22:02 7.5 C 4.72 g/m*3 7.5 C 0 km/h
1987 18-04-2007 23:37:02 7.4 C 4.69 g/m*3 7.4 C 0 km/h
1988 18-04-2007 23:52:01 7.2 C 4.71 g/m*3 7.2 C 0 km/h
1989 19-04-2007 00:07:02 7 C 4.8 g/m*3 7 C 0 km/h
1990 19-04-2007 00:22:02 6.7 C 4.86 g/m*3 6.7 C 0 km/h
1991 19-04-2007 00:37:01 6.4 C 4.77 g/m*3 6.4 C 0 km/h
1992 19-04-2007 00:52:02 6.3 C 4.81 g/m*3 6.3 C 0 km/h
1993 19-04-2007 01:07:03 5.9 C 4.9 g/m*3 5.9 C 0 km/h
1994 19-04-2007 01:22:03 5.7 C 4.84 g/m*3 5.7 C 0 km/h
1995 19-04-2007 01:37:03 5.4 C 4.81 g/m*3 5.4 C 0 km/h
1996 19-04-2007 01:52:02 5.2 C 4.89 g/m*3 5.2 C 0 km/h
1997 19-04-2007 02:07:02 5 C 4.82 g/m*3 5 C 0 km/h
1998 19-04-2007 02:22:02 4.9 C 4.93 g/m*3 4.9 C 0 km/h
1999 19-04-2007 02:37:02 4.7 C 4.93 g/m*3 4.7 C 0 km/h
2000 19-04-2007 02:53:03 4.4 C 4.96 g/m*3 4.4 C 0 km/h
Sensor: Nr:Datum:Temp:Abs-Feuchte:Windchill:Wind:
Aussen-T/F 2001 19-04-2007 03:08:03 4.3 C 4.93 g/m*3 4.3 C 0 km/h
2002 19-04-2007 03:23:04 4.1 C 4.8 g/m*3 4.1 C 0 km/h
2003 19-04-2007 03:38:02 4 C 4.77 g/m*3 4 C 0 km/h
2004 19-04-2007 03:53:02 3.9 C 4.93 g/m*3 3.9 C 0 km/h
2005 19-04-2007 04:08:02 3.6 C 4.83 g/m*3 3.6 C 0 km/h
2006 19-04-2007 04:23:02 3.4 C 4.83 g/m*3 3.4 C 0 km/h
2007 19-04-2007 04:38:02 3.3 C 4.85 g/m*3 3.3 C 0 km/h
2008 19-04-2007 04:53:02 3.1 C 4.85 g/m*3 3.1 C 0 km/h
2009 19-04-2007 05:08:02 2.9 C 4.9 g/m*3 2.9 C 0 km/h
2010 19-04-2007 05:23:02 2.7 C 4.84 g/m*3 2.7 C 0 km/h
2011 19-04-2007 05:38:02 2.6 C 4.8 g/m*3 2.6 C 0 km/h
2012 19-04-2007 05:53:01 2.5 C 4.77 g/m*3 2.5 C 0 km/h
2013 19-04-2007 06:08:02 2.3 C 4.76 g/m*3 2.3 C 0 km/h
2014 19-04-2007 06:23:02 2.3 C 4.76 g/m*3 2.3 C 0 km/h
2015 19-04-2007 06:38:01 2.1 C 4.76 g/m*3 2.1 C 0 km/h
2016 19-04-2007 06:53:02 2 C 4.72 g/m*3 2 C 0 km/h
2017 19-04-2007 07:08:01 2 C 4.72 g/m*3 2 C 0 km/h
2018 19-04-2007 07:23:02 2.2 C 4.79 g/m*3 2.2 C 0 km/h
2019 19-04-2007 07:38:02 2.4 C 4.85 g/m*3 2.4 C 0 km/h
2020 19-04-2007 07:53:02 2.5 C 4.89 g/m*3 2.5 C 0 km/h
2021 19-04-2007 08:08:02 2.7 C 5.01 g/m*3 2.7 C 0 km/h
2022 19-04-2007 08:23:01 3.1 C 5.09 g/m*3 3.1 C 0 km/h
2023 19-04-2007 08:38:02 3.4 C 5.01 g/m*3 3.4 C 0 km/h
2024 19-04-2007 08:53:01 3.7 C 5.05 g/m*3 3.7 C 0 km/h
2025 19-04-2007 09:08:02 4.1 C 5.12 g/m*3 4.1 C 0 km/h
Sensor: Nr:Datum:Temp:Abs-Feuchte:Windchill:Wind:
Aussen-T/F 2026 19-04-2007 09:23:01 4.6 C 5.16 g/m*3 4.6 C 0 km/h
2027 19-04-2007 09:38:01 5.4 C 5.09 g/m*3 5.4 C 0 km/h
2028 19-04-2007 09:53:01 6.3 C 5.26 g/m*3 6.3 C 0 km/h
2029 19-04-2007 10:08:01 7.2 C 5.1 g/m*3 7.2 C 0 km/h
2030 19-04-2007 10:23:02 8.5 C 5.12 g/m*3 8.5 C 0 km/h
2031 19-04-2007 10:38:01 9.3 C 5.03 g/m*3 9.3 C 0 km/h
2032 19-04-2007 10:53:02 10.2 C 5.14 g/m*3 10.2 C 0 km/h
2033 19-04-2007 11:08:02 11 C 5.1 g/m*3 11 C 0 km/h
2034 19-04-2007 11:23:01 12.1 C 4.61 g/m*3 12.1 C 0 km/h
2035 19-04-2007 11:38:02 12.9 C 4.28 g/m*3 12.9 C 0 km/h
2036 19-04-2007 11:53:02 13.6 C 4.24 g/m*3 13.6 C 0 km/h
2037 19-04-2007 12:08:02 14 C 4.22 g/m*3 14 C 0 km/h
2038 19-04-2007 12:23:02 14.3 C 4.05 g/m*3 14.3 C 0 km/h
2039 19-04-2007 12:38:02 14.7 C 3.9 g/m*3 14.7 C 0 km/h
2040 19-04-2007 12:53:02 15 C 3.59 g/m*3 15 C 0 km/h
2041 19-04-2007 13:08:02 15.4 C 3.81 g/m*3 15.4 C 0 km/h
2042 19-04-2007 13:23:02 16.1 C 3.29 g/m*3 16.1 C 0 km/h
2043 19-04-2007 13:38:02 16.8 C 3 g/m*3 16.8 C 0 km/h
2044 19-04-2007 13:53:03 17.2 C 3.08 g/m*3 17.2 C 0 km/h
2045 19-04-2007 14:08:02 17.9 C 3.05 g/m*3 17.9 C 0 km/h
2046 19-04-2007 14:23:02 18.8 C 3.22 g/m*3 18.8 C 0 km/h
2047 19-04-2007 14:38:03 19.3 C 3.32 g/m*3 19.3 C 0 km/h
2048 19-04-2007 14:53:02 19.3 C 3.32 g/m*3 19.3 C 0 km/h
2049 19-04-2007 15:08:02 20.2 C 3.5 g/m*3 20.2 C 0 km/h
2050 19-04-2007 15:23:02 21 C 3.66 g/m*3 21 C 0 km/h
Sensor: Nr:Datum:Temp:Abs-Feuchte:Windchill:Wind:
Aussen-T/F 2051 19-04-2007 15:38:02 21.5 C 3.77 g/m*3 21.5 C 0 km/h
2052 19-04-2007 15:53:02 22.3 C 3.95 g/m*3 22.3 C 0 km/h
2053 19-04-2007 16:08:02 22 C 3.88 g/m*3 22 C 0 km/h
2054 19-04-2007 16:23:02 22.8 C 4.06 g/m*3 22.8 C 0 km/h
2055 19-04-2007 16:38:02 22.2 C 3.93 g/m*3 22.2 C 0 km/h
2056 19-04-2007 16:53:02 23.7 C 4.28 g/m*3 23.7 C 0 km/h
2057 19-04-2007 17:08:02 24.7 C 4.53 g/m*3 24.7 C 0 km/h
2058 19-04-2007 17:23:02 25.3 C 4.68 g/m*3 25.3 C 0 km/h
2059 19-04-2007 17:38:02 25.1 C 4.63 g/m*3 25.1 C 0 km/h
2060 19-04-2007 17:53:02 23.2 C 4.16 g/m*3 23.2 C 0 km/h
2061 19-04-2007 18:08:02 23.2 C 4.16 g/m*3 23.2 C 0 km/h
2062 19-04-2007 18:23:01 22.4 C 3.97 g/m*3 22.4 C 0 km/h
2063 19-04-2007 18:38:02 21.6 C 4.17 g/m*3 21.6 C 0 km/h
2064 19-04-2007 18:53:02 21.2 C 4.63 g/m*3 21.2 C 0 km/h
2065 19-04-2007 19:08:02 21.2 C 4.63 g/m*3 21.2 C 0 km/h
2066 19-04-2007 19:23:02 21.1 C 4.79 g/m*3 21.1 C 0 km/h
2067 19-04-2007 19:38:02 19.8 C 4.78 g/m*3 19.8 C 0 km/h
2068 19-04-2007 19:53:02 19.1 C 4.75 g/m*3 19.1 C 0 km/h
2069 19-04-2007 20:08:03 18.1 C 4.64 g/m*3 18.1 C 0 km/h
2070 19-04-2007 20:23:03 17.5 C 4.62 g/m*3 17.5 C 0 km/h
2071 19-04-2007 20:38:02 16.8 C 4.72 g/m*3 16.8 C 0 km/h
2072 19-04-2007 20:53:02 16.1 C 4.8 g/m*3 16.1 C 0 km/h
2073 19-04-2007 21:08:01 15.5 C 4.76 g/m*3 15.5 C 0 km/h
2074 19-04-2007 21:23:02 15.3 C 4.57 g/m*3 15.3 C 0 km/h
2075 19-04-2007 21:38:02 15.1 C 4.26 g/m*3 15.1 C 0 km/h
Sensor: Nr:Datum:Temp:Abs-Feuchte:Windchill:Wind:
Aussen-T/F 2076 19-04-2007 21:53:03 15.1 C 4.26 g/m*3 15.1 C 0 km/h
2077 19-04-2007 22:08:02 14.8 C 4.18 g/m*3 14.8 C 0 km/h
2078 19-04-2007 22:23:02 14.3 C 4.3 g/m*3 14.3 C 0 km/h
2079 19-04-2007 22:38:03 14 C 4.34 g/m*3 14 C 0 km/h
2080 19-04-2007 22:53:02 13.4 C 4.65 g/m*3 13.4 C 0 km/h
2081 19-04-2007 23:08:02 12.6 C 5.09 g/m*3 12.6 C 0 km/h
2082 19-04-2007 23:23:02 12.2 C 4.96 g/m*3 12.2 C 0 km/h
2083 19-04-2007 23:38:02 11.8 C 5.05 g/m*3 11.8 C 0 km/h
2084 19-04-2007 23:53:02 11.6 C 4.78 g/m*3 11.6 C 0 km/h
2085 20-04-2007 00:08:02 12.2 C 4.53 g/m*3 12.2 C 0 km/h
2086 20-04-2007 00:23:03 12.5 C 4.62 g/m*3 12.5 C 0 km/h
2087 20-04-2007 00:38:03 12.5 C 4.62 g/m*3 12.5 C 0 km/h
2088 20-04-2007 00:53:02 12.3 C 4.78 g/m*3 12.3 C 0 km/h
2089 20-04-2007 01:08:02 12.2 C 4.86 g/m*3 12.2 C 0 km/h
2090 20-04-2007 01:23:02 11.9 C 4.87 g/m*3 11.9 C 0 km/h
2091 20-04-2007 01:38:02 11.4 C 4.93 g/m*3 11.4 C 0 km/h
2092 20-04-2007 01:53:02 11.3 C 5.1 g/m*3 11.3 C 0 km/h
2093 20-04-2007 02:08:02 11.1 C 5.14 g/m*3 11.1 C 0 km/h
2094 20-04-2007 02:23:02 11.1 C 5.24 g/m*3 11.1 C 0 km/h
2095 20-04-2007 02:38:02 10.7 C 5.3 g/m*3 10.7 C 0 km/h
2096 20-04-2007 02:54:04 10.3 C 5.27 g/m*3 10.3 C 0 km/h
2097 20-04-2007 03:09:04 10 C 5.45 g/m*3 10 C 0 km/h
2098 20-04-2007 03:24:03 9.8 C 5.57 g/m*3 9.8 C 0 km/h
2099 20-04-2007 03:39:02 9.7 C 5.62 g/m*3 9.7 C 0 km/h
2100 20-04-2007 03:54:02 9.5 C 5.64 g/m*3 9.5 C 0 km/h
Sensor: Nr:Datum:Temp:Abs-Feuchte:Windchill:Wind:
Aussen-T/F 2101 20-04-2007 04:09:02 9.3 C 5.66 g/m*3 9.3 C 0 km/h
2102 20-04-2007 04:24:02 9.2 C 5.63 g/m*3 9.2 C 0 km/h
2103 20-04-2007 04:39:02 8.9 C 5.69 g/m*3 8.9 C 0 km/h
2104 20-04-2007 04:54:02 8.6 C 5.67 g/m*3 8.6 C 0 km/h
2105 20-04-2007 05:09:02 8.4 C 5.68 g/m*3 8.4 C 0 km/h
2106 20-04-2007 05:24:02 8.1 C 5.66 g/m*3 8.1 C 0 km/h
2107 20-04-2007 05:39:02 7.9 C 5.75 g/m*3 7.9 C 0 km/h
2108 20-04-2007 05:54:02 7.6 C 5.72 g/m*3 7.6 C 0 km/h
2109 20-04-2007 06:09:01 7.4 C 5.73 g/m*3 7.4 C 0 km/h
2110 20-04-2007 06:24:02 7.1 C 5.85 g/m*3 7.1 C 0 km/h
2111 20-04-2007 06:39:01 6.9 C 6 g/m*3 6.9 C 0 km/h
2112 20-04-2007 06:54:02 6.9 C 6 g/m*3 6.9 C 0 km/h
2113 20-04-2007 07:09:02 7.3 C 6.08 g/m*3 7.3 C 0 km/h
2114 20-04-2007 07:24:01 7.7 C 6.08 g/m*3 7.7 C 0 km/h
2115 20-04-2007 07:39:02 7.9 C 6.08 g/m*3 7.9 C 0 km/h
2116 20-04-2007 07:54:02 8.1 C 6.07 g/m*3 8.1 C 0 km/h
2117 20-04-2007 08:09:03 8.4 C 6.02 g/m*3 8.4 C 0 km/h
2118 20-04-2007 08:24:02 8.4 C 6.11 g/m*3 8.4 C 0 km/h
2119 20-04-2007 08:39:02 8.6 C 6.19 g/m*3 8.6 C 0 km/h
2120 20-04-2007 08:54:01 9 C 6.08 g/m*3 9 C 0 km/h
2121 20-04-2007 09:09:01 9.9 C 6.26 g/m*3 9.9 C 0 km/h
2122 20-04-2007 09:24:02 10.1 C 6.24 g/m*3 10.1 C 0 km/h
2123 20-04-2007 09:39:01 10.4 C 6.17 g/m*3 10.4 C 0 km/h
2124 20-04-2007 09:54:02 11.3 C 6.32 g/m*3 11.3 C 0 km/h
2125 20-04-2007 10:09:02 11.7 C 5.75 g/m*3 11.7 C 0 km/h
Sensor: Nr:Datum:Temp:Abs-Feuchte:Windchill:Wind:
Aussen-T/F 2126 20-04-2007 10:24:01 11.4 C 5.65 g/m*3 11.4 C 0 km/h
2127 20-04-2007 10:39:02 11.8 C 5.79 g/m*3 11.8 C 0 km/h
2128 20-04-2007 10:54:02 11.7 C 5.23 g/m*3 11.7 C 0 km/h
2129 20-04-2007 11:09:02 11.8 C 5.16 g/m*3 11.8 C 0 km/h
2130 20-04-2007 11:24:02 12.6 C 5.09 g/m*3 12.6 C 0 km/h
2131 20-04-2007 11:39:02 12.7 C 4.9 g/m*3 12.7 C 0 km/h
2132 20-04-2007 11:54:02 13.1 C 4.56 g/m*3 13.1 C 0 km/h
2133 20-04-2007 12:09:02 13.7 C 4.62 g/m*3 13.7 C 0 km/h
2134 20-04-2007 12:24:02 14.3 C 4.67 g/m*3 14.3 C 0 km/h
2135 20-04-2007 12:39:02 14.2 C 4.52 g/m*3 14.2 C 0 km/h
2136 20-04-2007 12:54:02 14 C 4.46 g/m*3 14 C 0 km/h
2137 20-04-2007 13:09:02 14.4 C 4.45 g/m*3 14.4 C 0 km/h
2138 20-04-2007 13:24:02 15.2 C 4.28 g/m*3 15.2 C 0 km/h
2139 20-04-2007 13:39:02 15.4 C 4.07 g/m*3 15.4 C 0 km/h
2140 20-04-2007 13:54:01 16.4 C 4.33 g/m*3 16.4 C 0 km/h
2141 20-04-2007 14:09:02 16.7 C 4.26 g/m*3 16.7 C 0 km/h
2142 20-04-2007 14:24:01 17.2 C 4.25 g/m*3 17.2 C 0 km/h
2143 20-04-2007 14:39:02 16.4 C 3.77 g/m*3 16.4 C 0 km/h
2144 20-04-2007 14:54:02 17 C 3.91 g/m*3 17 C 0 km/h
2145 20-04-2007 15:09:02 16.3 C 3.61 g/m*3 16.3 C 0 km/h
2146 20-04-2007 15:24:01 17.5 C 3.73 g/m*3 17.5 C 0 km/h
2147 20-04-2007 15:39:02 17.8 C 3.49 g/m*3 17.8 C 0 km/h
2148 20-04-2007 15:54:01 17.9 C 3.21 g/m*3 17.9 C 0 km/h
2149 20-04-2007 16:09:02 17 C 3.04 g/m*3 17 C 0 km/h
2150 20-04-2007 16:24:02 17.4 C 3.26 g/m*3 17.4 C 0 km/h
Sensor: Nr:Datum:Temp:Abs-Feuchte:Windchill:Wind:
Aussen-T/F 2151 20-04-2007 16:39:01 17.6 C 3 g/m*3 17.6 C 0 km/h
2152 20-04-2007 16:54:02 18 C 3.07 g/m*3 18 C 0 km/h
2153 20-04-2007 17:09:02 18.6 C 3.18 g/m*3 18.6 C 0 km/h
2154 20-04-2007 17:24:01 18.3 C 3.13 g/m*3 18.3 C 0 km/h
2155 20-04-2007 17:39:02 18.3 C 3.13 g/m*3 18.3 C 0 km/h
2156 20-04-2007 17:54:03 17.5 C 2.98 g/m*3 17.5 C 0 km/h
2157 20-04-2007 18:09:02 17.7 C 3.02 g/m*3 17.7 C 0 km/h
2158 20-04-2007 18:24:02 17.2 C 2.93 g/m*3 17.2 C 0 km/h
2159 20-04-2007 18:39:03 16.4 C 3.07 g/m*3 16.4 C 0 km/h
2160 20-04-2007 18:54:02 16.2 C 3.03 g/m*3 16.2 C 0 km/h
2161 20-04-2007 19:09:03 16.5 C 3.23 g/m*3 16.5 C 0 km/h
2162 20-04-2007 19:24:02 16.3 C 3.19 g/m*3 16.3 C 0 km/h
2163 20-04-2007 19:39:02 15.8 C 3.23 g/m*3 15.8 C 0 km/h
2164 20-04-2007 19:54:01 15.3 C 3.26 g/m*3 15.3 C 0 km/h
2165 20-04-2007 20:09:01 14.4 C 3.21 g/m*3 14.4 C 0 km/h
2166 20-04-2007 20:24:02 13.6 C 3.53 g/m*3 13.6 C 0 km/h
2167 20-04-2007 20:39:02 13 C 3.52 g/m*3 13 C 0 km/h
2168 20-04-2007 20:54:02 12.3 C 3.58 g/m*3 12.3 C 0 km/h
2169 20-04-2007 21:09:02 11.8 C 3.79 g/m*3 11.8 C 0 km/h
2170 20-04-2007 21:24:02 11.4 C 3.9 g/m*3 11.4 C 0 km/h
2171 20-04-2007 21:39:02 10.8 C 3.95 g/m*3 10.8 C 0 km/h
2172 20-04-2007 21:54:02 10.6 C 4 g/m*3 10.6 C 0 km/h
2173 20-04-2007 22:09:02 10.1 C 3.97 g/m*3 10.1 C 0 km/h
2174 20-04-2007 22:24:02 9.7 C 4.06 g/m*3 9.7 C 0 km/h
2175 20-04-2007 22:39:02 9.3 C 4.04 g/m*3 9.3 C 0 km/h
Sensor: Nr:Datum:Temp:Abs-Feuchte:Windchill:Wind:
Aussen-T/F 2176 20-04-2007 22:54:01 9 C 4.06 g/m*3 9 C 0 km/h
2177 20-04-2007 23:09:02 9 C 4.06 g/m*3 9 C 0 km/h
2178 20-04-2007 23:24:02 8.7 C 3.98 g/m*3 8.7 C 0 km/h
2179 20-04-2007 23:39:02 8.4 C 3.9 g/m*3 8.4 C 0 km/h
2180 20-04-2007 23:54:01 8.1 C 3.91 g/m*3 8.1 C 0 km/h
2181 21-04-2007 00:09:02 7.8 C 4 g/m*3 7.8 C 0 km/h
2182 21-04-2007 00:24:02 7.5 C 4 g/m*3 7.5 C 0 km/h
2183 21-04-2007 00:39:02 7.2 C 4 g/m*3 7.2 C 0 km/h
2184 21-04-2007 00:54:02 7 C 3.95 g/m*3 7 C 0 km/h
2185 21-04-2007 01:09:01 6.7 C 4.03 g/m*3 6.7 C 0 km/h
2186 21-04-2007 01:24:02 6.5 C 4.12 g/m*3 6.5 C 0 km/h
2187 21-04-2007 01:39:02 6.4 C 4.1 g/m*3 6.4 C 0 km/h
2188 21-04-2007 01:54:02 6.2 C 4.12 g/m*3 6.2 C 0 km/h
2189 21-04-2007 02:09:01 6 C 3.99 g/m*3 6 C 0 km/h
2190 21-04-2007 02:24:01 5.7 C 4.06 g/m*3 5.7 C 0 km/h
2191 21-04-2007 02:39:02 5.4 C 4.05 g/m*3 5.4 C 0 km/h
2192 21-04-2007 02:55:03 5.3 C 4.09 g/m*3 5.3 C 0 km/h
2193 21-04-2007 03:10:04 5.1 C 4.1 g/m*3 5.1 C 0 km/h
2194 21-04-2007 03:25:04 5 C 4.14 g/m*3 5 C 0 km/h
2195 21-04-2007 03:40:02 4.8 C 4.16 g/m*3 4.8 C 0 km/h
2196 21-04-2007 03:55:03 4.5 C 4.14 g/m*3 4.5 C 0 km/h
2197 21-04-2007 04:10:03 4.4 C 4.11 g/m*3 4.4 C 0 km/h
2198 21-04-2007 04:25:03 4.2 C 4.06 g/m*3 4.2 C 0 km/h
2199 21-04-2007 04:40:03 4 C 4.07 g/m*3 4 C 0 km/h
2200 21-04-2007 04:55:02 3.8 C 4.2 g/m*3 3.8 C 0 km/h
Sensor: Nr:Datum:Temp:Abs-Feuchte:Windchill:Wind:
Aussen-T/F 2201 21-04-2007 05:10:02 3.6 C 4.09 g/m*3 3.6 C 0 km/h
2202 21-04-2007 05:25:02 3.4 C 4.03 g/m*3 3.4 C 0 km/h
2203 21-04-2007 05:40:03 3.3 C 4.06 g/m*3 3.3 C 0 km/h
2204 21-04-2007 05:55:02 3.1 C 4.07 g/m*3 3.1 C 0 km/h
2205 21-04-2007 06:10:02 2.9 C 4.13 g/m*3 2.9 C 0 km/h
2206 21-04-2007 06:25:03 2.8 C 4.16 g/m*3 2.8 C 0 km/h
2207 21-04-2007 06:40:02 2.6 C 4.17 g/m*3 2.6 C 0 km/h
2208 21-04-2007 06:55:02 2.5 C 4.25 g/m*3 2.5 C 0 km/h
2209 21-04-2007 07:10:01 2.5 C 4.31 g/m*3 2.5 C 0 km/h
2210 21-04-2007 07:25:01 2.5 C 4.25 g/m*3 2.5 C 0 km/h
2211 21-04-2007 07:40:02 2.7 C 4.37 g/m*3 2.7 C 0 km/h
2212 21-04-2007 07:55:02 3 C 4.4 g/m*3 3 C 0 km/h
2213 21-04-2007 08:10:02 3.1 C 4.43 g/m*3 3.1 C 0 km/h
2214 21-04-2007 08:25:02 3.4 C 4.46 g/m*3 3.4 C 0 km/h
2215 21-04-2007 08:40:03 3.8 C 4.58 g/m*3 3.8 C 0 km/h
2216 21-04-2007 08:55:02 4.3 C 4.54 g/m*3 4.3 C 0 km/h
2217 21-04-2007 09:10:01 5.1 C 4.51 g/m*3 5.1 C 0 km/h
2218 21-04-2007 09:25:02 5.7 C 4.55 g/m*3 5.7 C 0 km/h
2219 21-04-2007 09:40:02 6.7 C 4.56 g/m*3 6.7 C 0 km/h
2220 21-04-2007 09:55:02 7.6 C 4.43 g/m*3 7.6 C 0 km/h
2221 21-04-2007 10:10:02 8.3 C 4.38 g/m*3 8.3 C 0 km/h
2222 21-04-2007 10:25:02 9 C 4.23 g/m*3 9 C 0 km/h
2223 21-04-2007 10:40:02 10.1 C 4.16 g/m*3 10.1 C 0 km/h
2224 21-04-2007 10:55:02 10.5 C 4.07 g/m*3 10.5 C 0 km/h
2225 21-04-2007 11:10:02 11.3 C 4.08 g/m*3 11.3 C 0 km/h
Sensor: Nr:Datum:Temp:Abs-Feuchte:Windchill:Wind:
Aussen-T/F 2226 21-04-2007 11:25:01 12 C 4.05 g/m*3 12 C 0 km/h
2227 21-04-2007 11:40:02 12.7 C 4.12 g/m*3 12.7 C 0 km/h
2228 21-04-2007 11:55:02 13.2 C 4.02 g/m*3 13.2 C 0 km/h
2229 21-04-2007 12:10:03 13.3 C 4.04 g/m*3 13.3 C 0 km/h
2230 21-04-2007 12:25:02 14.2 C 4.03 g/m*3 14.2 C 0 km/h
2231 21-04-2007 12:40:02 15.1 C 3.87 g/m*3 15.1 C 0 km/h
2232 21-04-2007 12:55:02 15.4 C 3.81 g/m*3 15.4 C 0 km/h
2233 21-04-2007 13:10:02 15.9 C 3.66 g/m*3 15.9 C 0 km/h
2234 21-04-2007 13:25:03 16.7 C 3.69 g/m*3 16.7 C 0 km/h
2235 21-04-2007 13:40:02 17 C 3.62 g/m*3 17 C 0 km/h
2236 21-04-2007 13:55:02 17.2 C 3.37 g/m*3 17.2 C 0 km/h
2237 21-04-2007 14:10:02 18.1 C 3.4 g/m*3 18.1 C 0 km/h
2238 21-04-2007 14:25:01 18.7 C 3.36 g/m*3 18.7 C 0 km/h
2239 21-04-2007 14:40:02 20.2 C 3.5 g/m*3 20.2 C 0 km/h
2240 21-04-2007 14:55:01 19.9 C 3.44 g/m*3 19.9 C 0 km/h
2241 21-04-2007 15:10:02 20.2 C 3.5 g/m*3 20.2 C 0 km/h
2242 21-04-2007 15:25:01 20 C 3.46 g/m*3 20 C 0 km/h
2243 21-04-2007 15:40:01 21.2 C 3.71 g/m*3 21.2 C 0 km/h
2244 21-04-2007 15:55:01 21.8 C 3.84 g/m*3 21.8 C 0 km/h
2245 21-04-2007 16:10:02 21.8 C 3.84 g/m*3 21.8 C 0 km/h
2246 21-04-2007 16:25:02 22.8 C 4.06 g/m*3 22.8 C 0 km/h
2247 21-04-2007 16:40:01 22.8 C 4.06 g/m*3 22.8 C 0 km/h
2248 21-04-2007 16:55:02 23.2 C 4.16 g/m*3 23.2 C 0 km/h
2249 21-04-2007 17:10:02 24.4 C 4.45 g/m*3 24.4 C 0 km/h
2250 21-04-2007 17:25:02 23.6 C 4.25 g/m*3 23.6 C 0 km/h
Sensor: Nr:Datum:Temp:Abs-Feuchte:Windchill:Wind:
Aussen-T/F 2251 21-04-2007 17:40:02 23.3 C 4.18 g/m*3 23.3 C 0 km/h
2252 21-04-2007 17:55:03 24.6 C 4.5 g/m*3 24.6 C 0 km/h
2253 21-04-2007 18:10:03 23.4 C 4.21 g/m*3 23.4 C 0 km/h
2254 21-04-2007 18:25:02 22.2 C 3.93 g/m*3 22.2 C 0 km/h
2255 21-04-2007 18:40:03 22.5 C 3.99 g/m*3 22.5 C 0 km/h
2256 21-04-2007 18:55:01 21.5 C 3.77 g/m*3 21.5 C 0 km/h
2257 21-04-2007 19:10:02 22.2 C 3.93 g/m*3 22.2 C 0 km/h
2258 21-04-2007 19:25:02 22 C 3.88 g/m*3 22 C 0 km/h
2259 21-04-2007 19:40:01 21.4 C 3.75 g/m*3 21.4 C 0 km/h
2260 21-04-2007 19:55:02 20.5 C 3.56 g/m*3 20.5 C 0 km/h
2261 21-04-2007 20:10:02 18.7 C 3.2 g/m*3 18.7 C 0 km/h
2262 21-04-2007 20:25:02 16.9 C 3.45 g/m*3 16.9 C 0 km/h
2263 21-04-2007 20:40:02 15.9 C 3.66 g/m*3 15.9 C 0 km/h
2264 21-04-2007 20:55:03 15.3 C 3.53 g/m*3 15.3 C 0 km/h
2265 21-04-2007 21:10:02 14.8 C 3.42 g/m*3 14.8 C 0 km/h
2266 21-04-2007 21:25:02 14.4 C 3.46 g/m*3 14.4 C 0 km/h
2267 21-04-2007 21:40:03 14.2 C 3.54 g/m*3 14.2 C 0 km/h
2268 21-04-2007 21:55:02 13.8 C 3.69 g/m*3 13.8 C 0 km/h
2269 21-04-2007 22:10:02 13.5 C 3.51 g/m*3 13.5 C 0 km/h
2270 21-04-2007 22:25:02 13 C 3.52 g/m*3 13 C 0 km/h
2271 21-04-2007 22:40:02 12.4 C 3.82 g/m*3 12.4 C 0 km/h
2272 21-04-2007 22:55:03 11.8 C 3.79 g/m*3 11.8 C 0 km/h
2273 21-04-2007 23:10:02 11.4 C 3.8 g/m*3 11.4 C 0 km/h
2274 21-04-2007 23:25:03 11.4 C 3.8 g/m*3 11.4 C 0 km/h
2275 21-04-2007 23:40:02 11.1 C 3.83 g/m*3 11.1 C 0 km/h
Sensor: Nr:Datum:Temp:Abs-Feuchte:Windchill:Wind:
Aussen-T/F 2276 21-04-2007 23:55:02 10.8 C 3.95 g/m*3 10.8 C 0 km/h
2277 22-04-2007 00:10:02 10.4 C 4.05 g/m*3 10.4 C 0 km/h
2278 22-04-2007 00:25:02 9.9 C 4.11 g/m*3 9.9 C 0 km/h
2279 22-04-2007 00:40:02 9.6 C 4.12 g/m*3 9.6 C 0 km/h
2280 22-04-2007 00:55:02 9.5 C 4.28 g/m*3 9.5 C 0 km/h
2281 22-04-2007 01:10:02 9.1 C 4.26 g/m*3 9.1 C 0 km/h
2282 22-04-2007 01:25:02 8.7 C 4.41 g/m*3 8.7 C 0 km/h
2283 22-04-2007 01:40:02 8.4 C 4.33 g/m*3 8.4 C 0 km/h
2284 22-04-2007 01:55:03 8.2 C 4.35 g/m*3 8.2 C 0 km/h
2285 22-04-2007 02:10:03 7.9 C 4.68 g/m*3 7.9 C 0 km/h
2286 22-04-2007 02:25:02 7.5 C 4.64 g/m*3 7.5 C 0 km/h
2287 22-04-2007 02:40:02 7.5 C 4.56 g/m*3 7.5 C 0 km/h
2288 22-04-2007 02:55:02 7.4 C 4.61 g/m*3 7.4 C 0 km/h
2289 22-04-2007 03:10:01 7.3 C 4.5 g/m*3 7.3 C 0 km/h
2290 22-04-2007 03:25:01 7.2 C 4.63 g/m*3 7.2 C 0 km/h
2291 22-04-2007 03:40:01 7 C 4.65 g/m*3 7 C 0 km/h
2292 22-04-2007 03:55:01 7 C 4.73 g/m*3 7 C 0 km/h
2293 22-04-2007 04:10:02 6.5 C 4.65 g/m*3 6.5 C 0 km/h
2294 22-04-2007 04:25:02 6.3 C 4.74 g/m*3 6.3 C 0 km/h
2295 22-04-2007 04:40:02 6.2 C 4.71 g/m*3 6.2 C 0 km/h
2296 22-04-2007 04:55:01 5.9 C 4.69 g/m*3 5.9 C 0 km/h
2297 22-04-2007 05:10:01 5.8 C 4.8 g/m*3 5.8 C 0 km/h
2298 22-04-2007 05:25:02 5.6 C 4.88 g/m*3 5.6 C 0 km/h
2299 22-04-2007 05:40:02 5.3 C 4.71 g/m*3 5.3 C 0 km/h
2300 22-04-2007 05:55:01 5.2 C 4.75 g/m*3 5.2 C 0 km/h
Sensor: Nr:Datum:Temp:Abs-Feuchte:Windchill:Wind:
Aussen-T/F 2301 22-04-2007 06:10:02 4.9 C 4.73 g/m*3 4.9 C 0 km/h
2302 22-04-2007 06:25:01 4.8 C 4.76 g/m*3 4.8 C 0 km/h
2303 22-04-2007 06:40:01 4.7 C 4.73 g/m*3 4.7 C 0 km/h
2304 22-04-2007 06:55:01 4.6 C 4.76 g/m*3 4.6 C 0 km/h
2305 22-04-2007 07:10:01 4.6 C 4.83 g/m*3 4.6 C 0 km/h
2306 22-04-2007 07:25:02 4.7 C 4.8 g/m*3 4.7 C 0 km/h
2307 22-04-2007 07:40:01 4.8 C 4.83 g/m*3 4.8 C 0 km/h
2308 22-04-2007 07:55:02 5 C 4.89 g/m*3 5 C 0 km/h
2309 22-04-2007 08:10:01 5.3 C 4.92 g/m*3 5.3 C 0 km/h
2310 22-04-2007 08:25:01 5.7 C 5.05 g/m*3 5.7 C 0 km/h
2311 22-04-2007 08:40:02 6.1 C 5.11 g/m*3 6.1 C 0 km/h
2312 22-04-2007 08:55:02 6.5 C 5.1 g/m*3 6.5 C 0 km/h
2313 22-04-2007 09:10:02 7 C 5.11 g/m*3 7 C 0 km/h
2314 22-04-2007 09:25:01 7.8 C 5.14 g/m*3 7.8 C 0 km/h
2315 22-04-2007 09:40:02 8.6 C 5.07 g/m*3 8.6 C 0 km/h
2316 22-04-2007 09:55:01 9.7 C 5.07 g/m*3 9.7 C 0 km/h
2317 22-04-2007 10:10:02 10.8 C 4.94 g/m*3 10.8 C 0 km/h
2318 22-04-2007 10:25:01 11.9 C 4.98 g/m*3 11.9 C 0 km/h
2319 22-04-2007 10:40:01 12.9 C 5.07 g/m*3 12.9 C 0 km/h
2320 22-04-2007 10:55:01 13.6 C 4.83 g/m*3 13.6 C 0 km/h
2321 22-04-2007 11:10:01 14.2 C 4.64 g/m*3 14.2 C 0 km/h
2322 22-04-2007 11:25:02 14.9 C 4.59 g/m*3 14.9 C 0 km/h
2323 22-04-2007 11:40:01 16.1 C 4.66 g/m*3 16.1 C 0 km/h
2324 22-04-2007 11:55:02 17.1 C 4.66 g/m*3 17.1 C 0 km/h
2325 22-04-2007 12:10:02 17.9 C 4.58 g/m*3 17.9 C 0 km/h
Sensor: Nr:Datum:Temp:Abs-Feuchte:Windchill:Wind:
Aussen-T/F 2326 22-04-2007 12:25:01 18.6 C 4.3 g/m*3 18.6 C 0 km/h
2327 22-04-2007 12:40:02 18.8 C 4.19 g/m*3 18.8 C 0 km/h
2328 22-04-2007 12:55:01 19.3 C 4.15 g/m*3 19.3 C 0 km/h
2329 22-04-2007 13:10:02 20.5 C 4.27 g/m*3 20.5 C 0 km/h
2330 22-04-2007 13:25:01 21.6 C 3.98 g/m*3 21.6 C 0 km/h
2331 22-04-2007 13:40:01 22.3 C 4.15 g/m*3 22.3 C 0 km/h
2332 22-04-2007 13:55:01 22.8 C 4.27 g/m*3 22.8 C 0 km/h
2333 22-04-2007 14:10:01 23.4 C 4.21 g/m*3 23.4 C 0 km/h
2334 22-04-2007 14:25:02 24.4 C 4.45 g/m*3 24.4 C 0 km/h
2335 22-04-2007 14:40:01 25.3 C 4.68 g/m*3 25.3 C 0 km/h
2336 22-04-2007 14:55:02 25.7 C 4.79 g/m*3 25.7 C 0 km/h
2337 22-04-2007 15:10:01 26.3 C 4.95 g/m*3 26.3 C 0 km/h
2338 22-04-2007 15:25:02 26.5 C 5.01 g/m*3 26.5 C 0 km/h
2339 22-04-2007 15:40:02 27.9 C 5.41 g/m*3 27.9 C 0 km/h
2340 22-04-2007 15:55:02 28.7 C 5.65 g/m*3 28.7 C 0 km/h
2341 22-04-2007 16:10:02 29.5 C 5.9 g/m*3 29.5 C 0 km/h
2342 22-04-2007 16:25:01 28.8 C 5.68 g/m*3 28.8 C 0 km/h
2343 22-04-2007 16:40:02 28.8 C 5.68 g/m*3 28.8 C 0 km/h
2344 22-04-2007 16:55:01 28.7 C 5.65 g/m*3 28.7 C 0 km/h
2345 22-04-2007 17:10:02 29 C 5.74 g/m*3 29 C 0 km/h
2346 22-04-2007 17:25:01 29.7 C 5.97 g/m*3 29.7 C 0 km/h
2347 22-04-2007 17:40:01 29.5 C 5.9 g/m*3 29.5 C 0 km/h
2348 22-04-2007 17:55:01 29.2 C 5.81 g/m*3 29.2 C 0 km/h
2349 22-04-2007 18:10:01 29.9 C 6.03 g/m*3 29.9 C 0 km/h
2350 22-04-2007 18:25:02 29.2 C 5.81 g/m*3 29.2 C 0 km/h
Sensor: Nr:Datum:Temp:Abs-Feuchte:Windchill:Wind:
Aussen-T/F 2351 22-04-2007 18:40:01 28.3 C 5.53 g/m*3 28.3 C 0 km/h
2352 22-04-2007 18:55:02 29.2 C 5.81 g/m*3 29.2 C 0 km/h
2353 22-04-2007 19:10:01 28.7 C 5.65 g/m*3 28.7 C 0 km/h
2354 22-04-2007 19:25:01 28.6 C 5.62 g/m*3 28.6 C 0 km/h
2355 22-04-2007 19:40:02 27.6 C 5.32 g/m*3 27.6 C 0 km/h
2356 22-04-2007 19:55:01 25.8 C 4.82 g/m*3 25.8 C 0 km/h
2357 22-04-2007 20:10:02 24 C 4.35 g/m*3 24 C 0 km/h
2358 22-04-2007 20:25:01 21.9 C 4.25 g/m*3 21.9 C 0 km/h
2359 22-04-2007 20:40:02 20.8 C 4.53 g/m*3 20.8 C 0 km/h
2360 22-04-2007 20:55:01 20.2 C 4.55 g/m*3 20.2 C 0 km/h
2361 22-04-2007 21:10:02 19.5 C 4.53 g/m*3 19.5 C 0 km/h
2362 22-04-2007 21:25:02 18.7 C 4.64 g/m*3 18.7 C 0 km/h
2363 22-04-2007 21:40:01 18.5 C 4.75 g/m*3 18.5 C 0 km/h
2364 22-04-2007 21:55:02 17.8 C 4.71 g/m*3 17.8 C 0 km/h
2365 22-04-2007 22:10:01 17.4 C 4.89 g/m*3 17.4 C 0 km/h
2366 22-04-2007 22:25:02 16.9 C 4.89 g/m*3 16.9 C 0 km/h
2367 22-04-2007 22:40:02 16.4 C 4.89 g/m*3 16.4 C 0 km/h
2368 22-04-2007 22:55:02 16 C 4.77 g/m*3 16 C 0 km/h
2369 22-04-2007 23:10:01 15.5 C 4.89 g/m*3 15.5 C 0 km/h
2370 22-04-2007 23:25:01 14.9 C 5.23 g/m*3 14.9 C 0 km/h
2371 22-04-2007 23:40:02 14.5 C 5.47 g/m*3 14.5 C 0 km/h
2372 22-04-2007 23:55:01 13.9 C 5.27 g/m*3 13.9 C 0 km/h
2373 23-04-2007 00:10:02 13.8 C 5.36 g/m*3 13.8 C 0 km/h
2374 23-04-2007 00:25:02 13 C 5.22 g/m*3 13 C 0 km/h
2375 23-04-2007 00:40:02 13.1 C 5.25 g/m*3 13.1 C 0 km/h
Sensor: Nr:Datum:Temp:Abs-Feuchte:Windchill:Wind:
Aussen-T/F 2376 23-04-2007 00:55:01 12.9 C 5.3 g/m*3 12.9 C 0 km/h
2377 23-04-2007 01:10:02 12.7 C 5.34 g/m*3 12.7 C 0 km/h
2378 23-04-2007 01:25:02 12.3 C 5.32 g/m*3 12.3 C 0 km/h
2379 23-04-2007 01:40:02 12 C 5.44 g/m*3 12 C 0 km/h
2380 23-04-2007 01:55:02 11.9 C 5.51 g/m*3 11.9 C 0 km/h
2381 23-04-2007 02:10:02 11.4 C 5.65 g/m*3 11.4 C 0 km/h
2382 23-04-2007 02:25:01 11.1 C 5.64 g/m*3 11.1 C 0 km/h
2383 23-04-2007 02:40:02 11 C 5.61 g/m*3 11 C 0 km/h
2384 23-04-2007 02:55:01 10.7 C 5.7 g/m*3 10.7 C 0 km/h
2385 23-04-2007 03:10:02 10.6 C 5.76 g/m*3 10.6 C 0 km/h
2386 23-04-2007 03:25:02 10.5 C 5.72 g/m*3 10.5 C 0 km/h
2387 23-04-2007 03:40:02 10.1 C 5.67 g/m*3 10.1 C 0 km/h
2388 23-04-2007 03:55:02 9.7 C 5.81 g/m*3 9.7 C 0 km/h
2389 23-04-2007 04:10:01 9.3 C 5.75 g/m*3 9.3 C 0 km/h
2390 23-04-2007 04:25:01 9.3 C 5.75 g/m*3 9.3 C 0 km/h
2391 23-04-2007 04:40:02 9.1 C 5.77 g/m*3 9.1 C 0 km/h
2392 23-04-2007 04:55:01 8.7 C 5.79 g/m*3 8.7 C 0 km/h
2393 23-04-2007 05:10:01 8.7 C 5.88 g/m*3 8.7 C 0 km/h
2394 23-04-2007 05:25:02 8.5 C 5.89 g/m*3 8.5 C 0 km/h
2395 23-04-2007 05:40:02 8.3 C 5.82 g/m*3 8.3 C 0 km/h
2396 23-04-2007 05:55:02 8.1 C 5.74 g/m*3 8.1 C 0 km/h
2397 23-04-2007 06:10:01 8.1 C 5.82 g/m*3 8.1 C 0 km/h
2398 23-04-2007 06:25:02 7.9 C 5.83 g/m*3 7.9 C 0 km/h
2399 23-04-2007 06:40:01 7.6 C 5.88 g/m*3 7.6 C 0 km/h
2400 23-04-2007 06:55:02 7.5 C 5.92 g/m*3 7.5 C 0 km/h
Sensor: Nr:Datum:Temp:Abs-Feuchte:Windchill:Wind:
Aussen-T/F 2401 23-04-2007 07:10:02 7.5 C 6 g/m*3 7.5 C 0 km/h
2402 23-04-2007 07:25:02 7.3 C 6 g/m*3 7.3 C 0 km/h
2403 23-04-2007 07:40:01 7.5 C 6 g/m*3 7.5 C 0 km/h
2404 23-04-2007 07:55:02 7.9 C 6.16 g/m*3 7.9 C 0 km/h
2405 23-04-2007 08:10:02 8.2 C 6.03 g/m*3 8.2 C 0 km/h
2406 23-04-2007 08:25:01 8.6 C 6.19 g/m*3 8.6 C 0 km/h
2407 23-04-2007 08:40:02 9.2 C 5.98 g/m*3 9.2 C 0 km/h
2408 23-04-2007 08:55:01 9.5 C 6.19 g/m*3 9.5 C 0 km/h
2409 23-04-2007 09:10:02 9.9 C 6.16 g/m*3 9.9 C 0 km/h
2410 23-04-2007 09:25:01 10.5 C 6.21 g/m*3 10.5 C 0 km/h
2411 23-04-2007 09:40:01 11.3 C 6.32 g/m*3 11.3 C 0 km/h
2412 23-04-2007 09:55:01 12.3 C 6.52 g/m*3 12.3 C 0 km/h
2413 23-04-2007 10:10:01 13.2 C 6.66 g/m*3 13.2 C 0 km/h
2414 23-04-2007 10:25:02 14.2 C 6.72 g/m*3 14.2 C 0 km/h
2415 23-04-2007 10:40:01 15.3 C 6.4 g/m*3 15.3 C 0 km/h
2416 23-04-2007 10:55:02 16.1 C 6.17 g/m*3 16.1 C 0 km/h
2417 23-04-2007 11:10:01 16.9 C 6.18 g/m*3 16.9 C 0 km/h
2418 23-04-2007 11:25:02 17.9 C 5.8 g/m*3 17.9 C 0 km/h
2419 23-04-2007 11:40:02 18.8 C 5.8 g/m*3 18.8 C 0 km/h
2420 23-04-2007 11:55:02 19.5 C 4.7 g/m*3 19.5 C 0 km/h
2421 23-04-2007 12:10:02 20.5 C 4.98 g/m*3 20.5 C 0 km/h
2422 23-04-2007 12:25:01 21.8 C 4.8 g/m*3 21.8 C 0 km/h
2423 23-04-2007 12:40:02 21.9 C 4.82 g/m*3 21.9 C 0 km/h
2424 23-04-2007 12:55:01 22.6 C 5.02 g/m*3 22.6 C 0 km/h
2425 23-04-2007 13:10:02 23.4 C 5.26 g/m*3 23.4 C 0 km/h
Sensor: Nr:Datum:Temp:Abs-Feuchte:Windchill:Wind:
Aussen-T/F 2426 23-04-2007 13:25:01 24.4 C 5.34 g/m*3 24.4 C 0 km/h
2427 23-04-2007 13:40:01 24.8 C 5.24 g/m*3 24.8 C 0 km/h
2428 23-04-2007 13:55:01 25 C 4.83 g/m*3 25 C 0 km/h
2429 23-04-2007 14:10:01 25.3 C 4.92 g/m*3 25.3 C 0 km/h
2430 23-04-2007 14:25:02 25.9 C 4.84 g/m*3 25.9 C 0 km/h
2431 23-04-2007 14:40:01 26.7 C 5.06 g/m*3 26.7 C 0 km/h
2432 23-04-2007 14:55:02 26.9 C 5.12 g/m*3 26.9 C 0 km/h
2433 23-04-2007 15:10:01 27.7 C 5.35 g/m*3 27.7 C 0 km/h
2434 23-04-2007 15:25:02 28.1 C 5.47 g/m*3 28.1 C 0 km/h
2435 23-04-2007 15:40:02 27.9 C 5.41 g/m*3 27.9 C 0 km/h
2436 23-04-2007 15:55:02 27.8 C 5.38 g/m*3 27.8 C 0 km/h
2437 23-04-2007 16:10:01 27.6 C 5.32 g/m*3 27.6 C 0 km/h
2438 23-04-2007 16:25:01 28.2 C 5.5 g/m*3 28.2 C 0 km/h
2439 23-04-2007 16:40:02 28.1 C 5.47 g/m*3 28.1 C 0 km/h
2440 23-04-2007 16:55:01 28.8 C 5.68 g/m*3 28.8 C 0 km/h
2441 23-04-2007 17:10:02 27.8 C 5.38 g/m*3 27.8 C 0 km/h
2442 23-04-2007 17:25:01 28.9 C 5.71 g/m*3 28.9 C 0 km/h
2443 23-04-2007 17:40:01 29.3 C 5.84 g/m*3 29.3 C 0 km/h
2444 23-04-2007 17:55:01 28.3 C 5.53 g/m*3 28.3 C 0 km/h
2445 23-04-2007 18:10:01 27.1 C 5.18 g/m*3 27.1 C 0 km/h
2446 23-04-2007 18:25:02 26.6 C 5.03 g/m*3 26.6 C 0 km/h
2447 23-04-2007 18:40:01 26.1 C 5.63 g/m*3 26.1 C 0 km/h
2448 23-04-2007 18:55:02 25.1 C 6.02 g/m*3 25.1 C 0 km/h
2449 23-04-2007 19:10:01 24.3 C 6.2 g/m*3 24.3 C 0 km/h
2450 23-04-2007 19:25:01 23.7 C 6.42 g/m*3 23.7 C 0 km/h
Sensor: Nr:Datum:Temp:Abs-Feuchte:Windchill:Wind:
Aussen-T/F 2451 23-04-2007 19:40:02 23.1 C 6.2 g/m*3 23.1 C 0 km/h
2452 23-04-2007 19:55:01 22.6 C 6.23 g/m*3 22.6 C 0 km/h
2453 23-04-2007 20:10:02 22 C 6.02 g/m*3 22 C 0 km/h
2454 23-04-2007 20:25:01 21.9 C 6.18 g/m*3 21.9 C 0 km/h
2455 23-04-2007 20:40:01 21.7 C 6.29 g/m*3 21.7 C 0 km/h
2456 23-04-2007 20:55:01 21.1 C 6.08 g/m*3 21.1 C 0 km/h
2457 23-04-2007 21:10:02 20.9 C 6.37 g/m*3 20.9 C 0 km/h
2458 23-04-2007 21:25:02 21 C 6.23 g/m*3 21 C 0 km/h
2459 23-04-2007 21:40:02 20.4 C 6.37 g/m*3 20.4 C 0 km/h
2460 23-04-2007 21:55:01 20.1 C 6.26 g/m*3 20.1 C 0 km/h
2461 23-04-2007 22:10:01 20 C 6.39 g/m*3 20 C 0 km/h
2462 23-04-2007 22:25:02 19.7 C 6.45 g/m*3 19.7 C 0 km/h
2463 23-04-2007 22:40:01 19.4 C 6.67 g/m*3 19.4 C 0 km/h
2464 23-04-2007 22:55:02 19.1 C 6.56 g/m*3 19.1 C 0 km/h
2465 23-04-2007 23:10:01 19 C 6.68 g/m*3 19 C 0 km/h
2466 23-04-2007 23:25:01 19 C 6.68 g/m*3 19 C 0 km/h
2467 23-04-2007 23:40:02 18.7 C 6.88 g/m*3 18.7 C 0 km/h
2468 23-04-2007 23:55:01 18.3 C 7.04 g/m*3 18.3 C 0 km/h
2469 24-04-2007 00:10:02 18.2 C 7.15 g/m*3 18.2 C 0 km/h
2470 24-04-2007 00:25:02 18.1 C 7.26 g/m*3 18.1 C 0 km/h
2471 24-04-2007 00:40:02 18 C 7.37 g/m*3 18 C 0 km/h
2472 24-04-2007 00:55:02 17.8 C 7.44 g/m*3 17.8 C 0 km/h
2473 24-04-2007 01:10:01 17.5 C 7.31 g/m*3 17.5 C 0 km/h
2474 24-04-2007 01:25:01 17.3 C 7.51 g/m*3 17.3 C 0 km/h
2475 24-04-2007 01:40:02 17 C 7.38 g/m*3 17 C 0 km/h
Sensor: Nr:Datum:Temp:Abs-Feuchte:Windchill:Wind:
Aussen-T/F 2476 24-04-2007 01:55:01 16.6 C 7.63 g/m*3 16.6 C 0 km/h
2477 24-04-2007 02:10:01 16.4 C 7.82 g/m*3 16.4 C 0 km/h
2478 24-04-2007 02:25:02 16 C 7.9 g/m*3 16 C 0 km/h
2479 24-04-2007 02:40:02 15.8 C 8.08 g/m*3 15.8 C 0 km/h
2480 24-04-2007 02:55:01 15.9 C 8.13 g/m*3 15.9 C 0 km/h
2481 24-04-2007 03:10:01 15.7 C 8.16 g/m*3 15.7 C 0 km/h
2482 24-04-2007 03:25:02 15.7 C 8.16 g/m*3 15.7 C 0 km/h
2483 24-04-2007 03:40:02 15.7 C 8.16 g/m*3 15.7 C 0 km/h
2484 24-04-2007 03:55:02 15.6 C 8.25 g/m*3 15.6 C 0 km/h
2485 24-04-2007 04:10:01 15.4 C 8.15 g/m*3 15.4 C 0 km/h
2486 24-04-2007 04:25:01 15.5 C 8.2 g/m*3 15.5 C 0 km/h
2487 24-04-2007 04:40:02 15.4 C 8.28 g/m*3 15.4 C 0 km/h
2488 24-04-2007 04:55:02 15.3 C 8.23 g/m*3 15.3 C 0 km/h
2489 24-04-2007 05:10:02 15.2 C 8.18 g/m*3 15.2 C 0 km/h
2490 24-04-2007 05:25:02 15.2 C 8.18 g/m*3 15.2 C 0 km/h
2491 24-04-2007 05:40:02 15.1 C 8.26 g/m*3 15.1 C 0 km/h
2492 24-04-2007 05:55:02 15.1 C 8.26 g/m*3 15.1 C 0 km/h
2493 24-04-2007 06:10:01 14.8 C 8.36 g/m*3 14.8 C 0 km/h
2494 24-04-2007 06:25:01 14.4 C 8.28 g/m*3 14.4 C 0 km/h
2495 24-04-2007 06:40:02 14.2 C 8.3 g/m*3 14.2 C 0 km/h
2496 24-04-2007 06:55:01 14.2 C 8.43 g/m*3 14.2 C 0 km/h
2497 24-04-2007 07:10:02 14.2 C 8.43 g/m*3 14.2 C 0 km/h
2498 24-04-2007 07:25:01 14.2 C 8.55 g/m*3 14.2 C 0 km/h
2499 24-04-2007 07:40:01 14.1 C 8.5 g/m*3 14.1 C 0 km/h
2500 24-04-2007 07:55:01 14.2 C 8.55 g/m*3 14.2 C 0 km/h
Sensor: Nr:Datum:Temp:Abs-Feuchte:Windchill:Wind:
Aussen-T/F 2501 24-04-2007 08:10:01 14.9 C 8.67 g/m*3 14.9 C 0 km/h
2502 24-04-2007 08:25:02 15.5 C 8.59 g/m*3 15.5 C 0 km/h
2503 24-04-2007 08:40:01 16 C 8.31 g/m*3 16 C 0 km/h
2504 24-04-2007 08:55:02 16.5 C 8.28 g/m*3 16.5 C 0 km/h
2505 24-04-2007 09:10:01 16.1 C 8.5 g/m*3 16.1 C 0 km/h
2506 24-04-2007 09:25:01 16.2 C 8.55 g/m*3 16.2 C 0 km/h
2507 24-04-2007 09:40:02 16.4 C 8.79 g/m*3 16.4 C 0 km/h
2508 24-04-2007 09:55:01 16.7 C 8.81 g/m*3 16.7 C 0 km/h
2509 24-04-2007 10:10:02 17.3 C 8.54 g/m*3 17.3 C 0 km/h
2510 24-04-2007 10:25:01 18 C 8.45 g/m*3 18 C 0 km/h
2511 24-04-2007 10:40:02 18.7 C 7.84 g/m*3 18.7 C 0 km/h
2512 24-04-2007 10:55:01 19.6 C 7.93 g/m*3 19.6 C 0 km/h
2513 24-04-2007 11:10:02 20.4 C 7.61 g/m*3 20.4 C 0 km/h
2514 24-04-2007 11:25:01 21.2 C 7.6 g/m*3 21.2 C 0 km/h
2515 24-04-2007 11:40:01 22 C 7.18 g/m*3 22 C 0 km/h
2516 24-04-2007 11:55:01 22.7 C 6.47 g/m*3 22.7 C 0 km/h
2517 24-04-2007 12:10:01 23.3 C 6.06 g/m*3 23.3 C 0 km/h
2518 24-04-2007 12:25:02 24.1 C 5.91 g/m*3 24.1 C 0 km/h
2519 24-04-2007 12:40:01 24.2 C 6.38 g/m*3 24.2 C 0 km/h
2520 24-04-2007 12:55:02 25.1 C 5.79 g/m*3 25.1 C 0 km/h
2521 24-04-2007 13:10:01 26 C 6.57 g/m*3 26 C 0 km/h
2522 24-04-2007 13:25:01 26.6 C 6.54 g/m*3 26.6 C 0 km/h
2523 24-04-2007 13:40:02 27 C 6.43 g/m*3 27 C 0 km/h
2524 24-04-2007 13:55:01 27.1 C 6.73 g/m*3 27.1 C 0 km/h
2525 24-04-2007 14:10:02 27.1 C 6.47 g/m*3 27.1 C 0 km/h
Sensor: Nr:Datum:Temp:Abs-Feuchte:Windchill:Wind:
Aussen-T/F 2526 24-04-2007 14:25:01 27.7 C 6.69 g/m*3 27.7 C 0 km/h
2527 24-04-2007 14:40:01 28.3 C 6.63 g/m*3 28.3 C 0 km/h
2528 24-04-2007 14:55:01 29 C 6.61 g/m*3 29 C 0 km/h
2529 24-04-2007 15:10:01 29.4 C 6.75 g/m*3 29.4 C 0 km/h
2530 24-04-2007 15:25:02 29 C 6.03 g/m*3 29 C 0 km/h
2531 24-04-2007 15:40:01 29.1 C 6.06 g/m*3 29.1 C 0 km/h
2532 24-04-2007 15:55:02 29 C 6.03 g/m*3 29 C 0 km/h
2533 24-04-2007 16:10:01 29.7 C 6.56 g/m*3 29.7 C 0 km/h
2534 24-04-2007 16:25:02 29.5 C 6.2 g/m*3 29.5 C 0 km/h
2535 24-04-2007 16:40:02 29.8 C 6.3 g/m*3 29.8 C 0 km/h
2536 24-04-2007 16:55:02 29.7 C 6.56 g/m*3 29.7 C 0 km/h
2537 24-04-2007 17:10:02 29.5 C 6.49 g/m*3 29.5 C 0 km/h
2538 24-04-2007 17:25:01 29.3 C 6.13 g/m*3 29.3 C 0 km/h
2539 24-04-2007 17:40:02 28.8 C 5.97 g/m*3 28.8 C 0 km/h
2540 24-04-2007 17:55:01 29 C 6.03 g/m*3 29 C 0 km/h
2541 24-04-2007 18:10:02 28.6 C 6.18 g/m*3 28.6 C 0 km/h
2542 24-04-2007 18:25:01 28.2 C 6.32 g/m*3 28.2 C 0 km/h
2543 24-04-2007 18:40:01 27.6 C 7.18 g/m*3 27.6 C 0 km/h
2544 24-04-2007 18:55:01 26.7 C 7.59 g/m*3 26.7 C 0 km/h
2545 24-04-2007 19:10:01 26.1 C 7.34 g/m*3 26.1 C 0 km/h
2546 24-04-2007 19:25:02 25.3 C 7.49 g/m*3 25.3 C 0 km/h
2547 24-04-2007 19:40:01 24.8 C 7.51 g/m*3 24.8 C 0 km/h
2548 24-04-2007 19:55:02 24.5 C 7.39 g/m*3 24.5 C 0 km/h
2549 24-04-2007 20:10:01 24.1 C 7.44 g/m*3 24.1 C 0 km/h
2550 24-04-2007 20:25:01 23.4 C 7.57 g/m*3 23.4 C 0 km/h
Sensor: Nr:Datum:Temp:Abs-Feuchte:Windchill:Wind:
Aussen-T/F 2551 24-04-2007 20:40:02 22.9 C 7.77 g/m*3 22.9 C 0 km/h
2552 24-04-2007 20:55:01 22.3 C 7.5 g/m*3 22.3 C 0 km/h
2553 24-04-2007 21:10:01 21.4 C 7.69 g/m*3 21.4 C 0 km/h
2554 24-04-2007 21:25:02 21 C 7.69 g/m*3 21 C 0 km/h
2555 24-04-2007 21:40:01 20.9 C 7.83 g/m*3 20.9 C 0 km/h
2556 24-04-2007 21:55:02 20.8 C 7.79 g/m*3 20.8 C 0 km/h
2557 24-04-2007 22:11:01 20.6 C 7.87 g/m*3 20.6 C 0 km/h
2558 24-04-2007 22:23:02 20.5 C 8.01 g/m*3 20.5 C 0 km/h
2559 24-04-2007 22:35:02 20.2 C 7.87 g/m*3 20.2 C 0 km/h
2560 24-04-2007 22:47:02 19.9 C 7.9 g/m*3 19.9 C 0 km/h
2561 24-04-2007 22:59:02 19.7 C 8.15 g/m*3 19.7 C 0 km/h
2562 24-04-2007 23:11:02 19.3 C 7.96 g/m*3 19.3 C 0 km/h
2563 24-04-2007 23:23:01 19.1 C 8.03 g/m*3 19.1 C 0 km/h
2564 24-04-2007 23:35:01 18.9 C 8.1 g/m*3 18.9 C 0 km/h
2565 24-04-2007 23:47:01 18.7 C 8.01 g/m*3 18.7 C 0 km/h
2566 24-04-2007 23:59:01 18.6 C 8.12 g/m*3 18.6 C 0 km/h
2567 25-04-2007 00:11:01 18.5 C 8.23 g/m*3 18.5 C 0 km/h
2568 25-04-2007 00:23:02 18.3 C 8.29 g/m*3 18.3 C 0 km/h
2569 25-04-2007 00:35:02 18 C 8.14 g/m*3 18 C 0 km/h
2570 25-04-2007 00:47:02 17.4 C 8.15 g/m*3 17.4 C 0 km/h
2571 25-04-2007 00:59:02 17.2 C 8.35 g/m*3 17.2 C 0 km/h
2572 25-04-2007 01:11:02 17.2 C 8.35 g/m*3 17.2 C 0 km/h
2573 25-04-2007 01:23:02 17 C 8.25 g/m*3 17 C 0 km/h
2574 25-04-2007 01:35:02 16.8 C 8.58 g/m*3 16.8 C 0 km/h
2575 25-04-2007 01:47:01 16.5 C 8.28 g/m*3 16.5 C 0 km/h
Sensor: Nr:Datum:Temp:Abs-Feuchte:Windchill:Wind:
Aussen-T/F 2576 25-04-2007 01:59:01 16.3 C 8.32 g/m*3 16.3 C 0 km/h
2577 25-04-2007 02:11:02 15.9 C 8.67 g/m*3 15.9 C 0 km/h
2578 25-04-2007 02:23:02 15.8 C 8.62 g/m*3 15.8 C 0 km/h
2579 25-04-2007 02:35:02 15.7 C 8.7 g/m*3 15.7 C 0 km/h
2580 25-04-2007 02:47:02 15.5 C 8.59 g/m*3 15.5 C 0 km/h
2581 25-04-2007 02:59:02 15.5 C 8.86 g/m*3 15.5 C 0 km/h
2582 25-04-2007 03:11:01 15.7 C 8.83 g/m*3 15.7 C 0 km/h
2583 25-04-2007 03:23:01 15.8 C 8.88 g/m*3 15.8 C 0 km/h
2584 25-04-2007 03:35:01 15.7 C 8.7 g/m*3 15.7 C 0 km/h
2585 25-04-2007 03:47:01 15.7 C 8.7 g/m*3 15.7 C 0 km/h
2586 25-04-2007 03:59:02 15.5 C 8.72 g/m*3 15.5 C 0 km/h
2587 25-04-2007 04:11:01 15.5 C 8.86 g/m*3 15.5 C 0 km/h
2588 25-04-2007 04:23:02 15.4 C 8.8 g/m*3 15.4 C 0 km/h
2589 25-04-2007 04:35:02 15.4 C 8.8 g/m*3 15.4 C 0 km/h
2590 25-04-2007 04:47:01 15.5 C 8.86 g/m*3 15.5 C 0 km/h
2591 25-04-2007 04:59:02 15.4 C 8.8 g/m*3 15.4 C 0 km/h
2592 25-04-2007 05:11:01 15.3 C 8.88 g/m*3 15.3 C 0 km/h
2593 25-04-2007 05:23:02 15.3 C 8.88 g/m*3 15.3 C 0 km/h
2594 25-04-2007 05:35:02 15.2 C 8.83 g/m*3 15.2 C 0 km/h
2595 25-04-2007 05:47:01 15 C 8.85 g/m*3 15 C 0 km/h
2596 25-04-2007 05:59:01 14.8 C 8.87 g/m*3 14.8 C 0 km/h
2597 25-04-2007 06:11:02 14.7 C 8.81 g/m*3 14.7 C 0 km/h
2598 25-04-2007 06:23:01 14.5 C 8.83 g/m*3 14.5 C 0 km/h
2599 25-04-2007 06:35:01 14.7 C 8.94 g/m*3 14.7 C 0 km/h
2600 25-04-2007 06:47:01 14.7 C 8.94 g/m*3 14.7 C 0 km/h
Sensor: Nr:Datum:Temp:Abs-Feuchte:Windchill:Wind:
Aussen-T/F 2601 25-04-2007 06:59:01 14.7 C 9.07 g/m*3 14.7 C 0 km/h
2602 25-04-2007 07:11:01 14.9 C 9.05 g/m*3 14.9 C 0 km/h
2603 25-04-2007 07:23:02 14.9 C 9.18 g/m*3 14.9 C 0 km/h
2604 25-04-2007 07:35:01 15.1 C 9.16 g/m*3 15.1 C 0 km/h
2605 25-04-2007 07:47:02 15.3 C 9.27 g/m*3 15.3 C 0 km/h
2606 25-04-2007 07:59:02 15.8 C 9.42 g/m*3 15.8 C 0 km/h
2607 25-04-2007 08:11:01 16 C 9.13 g/m*3 16 C 0 km/h
2608 25-04-2007 08:23:01 16.3 C 9.16 g/m*3 16.3 C 0 km/h
2609 25-04-2007 08:35:02 16.2 C 9.1 g/m*3 16.2 C 0 km/h
2610 25-04-2007 08:47:01 16.4 C 9.21 g/m*3 16.4 C 0 km/h
2611 25-04-2007 08:59:01 16.6 C 9.32 g/m*3 16.6 C 0 km/h
2612 25-04-2007 09:11:02 16.8 C 9.15 g/m*3 16.8 C 0 km/h
2613 25-04-2007 09:23:01 17.6 C 9.3 g/m*3 17.6 C 0 km/h
2614 25-04-2007 09:35:01 18 C 9.06 g/m*3 18 C 0 km/h
2615 25-04-2007 09:47:01 18.5 C 9.33 g/m*3 18.5 C 0 km/h
2616 25-04-2007 09:59:01 19.1 C 9.34 g/m*3 19.1 C 0 km/h
2617 25-04-2007 10:11:01 19.8 C 9.22 g/m*3 19.8 C 0 km/h
2618 25-04-2007 10:23:02 20.5 C 9.07 g/m*3 20.5 C 0 km/h
2619 25-04-2007 10:35:01 21.2 C 8.71 g/m*3 21.2 C 0 km/h
2620 25-04-2007 10:47:02 21.8 C 8.83 g/m*3 21.8 C 0 km/h
2621 25-04-2007 10:59:02 22.3 C 8.49 g/m*3 22.3 C 0 km/h
2622 25-04-2007 11:11:01 22.7 C 8.69 g/m*3 22.7 C 0 km/h
2623 25-04-2007 11:23:01 23.2 C 8.52 g/m*3 23.2 C 0 km/h
2624 25-04-2007 11:35:02 23.9 C 8.44 g/m*3 23.9 C 0 km/h
2625 25-04-2007 11:47:01 24.4 C 8.23 g/m*3 24.4 C 0 km/h
Sensor: Nr:Datum:Temp:Abs-Feuchte:Windchill:Wind:
Aussen-T/F 2626 25-04-2007 11:59:01 24.7 C 8.15 g/m*3 24.7 C 0 km/h
2627 25-04-2007 12:11:02 25.1 C 8.1 g/m*3 25.1 C 0 km/h
2628 25-04-2007 12:23:02 25.3 C 8.19 g/m*3 25.3 C 0 km/h
2629 25-04-2007 12:35:01 26 C 8.03 g/m*3 26 C 0 km/h
2630 25-04-2007 12:47:01 26.3 C 7.67 g/m*3 26.3 C 0 km/h
2631 25-04-2007 12:59:02 26.8 C 7.13 g/m*3 26.8 C 0 km/h
2632 25-04-2007 13:11:01 27.6 C 6.92 g/m*3 27.6 C 0 km/h
2633 25-04-2007 13:23:02 27.8 C 6.72 g/m*3 27.8 C 0 km/h
2634 25-04-2007 13:35:01 27.1 C 6.47 g/m*3 27.1 C 0 km/h
2635 25-04-2007 13:47:02 27.5 C 6.61 g/m*3 27.5 C 0 km/h
2636 25-04-2007 13:59:02 28.5 C 6.43 g/m*3 28.5 C 0 km/h
2637 25-04-2007 14:11:01 28.8 C 5.97 g/m*3 28.8 C 0 km/h
2638 25-04-2007 14:23:01 28.7 C 5.93 g/m*3 28.7 C 0 km/h
2639 25-04-2007 14:35:02 29.3 C 6.13 g/m*3 29.3 C 0 km/h
2640 25-04-2007 14:47:01 29.6 C 5.94 g/m*3 29.6 C 0 km/h
2641 25-04-2007 14:59:01 30.2 C 6.13 g/m*3 30.2 C 0 km/h
2642 25-04-2007 15:11:02 30.2 C 6.13 g/m*3 30.2 C 0 km/h
2643 25-04-2007 15:23:01 30.6 C 6.26 g/m*3 30.6 C 0 km/h
2644 25-04-2007 15:35:01 30.9 C 6.37 g/m*3 30.9 C 0 km/h
2645 25-04-2007 15:47:01 30.6 C 6.26 g/m*3 30.6 C 0 km/h
2646 25-04-2007 15:59:01 31.2 C 6.47 g/m*3 31.2 C 0 km/h
2647 25-04-2007 16:11:01 31 C 6.4 g/m*3 31 C 0 km/h
2648 25-04-2007 16:23:02 31.6 C 6.61 g/m*3 31.6 C 0 km/h
2649 25-04-2007 16:35:01 31.4 C 6.54 g/m*3 31.4 C 0 km/h
2650 25-04-2007 16:47:02 31.4 C 6.54 g/m*3 31.4 C 0 km/h
Sensor: Nr:Datum:Temp:Abs-Feuchte:Windchill:Wind:
Aussen-T/F 2651 25-04-2007 16:59:02 31.4 C 6.54 g/m*3 31.4 C 0 km/h
2652 25-04-2007 17:11:02 31.2 C 6.47 g/m*3 31.2 C 0 km/h
2653 25-04-2007 17:23:01 31.2 C 6.47 g/m*3 31.2 C 0 km/h
2654 25-04-2007 17:35:02 30.9 C 6.37 g/m*3 30.9 C 0 km/h
2655 25-04-2007 17:47:01 31.3 C 6.5 g/m*3 31.3 C 0 km/h
2656 25-04-2007 17:59:01 31 C 6.4 g/m*3 31 C 0 km/h
2657 25-04-2007 18:11:01 31.2 C 6.47 g/m*3 31.2 C 0 km/h
2658 25-04-2007 18:23:01 31.2 C 6.47 g/m*3 31.2 C 0 km/h
2659 25-04-2007 18:35:01 31.3 C 6.5 g/m*3 31.3 C 0 km/h
2660 25-04-2007 18:47:01 31.1 C 6.43 g/m*3 31.1 C 0 km/h
2661 25-04-2007 18:59:01 31 C 6.4 g/m*3 31 C 0 km/h
2662 25-04-2007 19:11:02 30.7 C 6.3 g/m*3 30.7 C 0 km/h
2663 25-04-2007 19:23:01 30.6 C 6.26 g/m*3 30.6 C 0 km/h
2664 25-04-2007 19:35:02 30.3 C 6.16 g/m*3 30.3 C 0 km/h
2665 25-04-2007 19:47:02 29.4 C 6.46 g/m*3 29.4 C 0 km/h
2666 25-04-2007 19:59:02 28.4 C 6.67 g/m*3 28.4 C 0 km/h
2667 25-04-2007 20:11:01 26.9 C 6.91 g/m*3 26.9 C 0 km/h
2668 25-04-2007 20:23:01 25.5 C 6.87 g/m*3 25.5 C 0 km/h
2669 25-04-2007 20:35:02 24.4 C 6.9 g/m*3 24.4 C 0 km/h
2670 25-04-2007 20:47:01 24 C 6.96 g/m*3 24 C 0 km/h
2671 25-04-2007 20:59:01 23.7 C 7.27 g/m*3 23.7 C 0 km/h
2672 25-04-2007 21:11:02 23.1 C 7.23 g/m*3 23.1 C 0 km/h
2673 25-04-2007 21:23:02 22.6 C 7.23 g/m*3 22.6 C 0 km/h
2674 25-04-2007 21:35:01 22.3 C 7.31 g/m*3 22.3 C 0 km/h
2675 25-04-2007 21:47:02 22 C 7.18 g/m*3 22 C 0 km/h
Sensor: Nr:Datum:Temp:Abs-Feuchte:Windchill:Wind:
Aussen-T/F 2676 25-04-2007 21:59:02 21.6 C 7.4 g/m*3 21.6 C 0 km/h
2677 25-04-2007 22:11:01 21.5 C 7.35 g/m*3 21.5 C 0 km/h
2678 25-04-2007 22:23:01 21.2 C 7.41 g/m*3 21.2 C 0 km/h
2679 25-04-2007 22:35:02 21 C 7.51 g/m*3 21 C 0 km/h
2680 25-04-2007 22:47:01 20.8 C 7.6 g/m*3 20.8 C 0 km/h
2681 25-04-2007 22:59:01 20.7 C 7.56 g/m*3 20.7 C 0 km/h
2682 25-04-2007 23:11:02 20.9 C 7.65 g/m*3 20.9 C 0 km/h
2683 25-04-2007 23:23:02 20.5 C 7.65 g/m*3 20.5 C 0 km/h
2684 25-04-2007 23:35:01 20.2 C 7.52 g/m*3 20.2 C 0 km/h
2685 25-04-2007 23:47:02 19.8 C 7.69 g/m*3 19.8 C 0 km/h
2686 25-04-2007 23:59:02 19.7 C 7.64 g/m*3 19.7 C 0 km/h
2687 26-04-2007 00:11:01 19.5 C 7.55 g/m*3 19.5 C 0 km/h
2688 26-04-2007 00:23:02 19.3 C 7.46 g/m*3 19.3 C 0 km/h
2689 26-04-2007 00:35:01 19.1 C 7.54 g/m*3 19.1 C 0 km/h
2690 26-04-2007 00:47:02 18.7 C 7.52 g/m*3 18.7 C 0 km/h
2691 26-04-2007 00:59:02 18.5 C 7.75 g/m*3 18.5 C 0 km/h
2692 26-04-2007 01:11:02 18.2 C 7.77 g/m*3 18.2 C 0 km/h
2693 26-04-2007 01:23:01 17.9 C 7.79 g/m*3 17.9 C 0 km/h
2694 26-04-2007 01:35:01 17.6 C 7.8 g/m*3 17.6 C 0 km/h
2695 26-04-2007 01:47:02 17.3 C 7.96 g/m*3 17.3 C 0 km/h
2696 26-04-2007 01:59:02 16.8 C 8.15 g/m*3 16.8 C 0 km/h
2697 26-04-2007 02:11:02 16.6 C 8.19 g/m*3 16.6 C 0 km/h
2698 26-04-2007 02:23:02 16.2 C 8.14 g/m*3 16.2 C 0 km/h
2699 26-04-2007 02:35:02 15.8 C 8.08 g/m*3 15.8 C 0 km/h
2700 26-04-2007 02:47:01 15.7 C 8.03 g/m*3 15.7 C 0 km/h
Sensor: Nr:Datum:Temp:Abs-Feuchte:Windchill:Wind:
Aussen-T/F 2701 26-04-2007 02:59:02 15.4 C 8.01 g/m*3 15.4 C 0 km/h
2702 26-04-2007 03:11:02 15.2 C 7.92 g/m*3 15.2 C 0 km/h
2703 26-04-2007 03:23:02 15.1 C 8 g/m*3 15.1 C 0 km/h
2704 26-04-2007 03:35:02 14.8 C 8.11 g/m*3 14.8 C 0 km/h
2705 26-04-2007 03:47:02 14.7 C 8.06 g/m*3 14.7 C 0 km/h
2706 26-04-2007 03:59:02 14.2 C 8.18 g/m*3 14.2 C 0 km/h
2707 26-04-2007 04:11:01 14.2 C 8.18 g/m*3 14.2 C 0 km/h
2708 26-04-2007 04:23:01 14.1 C 8.13 g/m*3 14.1 C 0 km/h
2709 26-04-2007 04:35:01 13.9 C 8.15 g/m*3 13.9 C 0 km/h
2710 26-04-2007 04:47:01 13.7 C 8.05 g/m*3 13.7 C 0 km/h
2711 26-04-2007 04:59:01 13.5 C 8.07 g/m*3 13.5 C 0 km/h
2712 26-04-2007 05:11:01 13.3 C 7.97 g/m*3 13.3 C 0 km/h
2713 26-04-2007 05:23:02 13.2 C 7.92 g/m*3 13.2 C 0 km/h
2714 26-04-2007 05:35:02 13 C 7.94 g/m*3 13 C 0 km/h
2715 26-04-2007 05:47:01 12.9 C 8.11 g/m*3 12.9 C 0 km/h
2716 26-04-2007 05:59:01 12.7 C 8.01 g/m*3 12.7 C 0 km/h
2717 26-04-2007 06:11:02 12.5 C 7.92 g/m*3 12.5 C 0 km/h
2718 26-04-2007 06:23:02 12.4 C 8.09 g/m*3 12.4 C 0 km/h
2719 26-04-2007 06:35:01 12.3 C 8.04 g/m*3 12.3 C 0 km/h
2720 26-04-2007 06:47:02 12.3 C 8.04 g/m*3 12.3 C 0 km/h
2721 26-04-2007 06:59:02 12.3 C 8.04 g/m*3 12.3 C 0 km/h
2722 26-04-2007 07:11:01 12.2 C 7.99 g/m*3 12.2 C 0 km/h
2723 26-04-2007 07:23:01 12.4 C 8.19 g/m*3 12.4 C 0 km/h
2724 26-04-2007 07:35:02 12.3 C 8.14 g/m*3 12.3 C 0 km/h
2725 26-04-2007 07:47:02 12.5 C 8.25 g/m*3 12.5 C 0 km/h
Sensor: Nr:Datum:Temp:Abs-Feuchte:Windchill:Wind:
Aussen-T/F 2726 26-04-2007 07:59:02 12.5 C 8.25 g/m*3 12.5 C 0 km/h
2727 26-04-2007 08:11:02 12.9 C 8.57 g/m*3 12.9 C 0 km/h
2728 26-04-2007 08:23:01 13.2 C 8.38 g/m*3 13.2 C 0 km/h
2729 26-04-2007 08:35:01 13.7 C 8.41 g/m*3 13.7 C 0 km/h
2730 26-04-2007 08:47:01 13.8 C 8.34 g/m*3 13.8 C 0 km/h
2731 26-04-2007 08:59:01 14 C 8.44 g/m*3 14 C 0 km/h
2732 26-04-2007 09:11:01 14.5 C 8.58 g/m*3 14.5 C 0 km/h
2733 26-04-2007 09:23:02 15.1 C 8.64 g/m*3 15.1 C 0 km/h
2734 26-04-2007 09:35:01 15.5 C 8.59 g/m*3 15.5 C 0 km/h
2735 26-04-2007 09:47:02 16.1 C 8.64 g/m*3 16.1 C 0 km/h
2736 26-04-2007 09:59:02 16.6 C 8.9 g/m*3 16.6 C 0 km/h
2737 26-04-2007 10:11:01 17.5 C 8.8 g/m*3 17.5 C 0 km/h
2738 26-04-2007 10:23:01 18.4 C 8.34 g/m*3 18.4 C 0 km/h
2739 26-04-2007 10:35:02 19.7 C 7.98 g/m*3 19.7 C 0 km/h
2740 26-04-2007 10:47:01 20.3 C 7.39 g/m*3 20.3 C 0 km/h
2741 26-04-2007 10:59:01 20.8 C 7.06 g/m*3 20.8 C 0 km/h
2742 26-04-2007 11:11:02 21.5 C 6.98 g/m*3 21.5 C 0 km/h
2743 26-04-2007 11:23:01 22 C 6.6 g/m*3 22 C 0 km/h
2744 26-04-2007 11:35:01 22.4 C 6.75 g/m*3 22.4 C 0 km/h
2745 26-04-2007 11:47:01 22.8 C 6.71 g/m*3 22.8 C 0 km/h
2746 26-04-2007 11:59:01 23.4 C 6.52 g/m*3 23.4 C 0 km/h
2747 26-04-2007 12:11:01 23.4 C 6.52 g/m*3 23.4 C 0 km/h
2748 26-04-2007 12:23:02 24.1 C 5.91 g/m*3 24.1 C 0 km/h
2749 26-04-2007 12:35:01 24.5 C 6.04 g/m*3 24.5 C 0 km/h
2750 26-04-2007 12:47:02 24.8 C 5.92 g/m*3 24.8 C 0 km/h
Sensor: Nr:Datum:Temp:Abs-Feuchte:Windchill:Wind:
Aussen-T/F 2751 26-04-2007 12:59:02 25.3 C 5.38 g/m*3 25.3 C 0 km/h
2752 26-04-2007 13:11:01 25.7 C 5.03 g/m*3 25.7 C 0 km/h
2753 26-04-2007 13:23:01 26.1 C 4.9 g/m*3 26.1 C 0 km/h
2754 26-04-2007 13:35:02 26.8 C 5.09 g/m*3 26.8 C 0 km/h
2755 26-04-2007 13:47:01 26.9 C 5.12 g/m*3 26.9 C 0 km/h
2756 26-04-2007 13:59:01 27.2 C 5.2 g/m*3 27.2 C 0 km/h
2757 26-04-2007 14:11:02 27.5 C 5.29 g/m*3 27.5 C 0 km/h
2758 26-04-2007 14:23:01 27.9 C 5.41 g/m*3 27.9 C 0 km/h
2759 26-04-2007 14:35:01 28.8 C 5.68 g/m*3 28.8 C 0 km/h
2760 26-04-2007 14:47:01 29.2 C 5.81 g/m*3 29.2 C 0 km/h
2761 26-04-2007 14:59:01 29.7 C 5.97 g/m*3 29.7 C 0 km/h
2762 26-04-2007 15:11:01 29.8 C 6 g/m*3 29.8 C 0 km/h
2763 26-04-2007 15:23:02 30.1 C 6.1 g/m*3 30.1 C 0 km/h
2764 26-04-2007 15:35:01 30.6 C 6.26 g/m*3 30.6 C 0 km/h
2765 26-04-2007 15:47:02 30.5 C 6.23 g/m*3 30.5 C 0 km/h
2766 26-04-2007 15:59:02 30.7 C 6.3 g/m*3 30.7 C 0 km/h
2767 26-04-2007 16:11:02 31 C 6.4 g/m*3 31 C 0 km/h
2768 26-04-2007 16:23:01 31 C 6.4 g/m*3 31 C 0 km/h
2769 26-04-2007 16:35:02 31.4 C 6.54 g/m*3 31.4 C 0 km/h
2770 26-04-2007 16:47:01 31.7 C 6.64 g/m*3 31.7 C 0 km/h
2771 26-04-2007 16:59:01 31.8 C 6.68 g/m*3 31.8 C 0 km/h
2772 26-04-2007 17:11:02 31.8 C 6.68 g/m*3 31.8 C 0 km/h
2773 26-04-2007 17:23:02 31.8 C 6.68 g/m*3 31.8 C 0 km/h
2774 26-04-2007 17:35:02 31.8 C 6.68 g/m*3 31.8 C 0 km/h
2775 26-04-2007 17:47:01 31.5 C 6.57 g/m*3 31.5 C 0 km/h
Sensor: Nr:Datum:Temp:Abs-Feuchte:Windchill:Wind:
Aussen-T/F 2776 26-04-2007 17:59:01 31.6 C 6.61 g/m*3 31.6 C 0 km/h
2777 26-04-2007 18:11:01 31.4 C 6.54 g/m*3 31.4 C 0 km/h
2778 26-04-2007 18:23:02 31.6 C 6.61 g/m*3 31.6 C 0 km/h
2779 26-04-2007 18:35:01 31.5 C 6.57 g/m*3 31.5 C 0 km/h
2780 26-04-2007 18:47:02 31.2 C 6.47 g/m*3 31.2 C 0 km/h
2781 26-04-2007 18:59:02 31.2 C 6.47 g/m*3 31.2 C 0 km/h
2782 26-04-2007 19:11:01 31 C 6.4 g/m*3 31 C 0 km/h
2783 26-04-2007 19:23:01 30.8 C 6.33 g/m*3 30.8 C 0 km/h
2784 26-04-2007 19:35:02 30.4 C 6.2 g/m*3 30.4 C 0 km/h
2785 26-04-2007 19:47:01 30 C 6.06 g/m*3 30 C 0 km/h
2786 26-04-2007 19:59:01 28.6 C 5.62 g/m*3 28.6 C 0 km/h
2787 26-04-2007 20:11:02 27.8 C 5.38 g/m*3 27.8 C 0 km/h
2788 26-04-2007 20:23:01 25.4 C 4.71 g/m*3 25.4 C 0 km/h
2789 26-04-2007 20:35:01 24.5 C 4.48 g/m*3 24.5 C 0 km/h
2790 26-04-2007 20:47:01 23.7 C 4.28 g/m*3 23.7 C 0 km/h
2791 26-04-2007 20:59:01 23 C 4.32 g/m*3 23 C 0 km/h
2792 26-04-2007 21:11:01 22.4 C 4.57 g/m*3 22.4 C 0 km/h
2793 26-04-2007 21:23:02 22 C 4.46 g/m*3 22 C 0 km/h
2794 26-04-2007 21:35:01 21.6 C 4.93 g/m*3 21.6 C 0 km/h
2795 26-04-2007 21:47:02 21.1 C 4.79 g/m*3 21.1 C 0 km/h
2796 26-04-2007 21:59:02 20.7 C 5.22 g/m*3 20.7 C 0 km/h
2797 26-04-2007 22:11:01 20.2 C 5.25 g/m*3 20.2 C 0 km/h
2798 26-04-2007 22:23:01 19.8 C 5.3 g/m*3 19.8 C 0 km/h
2799 26-04-2007 22:35:02 19.6 C 5.4 g/m*3 19.6 C 0 km/h
2800 26-04-2007 22:47:01 19 C 5.7 g/m*3 19 C 0 km/h
Sensor: Nr:Datum:Temp:Abs-Feuchte:Windchill:Wind:
Aussen-T/F 2801 26-04-2007 22:59:01 18.6 C 5.73 g/m*3 18.6 C 0 km/h
2802 26-04-2007 23:11:02 18.4 C 5.66 g/m*3 18.4 C 0 km/h
2803 26-04-2007 23:23:01 18 C 5.68 g/m*3 18 C 0 km/h
2804 26-04-2007 23:35:01 17.8 C 6.07 g/m*3 17.8 C 0 km/h
2805 26-04-2007 23:47:01 17.2 C 6.15 g/m*3 17.2 C 0 km/h
2806 26-04-2007 23:59:01 16.7 C 6.4 g/m*3 16.7 C 0 km/h
2807 27-04-2007 00:11:01 16.4 C 6.14 g/m*3 16.4 C 0 km/h
2808 27-04-2007 00:23:02 16.3 C 6.24 g/m*3 16.3 C 0 km/h
2809 27-04-2007 00:35:01 16 C 6.13 g/m*3 16 C 0 km/h
2810 27-04-2007 00:47:01 16 C 6.27 g/m*3 16 C 0 km/h
2811 27-04-2007 00:59:01 15.7 C 6.29 g/m*3 15.7 C 0 km/h
2812 27-04-2007 01:11:02 15.4 C 6.44 g/m*3 15.4 C 0 km/h
2813 27-04-2007 01:23:02 15 C 6.41 g/m*3 15 C 0 km/h
2814 27-04-2007 01:35:02 14.8 C 6.59 g/m*3 14.8 C 0 km/h
2815 27-04-2007 01:47:01 14.5 C 6.47 g/m*3 14.5 C 0 km/h
2816 27-04-2007 01:59:01 14.2 C 6.47 g/m*3 14.2 C 0 km/h
2817 27-04-2007 02:11:01 14.2 C 6.59 g/m*3 14.2 C 0 km/h
2818 27-04-2007 02:23:02 14.1 C 6.55 g/m*3 14.1 C 0 km/h
2819 27-04-2007 02:35:02 14.1 C 6.55 g/m*3 14.1 C 0 km/h
2820 27-04-2007 02:48:16 13.8 C 6.67 g/m*3 13.8 C 0 km/h
2821 27-04-2007 03:00:16 13.5 C 6.67 g/m*3 13.5 C 0 km/h
2822 27-04-2007 03:12:16 13.5 C 6.67 g/m*3 13.5 C 0 km/h
2823 27-04-2007 03:24:16 13.3 C 6.7 g/m*3 13.3 C 0 km/h
2824 27-04-2007 03:36:02 13 C 6.69 g/m*3 13 C 0 km/h
2825 27-04-2007 03:48:02 12.9 C 6.88 g/m*3 12.9 C 0 km/h
Sensor: Nr:Datum:Temp:Abs-Feuchte:Windchill:Wind:
Aussen-T/F 2826 27-04-2007 04:00:03 12.8 C 6.83 g/m*3 12.8 C 0 km/h
2827 27-04-2007 04:12:02 12.5 C 6.82 g/m*3 12.5 C 0 km/h
2828 27-04-2007 04:24:02 12.3 C 6.84 g/m*3 12.3 C 0 km/h
2829 27-04-2007 04:36:02 12.1 C 6.86 g/m*3 12.1 C 0 km/h
2830 27-04-2007 04:48:02 11.9 C 6.88 g/m*3 11.9 C 0 km/h
2831 27-04-2007 05:00:03 11.9 C 6.88 g/m*3 11.9 C 0 km/h
2832 27-04-2007 05:12:02 11.6 C 6.86 g/m*3 11.6 C 0 km/h
2833 27-04-2007 05:24:02 11.5 C 6.92 g/m*3 11.5 C 0 km/h
2834 27-04-2007 05:36:02 11.3 C 6.83 g/m*3 11.3 C 0 km/h
2835 27-04-2007 05:48:02 11.2 C 6.79 g/m*3 11.2 C 0 km/h
2836 27-04-2007 06:00:02 11 C 6.81 g/m*3 11 C 0 km/h
2837 27-04-2007 06:12:01 10.8 C 6.82 g/m*3 10.8 C 0 km/h
2838 27-04-2007 06:24:01 10.8 C 6.82 g/m*3 10.8 C 0 km/h
2839 27-04-2007 06:36:02 10.6 C 6.83 g/m*3 10.6 C 0 km/h
2840 27-04-2007 06:48:02 10.5 C 6.98 g/m*3 10.5 C 0 km/h
2841 27-04-2007 07:00:02 10.5 C 6.98 g/m*3 10.5 C 0 km/h
2842 27-04-2007 07:12:03 10.6 C 7.03 g/m*3 10.6 C 0 km/h
2843 27-04-2007 07:24:02 10.7 C 7.07 g/m*3 10.7 C 0 km/h
2844 27-04-2007 07:36:02 10.7 C 7.07 g/m*3 10.7 C 0 km/h
2845 27-04-2007 07:48:02 10.9 C 7.16 g/m*3 10.9 C 0 km/h
2846 27-04-2007 08:00:02 11 C 7.11 g/m*3 11 C 0 km/h
2847 27-04-2007 08:12:02 11.3 C 7.24 g/m*3 11.3 C 0 km/h
2848 27-04-2007 08:24:02 11.7 C 7.43 g/m*3 11.7 C 0 km/h
2849 27-04-2007 08:36:02 11.9 C 7.41 g/m*3 11.9 C 0 km/h
2850 27-04-2007 08:48:01 12.1 C 7.29 g/m*3 12.1 C 0 km/h
Sensor: Nr:Datum:Temp:Abs-Feuchte:Windchill:Wind:
Aussen-T/F 2851 27-04-2007 09:00:01 12.4 C 7.32 g/m*3 12.4 C 0 km/h
2852 27-04-2007 09:12:02 13 C 7.48 g/m*3 13 C 0 km/h
2853 27-04-2007 09:24:02 13.8 C 7.51 g/m*3 13.8 C 0 km/h
2854 27-04-2007 09:36:01 14.5 C 7.46 g/m*3 14.5 C 0 km/h
2855 27-04-2007 09:48:02 15.2 C 7.53 g/m*3 15.2 C 0 km/h
2856 27-04-2007 10:00:02 15.9 C 7.58 g/m*3 15.9 C 0 km/h
2857 27-04-2007 10:12:01 16.6 C 7.77 g/m*3 16.6 C 0 km/h
2858 27-04-2007 10:24:02 17.4 C 7.85 g/m*3 17.4 C 0 km/h
2859 27-04-2007 10:36:02 18.1 C 8.03 g/m*3 18.1 C 0 km/h
2860 27-04-2007 10:48:02 18.9 C 8.1 g/m*3 18.9 C 0 km/h
2861 27-04-2007 11:00:02 19.5 C 8.06 g/m*3 19.5 C 0 km/h
2862 27-04-2007 11:12:02 20.2 C 8.04 g/m*3 20.2 C 0 km/h
2863 27-04-2007 11:24:02 21 C 8.06 g/m*3 21 C 0 km/h
2864 27-04-2007 11:36:02 21.8 C 8.06 g/m*3 21.8 C 0 km/h
2865 27-04-2007 11:48:01 22.5 C 7.99 g/m*3 22.5 C 0 km/h
2866 27-04-2007 12:00:01 23.1 C 7.44 g/m*3 23.1 C 0 km/h
2867 27-04-2007 12:12:02 23.8 C 7.53 g/m*3 23.8 C 0 km/h
2868 27-04-2007 12:24:02 24.5 C 7.16 g/m*3 24.5 C 0 km/h
2869 27-04-2007 12:36:01 25.1 C 6.71 g/m*3 25.1 C 0 km/h
2870 27-04-2007 12:48:02 25.6 C 5.95 g/m*3 25.6 C 0 km/h
2871 27-04-2007 13:00:03 26.3 C 6.19 g/m*3 26.3 C 0 km/h
2872 27-04-2007 13:12:02 27.2 C 5.72 g/m*3 27.2 C 0 km/h
2873 27-04-2007 13:24:02 27.5 C 5.29 g/m*3 27.5 C 0 km/h
2874 27-04-2007 13:36:02 28.3 C 5.53 g/m*3 28.3 C 0 km/h
2875 27-04-2007 13:48:03 28.4 C 5.56 g/m*3 28.4 C 0 km/h
Sensor: Nr:Datum:Temp:Abs-Feuchte:Windchill:Wind:
Aussen-T/F 2876 27-04-2007 14:00:03 28.6 C 5.62 g/m*3 28.6 C 0 km/h
2877 27-04-2007 14:12:02 28.2 C 5.5 g/m*3 28.2 C 0 km/h
2878 27-04-2007 14:24:03 28.9 C 5.71 g/m*3 28.9 C 0 km/h
2879 27-04-2007 14:36:02 29.5 C 5.9 g/m*3 29.5 C 0 km/h
2880 27-04-2007 14:48:03 29.5 C 5.9 g/m*3 29.5 C 0 km/h
2881 27-04-2007 15:00:03 29.1 C 5.78 g/m*3 29.1 C 0 km/h
2882 27-04-2007 15:12:02 30 C 6.06 g/m*3 30 C 0 km/h
2883 27-04-2007 15:24:02 30.3 C 6.16 g/m*3 30.3 C 0 km/h
2884 27-04-2007 15:36:03 30.5 C 6.23 g/m*3 30.5 C 0 km/h
2885 27-04-2007 15:48:02 30.4 C 6.2 g/m*3 30.4 C 0 km/h
2886 27-04-2007 16:00:02 30.9 C 6.37 g/m*3 30.9 C 0 km/h
2887 27-04-2007 16:12:02 30.7 C 6.3 g/m*3 30.7 C 0 km/h
2888 27-04-2007 16:24:02 31.6 C 6.61 g/m*3 31.6 C 0 km/h
2889 27-04-2007 16:36:02 31.5 C 6.57 g/m*3 31.5 C 0 km/h
2890 27-04-2007 16:48:02 31.7 C 6.64 g/m*3 31.7 C 0 km/h
2891 27-04-2007 17:00:03 32 C 6.75 g/m*3 32 C 0 km/h
2892 27-04-2007 17:12:02 31.4 C 6.54 g/m*3 31.4 C 0 km/h
2893 27-04-2007 17:24:03 30.9 C 6.37 g/m*3 30.9 C 0 km/h
2894 27-04-2007 17:36:02 31.4 C 6.54 g/m*3 31.4 C 0 km/h
2895 27-04-2007 17:48:02 31.4 C 6.54 g/m*3 31.4 C 0 km/h
2896 27-04-2007 18:00:03 31.7 C 6.64 g/m*3 31.7 C 0 km/h
2897 27-04-2007 18:12:02 31.7 C 6.64 g/m*3 31.7 C 0 km/h
2898 27-04-2007 18:24:02 31.6 C 6.61 g/m*3 31.6 C 0 km/h
2899 27-04-2007 18:36:02 31.5 C 6.57 g/m*3 31.5 C 0 km/h
2900 27-04-2007 18:48:03 31.4 C 6.54 g/m*3 31.4 C 0 km/h
Sensor: Nr:Datum:Temp:Abs-Feuchte:Windchill:Wind:
Aussen-T/F 2901 27-04-2007 19:00:03 31 C 6.4 g/m*3 31 C 0 km/h
2902 27-04-2007 19:12:02 30.9 C 6.37 g/m*3 30.9 C 0 km/h
2903 27-04-2007 19:24:02 30.6 C 6.26 g/m*3 30.6 C 0 km/h
2904 27-04-2007 19:36:03 30 C 6.06 g/m*3 30 C 0 km/h
2905 27-04-2007 19:48:02 29.1 C 5.78 g/m*3 29.1 C 0 km/h
2906 27-04-2007 20:00:02 27.8 C 5.38 g/m*3 27.8 C 0 km/h
2907 27-04-2007 20:12:02 26.4 C 4.98 g/m*3 26.4 C 0 km/h
2908 27-04-2007 20:24:02 25.3 C 4.92 g/m*3 25.3 C 0 km/h
2909 27-04-2007 20:36:02 24.4 C 4.9 g/m*3 24.4 C 0 km/h
2910 27-04-2007 20:48:02 23.9 C 5.19 g/m*3 23.9 C 0 km/h
2911 27-04-2007 21:00:02 23.5 C 5.29 g/m*3 23.5 C 0 km/h
2912 27-04-2007 21:12:03 22.9 C 5.31 g/m*3 22.9 C 0 km/h
2913 27-04-2007 21:24:02 22.4 C 5.56 g/m*3 22.4 C 0 km/h
2914 27-04-2007 21:36:02 21.9 C 5.4 g/m*3 21.9 C 0 km/h
2915 27-04-2007 21:48:02 21.5 C 5.66 g/m*3 21.5 C 0 km/h
2916 27-04-2007 22:00:02 21.1 C 5.53 g/m*3 21.1 C 0 km/h
2917 27-04-2007 22:12:01 20.8 C 5.79 g/m*3 20.8 C 0 km/h
2918 27-04-2007 22:24:02 20.4 C 6.01 g/m*3 20.4 C 0 km/h
2919 27-04-2007 22:36:02 20 C 5.88 g/m*3 20 C 0 km/h
2920 27-04-2007 22:48:03 19.8 C 6.15 g/m*3 19.8 C 0 km/h
2921 27-04-2007 23:00:03 19.5 C 6.21 g/m*3 19.5 C 0 km/h
2922 27-04-2007 23:12:02 19.1 C 6.23 g/m*3 19.1 C 0 km/h
2923 27-04-2007 23:24:02 18.4 C 6.45 g/m*3 18.4 C 0 km/h
2924 27-04-2007 23:36:02 18.3 C 6.41 g/m*3 18.3 C 0 km/h
2925 27-04-2007 23:48:02 18.2 C 6.53 g/m*3 18.2 C 0 km/h

Legende:
   Min
   Max


Maximal/Minimal-Werte vom 07.04.2007 - 27.04.2007

Sensor Min Max Avg
Temp
(Aussen-T/F)
1 °C
08-04-2007  06:45:01
32.1 °C
14-04-2007  17:05:18
14.45 °C
Abs-Feuchte
(Aussen-T/F)
2.93 g/m*3
20-04-2007  18:24:02
9.42 g/m*3
25-04-2007  07:59:02
5.76 g/m*3
Windchill
(Aussen-T/F)
1 C
08-04-2007  06:45:01
32.1 C
14-04-2007  17:05:18
14.44 C

Die Daten stammen von einer Davis Vantage Pro 2 Wetter-Station und werden unter Linux mit der Software wview2wettercgi und aufbereitet. Alle Angaben erfolgen ohne Gewähr für ihre Vollständigkeit oder Richtigkeit.
Kontakt: Rainer Krienke krienke@uni-koblenz.de . Meine Webseiten an der Uni Koblenz oder privat.
Version: $Revision: 0.78 $